<?xml version='1.0' encoding='UTF-8'?><gpx version="1.1" creator="JPX - https://github.com/jenetics/jpx" xmlns="http://www.topografix.com/GPX/1/1"><trk><trkseg><trkpt lat="45.7313443" lon="9.6158539"><ele>290.0</ele><time>2026-04-06T09:20:36.536Z</time></trkpt><trkpt lat="45.7312971" lon="9.6159252"><ele>290.0</ele><time>2026-04-06T09:20:42.46Z</time></trkpt><trkpt lat="45.7312534" lon="9.6160032"><ele>290.0</ele><time>2026-04-06T09:20:47.518Z</time></trkpt><trkpt lat="45.7312094" lon="9.6160736"><ele>290.0</ele><time>2026-04-06T09:20:53.541Z</time></trkpt><trkpt lat="45.7311513" lon="9.616131"><ele>290.0</ele><time>2026-04-06T09:20:59.485Z</time></trkpt><trkpt lat="45.7310928" lon="9.6161696"><ele>290.0</ele><time>2026-04-06T09:21:05.497Z</time></trkpt><trkpt lat="45.7310233" lon="9.6161833"><ele>290.0</ele><time>2026-04-06T09:21:14.522Z</time></trkpt><trkpt lat="45.7309571" lon="9.6161877"><ele>290.8571428571429</ele><time>2026-04-06T09:21:20.536Z</time></trkpt><trkpt lat="45.7309001" lon="9.6162359"><ele>291.7142857142857</ele><time>2026-04-06T09:21:26.545Z</time></trkpt><trkpt lat="45.7308494" lon="9.616312"><ele>292.57142857142856</ele><time>2026-04-06T09:21:33.539Z</time></trkpt><trkpt lat="45.730834" lon="9.6164139"><ele>293.42857142857144</ele><time>2026-04-06T09:21:40.536Z</time></trkpt><trkpt lat="45.7308146" lon="9.6165089"><ele>294.2857142857143</ele><time>2026-04-06T09:21:46.523Z</time></trkpt><trkpt lat="45.7307865" lon="9.6165947"><ele>295.14285714285717</ele><time>2026-04-06T09:21:52.457Z</time></trkpt><trkpt lat="45.730767" lon="9.6166838"><ele>296.0</ele><time>2026-04-06T09:21:58.543Z</time></trkpt><trkpt lat="45.7307517" lon="9.6167747"><ele>296.0</ele><time>2026-04-06T09:22:04.537Z</time></trkpt><trkpt lat="45.7307219" lon="9.6168703"><ele>296.0</ele><time>2026-04-06T09:22:11.518Z</time></trkpt><trkpt lat="45.7306897" lon="9.6169501"><ele>296.0</ele><time>2026-04-06T09:22:17.545Z</time></trkpt><trkpt lat="45.7306434" lon="9.6170261"><ele>296.0</ele><time>2026-04-06T09:22:24.537Z</time></trkpt><trkpt lat="45.73059" lon="9.6170853"><ele>296.0</ele><time>2026-04-06T09:22:31.466Z</time></trkpt><trkpt lat="45.730539" lon="9.6171426"><ele>296.0</ele><time>2026-04-06T09:22:37.538Z</time></trkpt><trkpt lat="45.7304785" lon="9.6171996"><ele>296.0</ele><time>2026-04-06T09:22:43.536Z</time></trkpt><trkpt lat="45.7304223" lon="9.6172441"><ele>295.2857142857143</ele><time>2026-04-06T09:22:49.541Z</time></trkpt><trkpt lat="45.7303603" lon="9.617275"><ele>294.57142857142856</ele><time>2026-04-06T09:22:55.543Z</time></trkpt><trkpt lat="45.7303023" lon="9.6173369"><ele>293.85714285714283</ele><time>2026-04-06T09:23:02.544Z</time></trkpt><trkpt lat="45.7302425" lon="9.6173884"><ele>293.1428571428571</ele><time>2026-04-06T09:23:08.542Z</time></trkpt><trkpt lat="45.7301827" lon="9.6174369"><ele>292.4285714285714</ele><time>2026-04-06T09:23:14.541Z</time></trkpt><trkpt lat="45.7301239" lon="9.6174777"><ele>291.7142857142857</ele><time>2026-04-06T09:23:20.537Z</time></trkpt><trkpt lat="45.7300783" lon="9.6175487"><ele>291.0</ele><time>2026-04-06T09:23:26.487Z</time></trkpt><trkpt lat="45.7300386" lon="9.6176306"><ele>290.85714285714283</ele><time>2026-04-06T09:23:33.54Z</time></trkpt><trkpt lat="45.7300049" lon="9.6177111"><ele>290.71428571428567</ele><time>2026-04-06T09:23:39.543Z</time></trkpt><trkpt lat="45.7299753" lon="9.6178002"><ele>290.57142857142856</ele><time>2026-04-06T09:23:45.539Z</time></trkpt><trkpt lat="45.7299407" lon="9.6178862"><ele>290.42857142857144</ele><time>2026-04-06T09:23:59.541Z</time></trkpt><trkpt lat="45.7298968" lon="9.6179667"><ele>290.28571428571433</ele><time>2026-04-06T09:24:04.547Z</time></trkpt><trkpt lat="45.7298489" lon="9.6180373"><ele>290.14285714285717</ele><time>2026-04-06T09:24:10.54Z</time></trkpt><trkpt lat="45.7297995" lon="9.6181067"><ele>290.0</ele><time>2026-04-06T09:24:16.543Z</time></trkpt><trkpt lat="45.7297453" lon="9.6181768"><ele>290.0</ele><time>2026-04-06T09:24:23.468Z</time></trkpt><trkpt lat="45.7296975" lon="9.618243"><ele>290.0</ele><time>2026-04-06T09:24:29.535Z</time></trkpt><trkpt lat="45.7296519" lon="9.6183067"><ele>290.0</ele><time>2026-04-06T09:24:35.503Z</time></trkpt><trkpt lat="45.729604" lon="9.6183765"><ele>290.0</ele><time>2026-04-06T09:24:41.538Z</time></trkpt><trkpt lat="45.7295587" lon="9.618457"><ele>290.0</ele><time>2026-04-06T09:24:48.483Z</time></trkpt><trkpt lat="45.7295374" lon="9.6185475"><ele>290.0</ele><time>2026-04-06T09:24:54.537Z</time></trkpt><trkpt lat="45.7295204" lon="9.6186493"><ele>290.0</ele><time>2026-04-06T09:25:00.535Z</time></trkpt><trkpt lat="45.7295153" lon="9.6187402"><ele>289.7142857142857</ele><time>2026-04-06T09:25:05.535Z</time></trkpt><trkpt lat="45.7295227" lon="9.6188315"><ele>289.42857142857144</ele><time>2026-04-06T09:25:10.479Z</time></trkpt><trkpt lat="45.7295303" lon="9.6189228"><ele>289.14285714285717</ele><time>2026-04-06T09:25:15.534Z</time></trkpt><trkpt lat="45.7295459" lon="9.6190237"><ele>288.8571428571429</ele><time>2026-04-06T09:25:21.527Z</time></trkpt><trkpt lat="45.7295598" lon="9.6191152"><ele>288.57142857142856</ele><time>2026-04-06T09:25:27.537Z</time></trkpt><trkpt lat="45.7295796" lon="9.6192113"><ele>288.28571428571433</ele><time>2026-04-06T09:25:33.419Z</time></trkpt><trkpt lat="45.729606" lon="9.6193054"><ele>288.0</ele><time>2026-04-06T09:25:39.538Z</time></trkpt><trkpt lat="45.7296183" lon="9.6194027"><ele>288.42857142857144</ele><time>2026-04-06T09:25:45.537Z</time></trkpt><trkpt lat="45.7296283" lon="9.6195024"><ele>288.8571428571429</ele><time>2026-04-06T09:25:51.549Z</time></trkpt><trkpt lat="45.7296345" lon="9.6196002"><ele>289.2857142857143</ele><time>2026-04-06T09:25:58.543Z</time></trkpt><trkpt lat="45.7296275" lon="9.6197091"><ele>289.7142857142857</ele><time>2026-04-06T09:26:04.541Z</time></trkpt><trkpt lat="45.7296305" lon="9.6198051"><ele>290.1428571428571</ele><time>2026-04-06T09:26:11.542Z</time></trkpt><trkpt lat="45.7296135" lon="9.6198983"><ele>290.57142857142856</ele><time>2026-04-06T09:26:18.539Z</time></trkpt><trkpt lat="45.7295842" lon="9.6199931"><ele>291.0</ele><time>2026-04-06T09:26:25.543Z</time></trkpt><trkpt lat="45.7295438" lon="9.6200808"><ele>291.0</ele><time>2026-04-06T09:26:32.536Z</time></trkpt><trkpt lat="45.7295064" lon="9.6201652"><ele>291.0</ele><time>2026-04-06T09:26:38.537Z</time></trkpt><trkpt lat="45.7294698" lon="9.6202527"><ele>291.0</ele><time>2026-04-06T09:26:44.541Z</time></trkpt><trkpt lat="45.7294262" lon="9.6203287"><ele>291.0</ele><time>2026-04-06T09:26:50.538Z</time></trkpt><trkpt lat="45.7293847" lon="9.6204001"><ele>291.0</ele><time>2026-04-06T09:26:56.537Z</time></trkpt><trkpt lat="45.7293494" lon="9.620477"><ele>291.0</ele><time>2026-04-06T09:27:02.538Z</time></trkpt><trkpt lat="45.7293076" lon="9.6205621"><ele>291.0</ele><time>2026-04-06T09:27:09.542Z</time></trkpt><trkpt lat="45.729262" lon="9.6206295"><ele>291.7142857142857</ele><time>2026-04-06T09:27:16.538Z</time></trkpt><trkpt lat="45.7292104" lon="9.6206971"><ele>292.4285714285714</ele><time>2026-04-06T09:27:22.537Z</time></trkpt><trkpt lat="45.7291618" lon="9.6207667"><ele>293.1428571428571</ele><time>2026-04-06T09:27:28.506Z</time></trkpt><trkpt lat="45.7291055" lon="9.6208124"><ele>293.85714285714283</ele><time>2026-04-06T09:27:34.535Z</time></trkpt><trkpt lat="45.7290516" lon="9.6208639"><ele>294.57142857142856</ele><time>2026-04-06T09:27:41.542Z</time></trkpt><trkpt lat="45.7289988" lon="9.6209393"><ele>295.2857142857143</ele><time>2026-04-06T09:27:47.538Z</time></trkpt><trkpt lat="45.7289622" lon="9.6210299"><ele>296.0</ele><time>2026-04-06T09:27:53.463Z</time></trkpt><trkpt lat="45.7289329" lon="9.6211236"><ele>296.0</ele><time>2026-04-06T09:27:59.535Z</time></trkpt><trkpt lat="45.7288933" lon="9.6212057"><ele>296.0</ele><time>2026-04-06T09:28:05.543Z</time></trkpt><trkpt lat="45.7288515" lon="9.6212764"><ele>296.0</ele><time>2026-04-06T09:28:10.541Z</time></trkpt><trkpt lat="45.7288006" lon="9.6213437"><ele>296.0</ele><time>2026-04-06T09:28:16.542Z</time></trkpt><trkpt lat="45.7287472" lon="9.6213974"><ele>296.0</ele><time>2026-04-06T09:28:22.458Z</time></trkpt><trkpt lat="45.7286863" lon="9.6214474"><ele>296.0</ele><time>2026-04-06T09:28:28.537Z</time></trkpt><trkpt lat="45.728613" lon="9.6214663"><ele>296.0</ele><time>2026-04-06T09:28:34.536Z</time></trkpt><trkpt lat="45.7285479" lon="9.6214914"><ele>296.0</ele><time>2026-04-06T09:28:40.541Z</time></trkpt><trkpt lat="45.7284865" lon="9.621525"><ele>296.0</ele><time>2026-04-06T09:28:46.521Z</time></trkpt><trkpt lat="45.7284182" lon="9.6215597"><ele>296.0</ele><time>2026-04-06T09:28:52.54Z</time></trkpt><trkpt lat="45.7283566" lon="9.6215924"><ele>296.0</ele><time>2026-04-06T09:28:58.536Z</time></trkpt><trkpt lat="45.7282866" lon="9.6216216"><ele>296.0</ele><time>2026-04-06T09:29:04.443Z</time></trkpt><trkpt lat="45.7282229" lon="9.6216663"><ele>296.0</ele><time>2026-04-06T09:29:10.537Z</time></trkpt><trkpt lat="45.7281596" lon="9.6216614"><ele>296.0</ele><time>2026-04-06T09:29:18.541Z</time></trkpt><trkpt lat="45.7280953" lon="9.6216964"><ele>296.0</ele><time>2026-04-06T09:29:24.539Z</time></trkpt><trkpt lat="45.7280521" lon="9.6217766"><ele>296.0</ele><time>2026-04-06T09:29:30.535Z</time></trkpt><trkpt lat="45.7280621" lon="9.621872"><ele>296.0</ele><time>2026-04-06T09:29:35.545Z</time></trkpt><trkpt lat="45.7281038" lon="9.6219474"><ele>296.0</ele><time>2026-04-06T09:29:40.535Z</time></trkpt><trkpt lat="45.7281574" lon="9.6220229"><ele>296.0</ele><time>2026-04-06T09:29:46.516Z</time></trkpt><trkpt lat="45.7282047" lon="9.6220883"><ele>296.0</ele><time>2026-04-06T09:29:51.538Z</time></trkpt><trkpt lat="45.7282375" lon="9.6221829"><ele>296.0</ele><time>2026-04-06T09:29:57.541Z</time></trkpt><trkpt lat="45.7282697" lon="9.6222717"><ele>296.14285714285717</ele><time>2026-04-06T09:30:03.538Z</time></trkpt><trkpt lat="45.7282953" lon="9.6223654"><ele>296.2857142857143</ele><time>2026-04-06T09:30:09.537Z</time></trkpt><trkpt lat="45.7283192" lon="9.6224555"><ele>296.42857142857144</ele><time>2026-04-06T09:30:15.538Z</time></trkpt><trkpt lat="45.7283439" lon="9.6225439"><ele>296.57142857142856</ele><time>2026-04-06T09:30:21.532Z</time></trkpt><trkpt lat="45.728367" lon="9.6226353"><ele>296.7142857142857</ele><time>2026-04-06T09:30:27.546Z</time></trkpt><trkpt lat="45.7283875" lon="9.6227227"><ele>296.8571428571429</ele><time>2026-04-06T09:30:35.536Z</time></trkpt><trkpt lat="45.7284053" lon="9.6228186"><ele>297.0</ele><time>2026-04-06T09:30:41.534Z</time></trkpt><trkpt lat="45.7284173" lon="9.6229206"><ele>297.0</ele><time>2026-04-06T09:30:47.464Z</time></trkpt><trkpt lat="45.7284289" lon="9.6230207"><ele>297.0</ele><time>2026-04-06T09:30:53.537Z</time></trkpt><trkpt lat="45.7284295" lon="9.6231172"><ele>297.0</ele><time>2026-04-06T09:30:59.535Z</time></trkpt><trkpt lat="45.7284314" lon="9.6232096"><ele>297.0</ele><time>2026-04-06T09:31:05.541Z</time></trkpt><trkpt lat="45.7284314" lon="9.6233065"><ele>297.0</ele><time>2026-04-06T09:31:12.439Z</time></trkpt><trkpt lat="45.7284211" lon="9.6234053"><ele>297.0</ele><time>2026-04-06T09:31:18.537Z</time></trkpt><trkpt lat="45.7284118" lon="9.6234949"><ele>297.0</ele><time>2026-04-06T09:31:24.545Z</time></trkpt><trkpt lat="45.7284036" lon="9.6235844"><ele>296.42857142857144</ele><time>2026-04-06T09:31:29.54Z</time></trkpt><trkpt lat="45.7284064" lon="9.6236796"><ele>295.8571428571429</ele><time>2026-04-06T09:31:35.538Z</time></trkpt><trkpt lat="45.7284275" lon="9.6237648"><ele>295.2857142857143</ele><time>2026-04-06T09:31:41.464Z</time></trkpt><trkpt lat="45.7284398" lon="9.6238561"><ele>294.7142857142857</ele><time>2026-04-06T09:31:46.547Z</time></trkpt><trkpt lat="45.7284554" lon="9.6239575"><ele>294.1428571428571</ele><time>2026-04-06T09:31:52.543Z</time></trkpt><trkpt lat="45.7284774" lon="9.6240514"><ele>293.57142857142856</ele><time>2026-04-06T09:31:58.539Z</time></trkpt><trkpt lat="45.7284881" lon="9.624145"><ele>293.0</ele><time>2026-04-06T09:32:04.536Z</time></trkpt><trkpt lat="45.7285136" lon="9.6242347"><ele>292.99999999999994</ele><time>2026-04-06T09:32:10.46Z</time></trkpt><trkpt lat="45.7285438" lon="9.6243144"><ele>293.0</ele><time>2026-04-06T09:32:16.536Z</time></trkpt><trkpt lat="45.7285811" lon="9.6243999"><ele>293.0</ele><time>2026-04-06T09:32:23.536Z</time></trkpt><trkpt lat="45.7286157" lon="9.6244842"><ele>293.0</ele><time>2026-04-06T09:32:30.532Z</time></trkpt><trkpt lat="45.7286476" lon="9.6245698"><ele>293.0</ele><time>2026-04-06T09:32:36.542Z</time></trkpt><trkpt lat="45.7286804" lon="9.6246598"><ele>292.99999999999994</ele><time>2026-04-06T09:32:42.536Z</time></trkpt><trkpt lat="45.7287112" lon="9.6247474"><ele>293.0</ele><time>2026-04-06T09:32:48.541Z</time></trkpt><trkpt lat="45.7287363" lon="9.6248362"><ele>292.57142857142856</ele><time>2026-04-06T09:32:53.534Z</time></trkpt><trkpt lat="45.7287553" lon="9.624926"><ele>292.1428571428571</ele><time>2026-04-06T09:32:58.543Z</time></trkpt><trkpt lat="45.728789" lon="9.6250182"><ele>291.7142857142857</ele><time>2026-04-06T09:33:04.534Z</time></trkpt><trkpt lat="45.7288282" lon="9.6250957"><ele>291.2857142857143</ele><time>2026-04-06T09:33:10.538Z</time></trkpt><trkpt lat="45.7288748" lon="9.6251773"><ele>290.8571428571429</ele><time>2026-04-06T09:33:17.538Z</time></trkpt><trkpt lat="45.72888" lon="9.6252675"><ele>290.42857142857144</ele><time>2026-04-06T09:33:22.483Z</time></trkpt><trkpt lat="45.7288821" lon="9.6253578"><ele>290.0</ele><time>2026-04-06T09:33:27.534Z</time></trkpt><trkpt lat="45.728877" lon="9.6254645"><ele>290.0</ele><time>2026-04-06T09:33:33.537Z</time></trkpt><trkpt lat="45.728884" lon="9.6255638"><ele>290.0</ele><time>2026-04-06T09:33:39.534Z</time></trkpt><trkpt lat="45.7288786" lon="9.625658"><ele>290.0</ele><time>2026-04-06T09:33:45.48Z</time></trkpt><trkpt lat="45.7288672" lon="9.6257594"><ele>290.0</ele><time>2026-04-06T09:33:51.534Z</time></trkpt><trkpt lat="45.7288695" lon="9.625858"><ele>290.0</ele><time>2026-04-06T09:33:57.534Z</time></trkpt><trkpt lat="45.7288735" lon="9.6259587"><ele>290.0</ele><time>2026-04-06T09:34:03.54Z</time></trkpt><trkpt lat="45.728869" lon="9.6260635"><ele>290.0</ele><time>2026-04-06T09:34:10.539Z</time></trkpt><trkpt lat="45.7288305" lon="9.6261497"><ele>289.7142857142857</ele><time>2026-04-06T09:34:16.533Z</time></trkpt><trkpt lat="45.7287736" lon="9.6262105"><ele>289.42857142857144</ele><time>2026-04-06T09:34:22.531Z</time></trkpt><trkpt lat="45.728702" lon="9.6262149"><ele>289.14285714285717</ele><time>2026-04-06T09:34:29.535Z</time></trkpt><trkpt lat="45.7286405" lon="9.6262491"><ele>288.8571428571429</ele><time>2026-04-06T09:34:35.535Z</time></trkpt><trkpt lat="45.7285935" lon="9.6263226"><ele>288.57142857142856</ele><time>2026-04-06T09:34:41.539Z</time></trkpt><trkpt lat="45.7285628" lon="9.6264187"><ele>288.28571428571433</ele><time>2026-04-06T09:34:47.532Z</time></trkpt><trkpt lat="45.7285222" lon="9.6265001"><ele>288.0</ele><time>2026-04-06T09:34:53.534Z</time></trkpt><trkpt lat="45.7284734" lon="9.626578"><ele>288.42857142857144</ele><time>2026-04-06T09:34:59.542Z</time></trkpt><trkpt lat="45.7284226" lon="9.6266604"><ele>288.8571428571429</ele><time>2026-04-06T09:35:05.542Z</time></trkpt><trkpt lat="45.7283867" lon="9.6267409"><ele>289.2857142857143</ele><time>2026-04-06T09:35:12.538Z</time></trkpt><trkpt lat="45.7284076" lon="9.6268356"><ele>289.7142857142857</ele><time>2026-04-06T09:35:18.54Z</time></trkpt><trkpt lat="45.7284314" lon="9.6269239"><ele>290.1428571428571</ele><time>2026-04-06T09:35:25.536Z</time></trkpt><trkpt lat="45.7284295" lon="9.6270167"><ele>290.57142857142856</ele><time>2026-04-06T09:35:31.534Z</time></trkpt><trkpt lat="45.7283869" lon="9.6271002"><ele>291.0</ele><time>2026-04-06T09:35:37.542Z</time></trkpt><trkpt lat="45.7283307" lon="9.6271558"><ele>291.0</ele><time>2026-04-06T09:35:43.463Z</time></trkpt><trkpt lat="45.7282719" lon="9.6272"><ele>291.0</ele><time>2026-04-06T09:35:49.477Z</time></trkpt><trkpt lat="45.7282172" lon="9.6272447"><ele>291.0</ele><time>2026-04-06T09:35:55.537Z</time></trkpt><trkpt lat="45.7281603" lon="9.627304"><ele>291.0</ele><time>2026-04-06T09:36:01.535Z</time></trkpt><trkpt lat="45.7281172" lon="9.6273764"><ele>291.0</ele><time>2026-04-06T09:36:07.535Z</time></trkpt><trkpt lat="45.7280791" lon="9.6274485"><ele>291.0</ele><time>2026-04-06T09:36:13.544Z</time></trkpt><trkpt lat="45.728036" lon="9.6275248"><ele>291.0</ele><time>2026-04-06T09:36:19.536Z</time></trkpt><trkpt lat="45.7279855" lon="9.6275792"><ele>291.0</ele><time>2026-04-06T09:36:25.54Z</time></trkpt><trkpt lat="45.7279256" lon="9.6276077"><ele>291.0</ele><time>2026-04-06T09:36:31.54Z</time></trkpt><trkpt lat="45.7278623" lon="9.6276552"><ele>291.0</ele><time>2026-04-06T09:36:38.538Z</time></trkpt><trkpt lat="45.7277979" lon="9.6276943"><ele>291.0</ele><time>2026-04-06T09:36:44.543Z</time></trkpt><trkpt lat="45.7277417" lon="9.6277621"><ele>291.0</ele><time>2026-04-06T09:36:50.552Z</time></trkpt><trkpt lat="45.7276863" lon="9.6278199"><ele>291.0</ele><time>2026-04-06T09:36:56.534Z</time></trkpt><trkpt lat="45.7276351" lon="9.6278749"><ele>291.0</ele><time>2026-04-06T09:37:02.527Z</time></trkpt><trkpt lat="45.7275947" lon="9.6279616"><ele>291.42857142857144</ele><time>2026-04-06T09:37:09.485Z</time></trkpt><trkpt lat="45.7275661" lon="9.6280427"><ele>291.85714285714283</ele><time>2026-04-06T09:37:15.531Z</time></trkpt><trkpt lat="45.7275268" lon="9.6281167"><ele>292.2857142857143</ele><time>2026-04-06T09:37:21.535Z</time></trkpt><trkpt lat="45.7275012" lon="9.6282129"><ele>292.7142857142857</ele><time>2026-04-06T09:37:29.534Z</time></trkpt><trkpt lat="45.7274677" lon="9.6283008"><ele>293.1428571428571</ele><time>2026-04-06T09:38:39.53Z</time></trkpt><trkpt lat="45.727436" lon="9.6284003"><ele>293.57142857142856</ele><time>2026-04-06T09:38:47.501Z</time></trkpt><trkpt lat="45.7274049" lon="9.6284906"><ele>294.0</ele><time>2026-04-06T09:38:53.541Z</time></trkpt><trkpt lat="45.7273605" lon="9.6285609"><ele>294.0</ele><time>2026-04-06T09:38:58.553Z</time></trkpt><trkpt lat="45.7273092" lon="9.6286338"><ele>294.0</ele><time>2026-04-06T09:39:04.553Z</time></trkpt><trkpt lat="45.7272614" lon="9.6287106"><ele>294.0</ele><time>2026-04-06T09:39:11.534Z</time></trkpt><trkpt lat="45.7272204" lon="9.6287984"><ele>294.0</ele><time>2026-04-06T09:39:17.541Z</time></trkpt><trkpt lat="45.7271797" lon="9.6288861"><ele>294.0</ele><time>2026-04-06T09:39:24.541Z</time></trkpt><trkpt lat="45.7271333" lon="9.6289616"><ele>294.0</ele><time>2026-04-06T09:39:30.483Z</time></trkpt><trkpt lat="45.7270789" lon="9.629015"><ele>294.0</ele><time>2026-04-06T09:39:35.595Z</time></trkpt><trkpt lat="45.7270314" lon="9.6290799"><ele>294.42857142857144</ele><time>2026-04-06T09:39:40.548Z</time></trkpt><trkpt lat="45.7269788" lon="9.6291479"><ele>294.8571428571429</ele><time>2026-04-06T09:39:46.469Z</time></trkpt><trkpt lat="45.7269271" lon="9.6292027"><ele>295.2857142857143</ele><time>2026-04-06T09:39:51.555Z</time></trkpt><trkpt lat="45.7268667" lon="9.6292353"><ele>295.7142857142857</ele><time>2026-04-06T09:39:56.593Z</time></trkpt><trkpt lat="45.7268231" lon="9.629305"><ele>296.14285714285717</ele><time>2026-04-06T09:40:01.548Z</time></trkpt><trkpt lat="45.7267941" lon="9.6294023"><ele>296.57142857142856</ele><time>2026-04-06T09:40:07.561Z</time></trkpt><trkpt lat="45.7267756" lon="9.6294909"><ele>297.0</ele><time>2026-04-06T09:40:13.543Z</time></trkpt><trkpt lat="45.7267497" lon="9.6295761"><ele>297.14285714285717</ele><time>2026-04-06T09:40:20.463Z</time></trkpt><trkpt lat="45.7267255" lon="9.6296724"><ele>297.28571428571433</ele><time>2026-04-06T09:40:26.546Z</time></trkpt><trkpt lat="45.7267105" lon="9.6297736"><ele>297.42857142857144</ele><time>2026-04-06T09:40:33.546Z</time></trkpt><trkpt lat="45.7266962" lon="9.6298632"><ele>297.57142857142856</ele><time>2026-04-06T09:40:39.563Z</time></trkpt><trkpt lat="45.7266729" lon="9.6299621"><ele>297.71428571428567</ele><time>2026-04-06T09:40:46.448Z</time></trkpt><trkpt lat="45.7266346" lon="9.6300436"><ele>297.85714285714283</ele><time>2026-04-06T09:40:52.55Z</time></trkpt><trkpt lat="45.7266033" lon="9.6301436"><ele>298.0</ele><time>2026-04-06T09:40:59.543Z</time></trkpt><trkpt lat="45.7265793" lon="9.6302374"><ele>298.1428571428571</ele><time>2026-04-06T09:41:06.548Z</time></trkpt><trkpt lat="45.7265509" lon="9.6303246"><ele>298.2857142857143</ele><time>2026-04-06T09:41:12.541Z</time></trkpt><trkpt lat="45.7265254" lon="9.6304095"><ele>298.42857142857144</ele><time>2026-04-06T09:41:18.563Z</time></trkpt><trkpt lat="45.7264966" lon="9.6304995"><ele>298.57142857142856</ele><time>2026-04-06T09:41:24.565Z</time></trkpt><trkpt lat="45.7264911" lon="9.6305906"><ele>298.7142857142857</ele><time>2026-04-06T09:41:31.546Z</time></trkpt><trkpt lat="45.7264769" lon="9.6306844"><ele>298.85714285714283</ele><time>2026-04-06T09:41:36.531Z</time></trkpt><trkpt lat="45.7264647" lon="9.6307753"><ele>299.0</ele><time>2026-04-06T09:41:42.461Z</time></trkpt><trkpt lat="45.7264589" lon="9.6308816"><ele>299.0</ele><time>2026-04-06T09:41:50.545Z</time></trkpt><trkpt lat="45.7264414" lon="9.6309825"><ele>299.0</ele><time>2026-04-06T09:41:56.547Z</time></trkpt><trkpt lat="45.7264345" lon="9.6310806"><ele>299.0</ele><time>2026-04-06T09:42:02.546Z</time></trkpt><trkpt lat="45.7264304" lon="9.6311736"><ele>299.0</ele><time>2026-04-06T09:42:08.55Z</time></trkpt><trkpt lat="45.7264348" lon="9.6312793"><ele>299.0</ele><time>2026-04-06T09:42:14.54Z</time></trkpt><trkpt lat="45.7264349" lon="9.6313773"><ele>299.0</ele><time>2026-04-06T09:42:20.558Z</time></trkpt><trkpt lat="45.7264291" lon="9.631472"><ele>299.0</ele><time>2026-04-06T09:42:26.56Z</time></trkpt><trkpt lat="45.7264333" lon="9.6315724"><ele>298.7142857142857</ele><time>2026-04-06T09:42:34.551Z</time></trkpt><trkpt lat="45.726442" lon="9.6316807"><ele>298.42857142857144</ele><time>2026-04-06T09:42:40.536Z</time></trkpt><trkpt lat="45.7264334" lon="9.6317841"><ele>298.14285714285717</ele><time>2026-04-06T09:42:47.54Z</time></trkpt><trkpt lat="45.7264042" lon="9.6318703"><ele>297.8571428571429</ele><time>2026-04-06T09:42:53.519Z</time></trkpt><trkpt lat="45.7263762" lon="9.6319569"><ele>297.5714285714286</ele><time>2026-04-06T09:42:59.55Z</time></trkpt><trkpt lat="45.7263282" lon="9.6320287"><ele>297.2857142857143</ele><time>2026-04-06T09:43:05.548Z</time></trkpt><trkpt lat="45.726277" lon="9.6320967"><ele>297.0</ele><time>2026-04-06T09:43:11.541Z</time></trkpt><trkpt lat="45.7262286" lon="9.6321647"><ele>297.0</ele><time>2026-04-06T09:43:18.544Z</time></trkpt><trkpt lat="45.7262051" lon="9.6322624"><ele>297.0</ele><time>2026-04-06T09:43:25.546Z</time></trkpt><trkpt lat="45.7261842" lon="9.6323575"><ele>297.0</ele><time>2026-04-06T09:43:31.446Z</time></trkpt><trkpt lat="45.7261525" lon="9.6324547"><ele>297.0</ele><time>2026-04-06T09:43:37.549Z</time></trkpt><trkpt lat="45.7260948" lon="9.6325201"><ele>297.0</ele><time>2026-04-06T09:43:43.547Z</time></trkpt><trkpt lat="45.7260509" lon="9.6325864"><ele>297.0</ele><time>2026-04-06T09:43:49.555Z</time></trkpt><trkpt lat="45.7259905" lon="9.6326168"><ele>297.0</ele><time>2026-04-06T09:43:54.561Z</time></trkpt><trkpt lat="45.7259277" lon="9.6326534"><ele>296.57142857142856</ele><time>2026-04-06T09:44:00.552Z</time></trkpt><trkpt lat="45.7258723" lon="9.6327146"><ele>296.14285714285717</ele><time>2026-04-06T09:44:06.589Z</time></trkpt><trkpt lat="45.7258235" lon="9.6327876"><ele>295.7142857142857</ele><time>2026-04-06T09:44:13.549Z</time></trkpt><trkpt lat="45.7257772" lon="9.6328497"><ele>295.2857142857143</ele><time>2026-04-06T09:44:19.548Z</time></trkpt><trkpt lat="45.7257388" lon="9.6329271"><ele>294.8571428571429</ele><time>2026-04-06T09:44:25.557Z</time></trkpt><trkpt lat="45.7256955" lon="9.6330055"><ele>294.42857142857144</ele><time>2026-04-06T09:44:32.553Z</time></trkpt><trkpt lat="45.7256565" lon="9.6330854"><ele>294.0</ele><time>2026-04-06T09:44:38.544Z</time></trkpt><trkpt lat="45.7256214" lon="9.6331728"><ele>294.0</ele><time>2026-04-06T09:44:44.535Z</time></trkpt><trkpt lat="45.7255809" lon="9.6332521"><ele>294.0</ele><time>2026-04-06T09:44:50.48Z</time></trkpt><trkpt lat="45.7255398" lon="9.6333247"><ele>294.0</ele><time>2026-04-06T09:44:57.534Z</time></trkpt><trkpt lat="45.7255064" lon="9.6334123"><ele>294.0</ele><time>2026-04-06T09:45:04.558Z</time></trkpt><trkpt lat="45.725476" lon="9.6334932"><ele>294.0</ele><time>2026-04-06T09:45:10.547Z</time></trkpt><trkpt lat="45.7254389" lon="9.6335744"><ele>294.0</ele><time>2026-04-06T09:45:16.546Z</time></trkpt><trkpt lat="45.7254238" lon="9.6336632"><ele>294.0</ele><time>2026-04-06T09:45:22.541Z</time></trkpt><trkpt lat="45.7254369" lon="9.6337634"><ele>293.42857142857144</ele><time>2026-04-06T09:45:28.543Z</time></trkpt><trkpt lat="45.7254441" lon="9.633858"><ele>292.8571428571429</ele><time>2026-04-06T09:45:33.549Z</time></trkpt><trkpt lat="45.7254416" lon="9.6339558"><ele>292.2857142857143</ele><time>2026-04-06T09:45:39.553Z</time></trkpt><trkpt lat="45.7253962" lon="9.634035"><ele>291.7142857142857</ele><time>2026-04-06T09:45:51.542Z</time></trkpt><trkpt lat="45.7253478" lon="9.6341065"><ele>291.14285714285717</ele><time>2026-04-06T09:45:57.539Z</time></trkpt><trkpt lat="45.7253113" lon="9.6341879"><ele>290.57142857142856</ele><time>2026-04-06T09:46:03.505Z</time></trkpt><trkpt lat="45.7252761" lon="9.634267"><ele>290.0</ele><time>2026-04-06T09:46:10.542Z</time></trkpt><trkpt lat="45.725231" lon="9.6343361"><ele>290.8571428571429</ele><time>2026-04-06T09:46:17.549Z</time></trkpt><trkpt lat="45.7251945" lon="9.634415"><ele>291.7142857142857</ele><time>2026-04-06T09:46:24.542Z</time></trkpt><trkpt lat="45.7251634" lon="9.634496"><ele>292.57142857142856</ele><time>2026-04-06T09:46:30.545Z</time></trkpt><trkpt lat="45.7251329" lon="9.6345784"><ele>293.42857142857144</ele><time>2026-04-06T09:46:36.553Z</time></trkpt><trkpt lat="45.725092" lon="9.6346536"><ele>294.2857142857143</ele><time>2026-04-06T09:46:42.509Z</time></trkpt><trkpt lat="45.7250456" lon="9.6347228"><ele>295.14285714285717</ele><time>2026-04-06T09:46:48.48Z</time></trkpt><trkpt lat="45.725004" lon="9.6347944"><ele>296.0</ele><time>2026-04-06T09:46:54.538Z</time></trkpt><trkpt lat="45.7249563" lon="9.6348661"><ele>296.0</ele><time>2026-04-06T09:47:01.54Z</time></trkpt><trkpt lat="45.724919" lon="9.6349467"><ele>296.0</ele><time>2026-04-06T09:47:07.54Z</time></trkpt><trkpt lat="45.7248774" lon="9.6350218"><ele>296.0</ele><time>2026-04-06T09:47:13.552Z</time></trkpt><trkpt lat="45.7248295" lon="9.635097"><ele>296.0</ele><time>2026-04-06T09:47:20.552Z</time></trkpt><trkpt lat="45.7247725" lon="9.6351538"><ele>296.0</ele><time>2026-04-06T09:47:28.552Z</time></trkpt><trkpt lat="45.7247233" lon="9.635227"><ele>296.0</ele><time>2026-04-06T09:47:35.552Z</time></trkpt><trkpt lat="45.7246573" lon="9.63526"><ele>296.0</ele><time>2026-04-06T09:47:42.559Z</time></trkpt><trkpt lat="45.7246049" lon="9.6353203"><ele>295.57142857142856</ele><time>2026-04-06T09:47:48.553Z</time></trkpt><trkpt lat="45.7245591" lon="9.6353976"><ele>295.1428571428571</ele><time>2026-04-06T09:47:54.552Z</time></trkpt><trkpt lat="45.7245206" lon="9.6354841"><ele>294.71428571428567</ele><time>2026-04-06T09:48:01.554Z</time></trkpt><trkpt lat="45.7244992" lon="9.635579"><ele>294.2857142857143</ele><time>2026-04-06T09:48:08.465Z</time></trkpt><trkpt lat="45.7244826" lon="9.6356661"><ele>293.85714285714283</ele><time>2026-04-06T09:48:14.555Z</time></trkpt><trkpt lat="45.724467" lon="9.6357683"><ele>293.4285714285714</ele><time>2026-04-06T09:48:20.559Z</time></trkpt><trkpt lat="45.7244456" lon="9.6358624"><ele>293.0</ele><time>2026-04-06T09:48:26.506Z</time></trkpt><trkpt lat="45.7244214" lon="9.6359577"><ele>292.71428571428567</ele><time>2026-04-06T09:48:31.537Z</time></trkpt><trkpt lat="45.7243881" lon="9.6360344"><ele>292.42857142857144</ele><time>2026-04-06T09:48:36.543Z</time></trkpt><trkpt lat="45.7243717" lon="9.636126"><ele>292.1428571428571</ele><time>2026-04-06T09:48:42.557Z</time></trkpt><trkpt lat="45.7243899" lon="9.6362231"><ele>291.85714285714283</ele><time>2026-04-06T09:48:48.542Z</time></trkpt><trkpt lat="45.7244124" lon="9.6363132"><ele>291.57142857142856</ele><time>2026-04-06T09:48:54.555Z</time></trkpt><trkpt lat="45.7244244" lon="9.6364317"><ele>291.2857142857143</ele><time>2026-04-06T09:49:01.56Z</time></trkpt><trkpt lat="45.724404" lon="9.6365316"><ele>291.0</ele><time>2026-04-06T09:49:07.587Z</time></trkpt><trkpt lat="45.7244004" lon="9.6366364"><ele>291.0</ele><time>2026-04-06T09:49:13.541Z</time></trkpt><trkpt lat="45.724409" lon="9.6367335"><ele>291.0</ele><time>2026-04-06T09:49:18.534Z</time></trkpt><trkpt lat="45.7243992" lon="9.6368332"><ele>291.0</ele><time>2026-04-06T09:49:25.469Z</time></trkpt><trkpt lat="45.7244077" lon="9.6369233"><ele>291.0</ele><time>2026-04-06T09:49:31.539Z</time></trkpt><trkpt lat="45.7244005" lon="9.6370218"><ele>291.0</ele><time>2026-04-06T09:49:38.541Z</time></trkpt><trkpt lat="45.7243883" lon="9.637116"><ele>291.0</ele><time>2026-04-06T09:49:44.562Z</time></trkpt><trkpt lat="45.7243937" lon="9.6372177"><ele>291.0</ele><time>2026-04-06T09:49:51.553Z</time></trkpt><trkpt lat="45.7244126" lon="9.6373167"><ele>291.2857142857143</ele><time>2026-04-06T09:49:58.543Z</time></trkpt><trkpt lat="45.7244348" lon="9.6374121"><ele>291.57142857142856</ele><time>2026-04-06T09:50:04.556Z</time></trkpt><trkpt lat="45.7244535" lon="9.6375115"><ele>291.85714285714283</ele><time>2026-04-06T09:50:11.543Z</time></trkpt><trkpt lat="45.7244729" lon="9.6376011"><ele>292.1428571428571</ele><time>2026-04-06T09:50:17.557Z</time></trkpt><trkpt lat="45.7244728" lon="9.6377061"><ele>292.42857142857144</ele><time>2026-04-06T09:50:23.538Z</time></trkpt><trkpt lat="45.7244587" lon="9.6378068"><ele>292.71428571428567</ele><time>2026-04-06T09:50:29.54Z</time></trkpt><trkpt lat="45.7244441" lon="9.6378951"><ele>293.0</ele><time>2026-04-06T09:50:34.57Z</time></trkpt><trkpt lat="45.7244085" lon="9.6379703"><ele>294.4285714285714</ele><time>2026-04-06T09:50:40.548Z</time></trkpt><trkpt lat="45.7243689" lon="9.6380622"><ele>295.85714285714283</ele><time>2026-04-06T09:50:47.535Z</time></trkpt><trkpt lat="45.7243407" lon="9.6381508"><ele>297.2857142857143</ele><time>2026-04-06T09:50:54.544Z</time></trkpt><trkpt lat="45.7242975" lon="9.6382258"><ele>298.71428571428567</ele><time>2026-04-06T09:51:01.537Z</time></trkpt><trkpt lat="45.7242537" lon="9.638308"><ele>300.1428571428571</ele><time>2026-04-06T09:51:07.541Z</time></trkpt><trkpt lat="45.7242053" lon="9.638379"><ele>301.57142857142856</ele><time>2026-04-06T09:51:13.549Z</time></trkpt><trkpt lat="45.7241516" lon="9.6384464"><ele>303.0</ele><time>2026-04-06T09:51:19.538Z</time></trkpt><trkpt lat="45.7240936" lon="9.6384823"><ele>303.0</ele><time>2026-04-06T09:51:25.541Z</time></trkpt><trkpt lat="45.7241118" lon="9.6383819"><ele>303.0</ele><time>2026-04-06T09:51:30.559Z</time></trkpt><trkpt lat="45.7240631" lon="9.6383206"><ele>303.0</ele><time>2026-04-06T09:51:36.553Z</time></trkpt><trkpt lat="45.723994" lon="9.6383482"><ele>303.0</ele><time>2026-04-06T09:51:42.546Z</time></trkpt><trkpt lat="45.7240532" lon="9.6384013"><ele>303.0</ele><time>2026-04-06T09:52:30.597Z</time></trkpt><trkpt lat="45.7241136" lon="9.638464"><ele>303.0</ele><time>2026-04-06T09:52:37.545Z</time></trkpt><trkpt lat="45.7241756" lon="9.6385298"><ele>303.0</ele><time>2026-04-06T09:52:46.545Z</time></trkpt><trkpt lat="45.7242123" lon="9.6386058"><ele>302.57142857142856</ele><time>2026-04-06T09:52:51.541Z</time></trkpt><trkpt lat="45.724258" lon="9.6386732"><ele>302.1428571428571</ele><time>2026-04-06T09:52:57.541Z</time></trkpt><trkpt lat="45.724326" lon="9.6386748"><ele>301.71428571428567</ele><time>2026-04-06T09:53:03.568Z</time></trkpt><trkpt lat="45.7243916" lon="9.6386699"><ele>301.2857142857143</ele><time>2026-04-06T09:53:09.562Z</time></trkpt><trkpt lat="45.7244571" lon="9.6386694"><ele>300.85714285714283</ele><time>2026-04-06T09:53:15.532Z</time></trkpt><trkpt lat="45.7245225" lon="9.6387087"><ele>300.4285714285714</ele><time>2026-04-06T09:53:22.54Z</time></trkpt><trkpt lat="45.7245807" lon="9.6387443"><ele>300.0</ele><time>2026-04-06T09:53:28.54Z</time></trkpt><trkpt lat="45.7246446" lon="9.6387958"><ele>298.99999999999994</ele><time>2026-04-06T09:53:34.575Z</time></trkpt><trkpt lat="45.7247019" lon="9.638855"><ele>298.0</ele><time>2026-04-06T09:53:39.533Z</time></trkpt><trkpt lat="45.7247558" lon="9.6389286"><ele>297.0</ele><time>2026-04-06T09:53:45.539Z</time></trkpt><trkpt lat="45.7248082" lon="9.6389946"><ele>296.0</ele><time>2026-04-06T09:53:51.54Z</time></trkpt><trkpt lat="45.7248676" lon="9.6390579"><ele>295.0</ele><time>2026-04-06T09:53:57.547Z</time></trkpt><trkpt lat="45.7249246" lon="9.6391274"><ele>293.99999999999994</ele><time>2026-04-06T09:54:02.548Z</time></trkpt><trkpt lat="45.724972" lon="9.6391924"><ele>293.0</ele><time>2026-04-06T09:54:07.553Z</time></trkpt><trkpt lat="45.7250198" lon="9.639272"><ele>292.99999999999994</ele><time>2026-04-06T09:54:12.386Z</time></trkpt><trkpt lat="45.7250585" lon="9.639355"><ele>293.0</ele><time>2026-04-06T09:54:17.241Z</time></trkpt><trkpt lat="45.7251118" lon="9.6394378"><ele>293.0</ele><time>2026-04-06T09:54:23.538Z</time></trkpt><trkpt lat="45.7251561" lon="9.6395147"><ele>293.0</ele><time>2026-04-06T09:54:28.565Z</time></trkpt><trkpt lat="45.7251877" lon="9.6396065"><ele>293.0</ele><time>2026-04-06T09:54:33.544Z</time></trkpt><trkpt lat="45.7252293" lon="9.6396794"><ele>292.99999999999994</ele><time>2026-04-06T09:54:38.54Z</time></trkpt><trkpt lat="45.7252683" lon="9.639766"><ele>293.0</ele><time>2026-04-06T09:54:43.551Z</time></trkpt><trkpt lat="45.7253018" lon="9.6398663"><ele>293.57142857142856</ele><time>2026-04-06T09:54:48.544Z</time></trkpt><trkpt lat="45.7253308" lon="9.6399583"><ele>294.1428571428571</ele><time>2026-04-06T09:54:53.541Z</time></trkpt><trkpt lat="45.7253553" lon="9.6400442"><ele>294.7142857142857</ele><time>2026-04-06T09:54:57.533Z</time></trkpt><trkpt lat="45.7253822" lon="9.6401262"><ele>295.2857142857143</ele><time>2026-04-06T09:55:01.542Z</time></trkpt><trkpt lat="45.7254316" lon="9.6401836"><ele>295.8571428571429</ele><time>2026-04-06T09:55:06.087Z</time></trkpt><trkpt lat="45.7254896" lon="9.6402426"><ele>296.42857142857144</ele><time>2026-04-06T09:55:11.539Z</time></trkpt><trkpt lat="45.725524" lon="9.6403215"><ele>297.0</ele><time>2026-04-06T09:55:16.546Z</time></trkpt><trkpt lat="45.7255662" lon="9.6404025"><ele>297.0</ele><time>2026-04-06T09:55:21.561Z</time></trkpt><trkpt lat="45.7256067" lon="9.6404822"><ele>297.0</ele><time>2026-04-06T09:55:27.538Z</time></trkpt><trkpt lat="45.725648" lon="9.6405756"><ele>297.0</ele><time>2026-04-06T09:55:32.562Z</time></trkpt><trkpt lat="45.7256877" lon="9.6406543"><ele>297.0</ele><time>2026-04-06T09:55:37.523Z</time></trkpt><trkpt lat="45.7257483" lon="9.6407057"><ele>297.0</ele><time>2026-04-06T09:55:42.35Z</time></trkpt><trkpt lat="45.7258029" lon="9.640763"><ele>297.0</ele><time>2026-04-06T09:55:47.539Z</time></trkpt><trkpt lat="45.7258675" lon="9.6408014"><ele>297.0</ele><time>2026-04-06T09:55:52.524Z</time></trkpt><trkpt lat="45.7259209" lon="9.6408512"><ele>297.0</ele><time>2026-04-06T09:55:57.144Z</time></trkpt><trkpt lat="45.7259479" lon="9.6409372"><ele>297.0</ele><time>2026-04-06T09:56:01.437Z</time></trkpt><trkpt lat="45.7259828" lon="9.6410202"><ele>297.0</ele><time>2026-04-06T09:56:05.443Z</time></trkpt><trkpt lat="45.726028" lon="9.6411071"><ele>297.0</ele><time>2026-04-06T09:56:09.537Z</time></trkpt><trkpt lat="45.7260724" lon="9.6411814"><ele>297.0</ele><time>2026-04-06T09:56:13.543Z</time></trkpt><trkpt lat="45.7261189" lon="9.6412686"><ele>297.0</ele><time>2026-04-06T09:56:18.55Z</time></trkpt><trkpt lat="45.7261459" lon="9.6413513"><ele>297.0</ele><time>2026-04-06T09:56:22.535Z</time></trkpt><trkpt lat="45.7261723" lon="9.6414536"><ele>296.42857142857144</ele><time>2026-04-06T09:56:27.556Z</time></trkpt><trkpt lat="45.7261894" lon="9.6415426"><ele>295.8571428571429</ele><time>2026-04-06T09:56:31.544Z</time></trkpt><trkpt lat="45.7262023" lon="9.6416375"><ele>295.2857142857143</ele><time>2026-04-06T09:56:35.548Z</time></trkpt><trkpt lat="45.7262131" lon="9.6417572"><ele>294.7142857142857</ele><time>2026-04-06T09:56:40.537Z</time></trkpt><trkpt lat="45.7262302" lon="9.6418608"><ele>294.1428571428571</ele><time>2026-04-06T09:56:45.508Z</time></trkpt><trkpt lat="45.7262527" lon="9.6419453"><ele>293.57142857142856</ele><time>2026-04-06T09:56:49.5Z</time></trkpt><trkpt lat="45.7262698" lon="9.6420487"><ele>293.0</ele><time>2026-04-06T09:56:54.521Z</time></trkpt><trkpt lat="45.7262725" lon="9.6421509"><ele>292.85714285714283</ele><time>2026-04-06T09:56:59.545Z</time></trkpt><trkpt lat="45.7262789" lon="9.6422577"><ele>292.7142857142857</ele><time>2026-04-06T09:57:04.537Z</time></trkpt><trkpt lat="45.7262882" lon="9.642361"><ele>292.57142857142856</ele><time>2026-04-06T09:57:09.463Z</time></trkpt><trkpt lat="45.7263031" lon="9.6424526"><ele>292.42857142857144</ele><time>2026-04-06T09:57:14.554Z</time></trkpt><trkpt lat="45.7263032" lon="9.6425438"><ele>292.2857142857143</ele><time>2026-04-06T09:57:19.541Z</time></trkpt><trkpt lat="45.7263044" lon="9.6426357"><ele>292.1428571428571</ele><time>2026-04-06T09:57:25.537Z</time></trkpt><trkpt lat="45.7262884" lon="9.6427315"><ele>292.0</ele><time>2026-04-06T09:57:30.532Z</time></trkpt><trkpt lat="45.726285" lon="9.6428367"><ele>292.85714285714283</ele><time>2026-04-06T09:57:37.547Z</time></trkpt><trkpt lat="45.7262697" lon="9.642932"><ele>293.7142857142857</ele><time>2026-04-06T09:57:44.544Z</time></trkpt><trkpt lat="45.7262368" lon="9.6430154"><ele>294.57142857142856</ele><time>2026-04-06T09:57:50.54Z</time></trkpt><trkpt lat="45.7261875" lon="9.6430857"><ele>295.42857142857144</ele><time>2026-04-06T09:57:56.543Z</time></trkpt><trkpt lat="45.7261195" lon="9.6430942"><ele>296.2857142857143</ele><time>2026-04-06T09:58:03.545Z</time></trkpt><trkpt lat="45.7260518" lon="9.6431262"><ele>297.1428571428571</ele><time>2026-04-06T09:58:11.541Z</time></trkpt><trkpt lat="45.7260044" lon="9.6431917"><ele>298.0</ele><time>2026-04-06T09:58:18.551Z</time></trkpt><trkpt lat="45.725988" lon="9.6432811"><ele>298.85714285714283</ele><time>2026-04-06T09:58:25.587Z</time></trkpt><trkpt lat="45.7259757" lon="9.6433725"><ele>299.71428571428567</ele><time>2026-04-06T09:58:34.553Z</time></trkpt><trkpt lat="45.7259419" lon="9.6434575"><ele>300.57142857142856</ele><time>2026-04-06T09:58:42.54Z</time></trkpt><trkpt lat="45.7259113" lon="9.6435464"><ele>301.42857142857144</ele><time>2026-04-06T09:58:49.539Z</time></trkpt><trkpt lat="45.725885" lon="9.6436403"><ele>302.28571428571433</ele><time>2026-04-06T09:58:56.544Z</time></trkpt><trkpt lat="45.7258582" lon="9.6437232"><ele>303.1428571428571</ele><time>2026-04-06T09:59:02.539Z</time></trkpt><trkpt lat="45.7258188" lon="9.6438076"><ele>304.0</ele><time>2026-04-06T09:59:09.485Z</time></trkpt><trkpt lat="45.7257563" lon="9.643849"><ele>304.85714285714283</ele><time>2026-04-06T09:59:14.552Z</time></trkpt><trkpt lat="45.7256945" lon="9.6438836"><ele>305.7142857142857</ele><time>2026-04-06T09:59:20.566Z</time></trkpt><trkpt lat="45.7256511" lon="9.6439532"><ele>306.57142857142856</ele><time>2026-04-06T09:59:28.541Z</time></trkpt><trkpt lat="45.7257193" lon="9.6439634"><ele>307.42857142857144</ele><time>2026-04-06T10:01:54.537Z</time></trkpt><trkpt lat="45.7257778" lon="9.6440234"><ele>308.2857142857143</ele><time>2026-04-06T10:02:01.544Z</time></trkpt><trkpt lat="45.7258303" lon="9.6440945"><ele>309.14285714285717</ele><time>2026-04-06T10:02:08.545Z</time></trkpt><trkpt lat="45.725858" lon="9.6441899"><ele>310.0</ele><time>2026-04-06T10:02:14.546Z</time></trkpt><trkpt lat="45.7258723" lon="9.6442916"><ele>310.0</ele><time>2026-04-06T10:02:20.537Z</time></trkpt><trkpt lat="45.7258616" lon="9.6443883"><ele>310.0</ele><time>2026-04-06T10:02:25.563Z</time></trkpt><trkpt lat="45.7258415" lon="9.644489"><ele>310.0</ele><time>2026-04-06T10:02:30.545Z</time></trkpt><trkpt lat="45.7258143" lon="9.6445789"><ele>310.0</ele><time>2026-04-06T10:02:35.54Z</time></trkpt><trkpt lat="45.7257987" lon="9.6446788"><ele>310.0</ele><time>2026-04-06T10:02:41.552Z</time></trkpt><trkpt lat="45.7257888" lon="9.644772"><ele>310.0</ele><time>2026-04-06T10:02:47.572Z</time></trkpt><trkpt lat="45.7257836" lon="9.644873"><ele>310.0</ele><time>2026-04-06T10:02:53.533Z</time></trkpt><trkpt lat="45.7257655" lon="9.6449747"><ele>310.8571428571429</ele><time>2026-04-06T10:02:59.536Z</time></trkpt><trkpt lat="45.7257598" lon="9.6450693"><ele>311.7142857142857</ele><time>2026-04-06T10:03:05.545Z</time></trkpt><trkpt lat="45.7257475" lon="9.6451652"><ele>312.57142857142856</ele><time>2026-04-06T10:03:11.576Z</time></trkpt><trkpt lat="45.7257616" lon="9.6452569"><ele>313.42857142857144</ele><time>2026-04-06T10:03:16.542Z</time></trkpt><trkpt lat="45.7257578" lon="9.6453519"><ele>314.2857142857143</ele><time>2026-04-06T10:03:22.539Z</time></trkpt><trkpt lat="45.7257511" lon="9.6454528"><ele>315.14285714285717</ele><time>2026-04-06T10:03:29.541Z</time></trkpt><trkpt lat="45.7257228" lon="9.6455453"><ele>316.0</ele><time>2026-04-06T10:03:36.547Z</time></trkpt><trkpt lat="45.7256908" lon="9.6456404"><ele>317.42857142857144</ele><time>2026-04-06T10:03:41.547Z</time></trkpt><trkpt lat="45.7256747" lon="9.6457333"><ele>318.8571428571429</ele><time>2026-04-06T10:03:46.573Z</time></trkpt><trkpt lat="45.7257186" lon="9.6458072"><ele>320.28571428571433</ele><time>2026-04-06T10:03:52.564Z</time></trkpt><trkpt lat="45.7257332" lon="9.645897"><ele>321.7142857142857</ele><time>2026-04-06T10:03:59.56Z</time></trkpt><trkpt lat="45.7256959" lon="9.6459699"><ele>323.1428571428571</ele><time>2026-04-06T10:04:08.569Z</time></trkpt><trkpt lat="45.7256389" lon="9.6460105"><ele>324.5714285714286</ele><time>2026-04-06T10:04:15.557Z</time></trkpt><trkpt lat="45.7256675" lon="9.6460934"><ele>326.0</ele><time>2026-04-06T10:04:23.536Z</time></trkpt><trkpt lat="45.725727" lon="9.6461384"><ele>326.0</ele><time>2026-04-06T10:04:28.535Z</time></trkpt><trkpt lat="45.7257943" lon="9.6461646"><ele>326.0</ele><time>2026-04-06T10:04:32.565Z</time></trkpt><trkpt lat="45.7258708" lon="9.6461427"><ele>326.0</ele><time>2026-04-06T10:04:36.532Z</time></trkpt><trkpt lat="45.7259352" lon="9.6460763"><ele>326.0</ele><time>2026-04-06T10:04:40.538Z</time></trkpt><trkpt lat="45.726011" lon="9.6460723"><ele>326.0</ele><time>2026-04-06T10:04:45.569Z</time></trkpt><trkpt lat="45.7260617" lon="9.6461572"><ele>326.0</ele><time>2026-04-06T10:04:51.544Z</time></trkpt><trkpt lat="45.7260266" lon="9.6462387"><ele>326.0</ele><time>2026-04-06T10:04:57.548Z</time></trkpt><trkpt lat="45.7259748" lon="9.646292"><ele>326.0</ele><time>2026-04-06T10:05:01.578Z</time></trkpt><trkpt lat="45.7258987" lon="9.646372"><ele>326.0</ele><time>2026-04-06T10:05:09.562Z</time></trkpt><trkpt lat="45.7258359" lon="9.6463886"><ele>326.0</ele><time>2026-04-06T10:05:16.584Z</time></trkpt><trkpt lat="45.7257768" lon="9.6463553"><ele>326.0</ele><time>2026-04-06T10:05:21.542Z</time></trkpt><trkpt lat="45.7257358" lon="9.6462837"><ele>326.0</ele><time>2026-04-06T10:05:26.534Z</time></trkpt><trkpt lat="45.7256895" lon="9.6462044"><ele>326.0</ele><time>2026-04-06T10:05:31.557Z</time></trkpt><trkpt lat="45.7256483" lon="9.6461301"><ele>326.0</ele><time>2026-04-06T10:05:36.535Z</time></trkpt><trkpt lat="45.7255933" lon="9.6460766"><ele>326.0</ele><time>2026-04-06T10:05:42.537Z</time></trkpt><trkpt lat="45.7255412" lon="9.6460052"><ele>326.0</ele><time>2026-04-06T10:05:49.538Z</time></trkpt><trkpt lat="45.7255075" lon="9.6459131"><ele>326.0</ele><time>2026-04-06T10:05:56.554Z</time></trkpt><trkpt lat="45.7254998" lon="9.6458166"><ele>326.0</ele><time>2026-04-06T10:06:00.542Z</time></trkpt><trkpt lat="45.7254841" lon="9.6457184"><ele>326.0</ele><time>2026-04-06T10:06:06.567Z</time></trkpt><trkpt lat="45.7254496" lon="9.6456214"><ele>326.0</ele><time>2026-04-06T10:06:13.542Z</time></trkpt><trkpt lat="45.7253946" lon="9.645574"><ele>326.0</ele><time>2026-04-06T10:06:20.569Z</time></trkpt><trkpt lat="45.7253294" lon="9.6455491"><ele>326.0</ele><time>2026-04-06T10:06:28.542Z</time></trkpt><trkpt lat="45.7252772" lon="9.6454973"><ele>326.0</ele><time>2026-04-06T10:06:34.538Z</time></trkpt><trkpt lat="45.7252159" lon="9.6454309"><ele>326.0</ele><time>2026-04-06T10:06:39.545Z</time></trkpt><trkpt lat="45.7251587" lon="9.6453762"><ele>326.0</ele><time>2026-04-06T10:06:43.541Z</time></trkpt><trkpt lat="45.7250916" lon="9.6453528"><ele>326.0</ele><time>2026-04-06T10:06:47.539Z</time></trkpt><trkpt lat="45.7250218" lon="9.6453617"><ele>326.0</ele><time>2026-04-06T10:07:00.545Z</time></trkpt><trkpt lat="45.7249777" lon="9.6454273"><ele>326.0</ele><time>2026-04-06T10:07:30.576Z</time></trkpt><trkpt lat="45.7249172" lon="9.6454614"><ele>327.42857142857144</ele><time>2026-04-06T10:07:49.538Z</time></trkpt><trkpt lat="45.7248554" lon="9.6455119"><ele>328.85714285714283</ele><time>2026-04-06T10:07:55.539Z</time></trkpt><trkpt lat="45.724799" lon="9.6455694"><ele>330.2857142857143</ele><time>2026-04-06T10:08:02.535Z</time></trkpt><trkpt lat="45.724727" lon="9.645578"><ele>331.7142857142857</ele><time>2026-04-06T10:08:11.543Z</time></trkpt><trkpt lat="45.7246658" lon="9.6456244"><ele>333.1428571428571</ele><time>2026-04-06T10:08:18.541Z</time></trkpt><trkpt lat="45.7245982" lon="9.6456543"><ele>334.57142857142856</ele><time>2026-04-06T10:08:25.569Z</time></trkpt><trkpt lat="45.7245496" lon="9.6455868"><ele>336.0</ele><time>2026-04-06T10:08:33.563Z</time></trkpt><trkpt lat="45.724507" lon="9.6455099"><ele>336.0</ele><time>2026-04-06T10:08:41.551Z</time></trkpt><trkpt lat="45.7244771" lon="9.6454247"><ele>336.0</ele><time>2026-04-06T10:08:49.534Z</time></trkpt><trkpt lat="45.7244475" lon="9.6453402"><ele>336.0</ele><time>2026-04-06T10:08:56.549Z</time></trkpt><trkpt lat="45.7244276" lon="9.6452502"><ele>336.0</ele><time>2026-04-06T10:09:02.538Z</time></trkpt><trkpt lat="45.7243987" lon="9.6451623"><ele>336.0</ele><time>2026-04-06T10:09:08.537Z</time></trkpt><trkpt lat="45.7243494" lon="9.6451062"><ele>336.0</ele><time>2026-04-06T10:09:15.535Z</time></trkpt><trkpt lat="45.7242848" lon="9.6450816"><ele>336.0</ele><time>2026-04-06T10:09:23.538Z</time></trkpt><trkpt lat="45.7242122" lon="9.6450752"><ele>336.42857142857144</ele><time>2026-04-06T10:09:30.541Z</time></trkpt><trkpt lat="45.7241484" lon="9.6450377"><ele>336.8571428571429</ele><time>2026-04-06T10:09:37.532Z</time></trkpt><trkpt lat="45.7240954" lon="9.6449814"><ele>337.2857142857143</ele><time>2026-04-06T10:09:46.535Z</time></trkpt><trkpt lat="45.7240805" lon="9.6448708"><ele>337.7142857142857</ele><time>2026-04-06T10:09:54.54Z</time></trkpt><trkpt lat="45.7240337" lon="9.6449373"><ele>338.14285714285717</ele><time>2026-04-06T10:10:12.57Z</time></trkpt><trkpt lat="45.7239966" lon="9.644863"><ele>338.57142857142856</ele><time>2026-04-06T10:10:23.54Z</time></trkpt><trkpt lat="45.7239556" lon="9.6447928"><ele>339.0</ele><time>2026-04-06T10:10:33.544Z</time></trkpt><trkpt lat="45.7238887" lon="9.6448354"><ele>339.0</ele><time>2026-04-06T10:10:42.546Z</time></trkpt><trkpt lat="45.7238244" lon="9.6448125"><ele>339.0</ele><time>2026-04-06T10:10:49.539Z</time></trkpt><trkpt lat="45.7237707" lon="9.6447569"><ele>339.0</ele><time>2026-04-06T10:10:55.55Z</time></trkpt><trkpt lat="45.7237325" lon="9.6446708"><ele>339.0</ele><time>2026-04-06T10:11:01.53Z</time></trkpt><trkpt lat="45.7236936" lon="9.6445916"><ele>339.0</ele><time>2026-04-06T10:11:11.532Z</time></trkpt><trkpt lat="45.7236494" lon="9.6445132"><ele>339.0</ele><time>2026-04-06T10:11:21.6Z</time></trkpt><trkpt lat="45.7235809" lon="9.6444917"><ele>339.0</ele><time>2026-04-06T10:11:29.546Z</time></trkpt><trkpt lat="45.7235145" lon="9.6445153"><ele>339.85714285714283</ele><time>2026-04-06T10:11:37.549Z</time></trkpt><trkpt lat="45.7234481" lon="9.6445215"><ele>340.7142857142857</ele><time>2026-04-06T10:11:43.576Z</time></trkpt><trkpt lat="45.7233787" lon="9.6445267"><ele>341.57142857142856</ele><time>2026-04-06T10:11:50.543Z</time></trkpt><trkpt lat="45.7233122" lon="9.6445477"><ele>342.42857142857144</ele><time>2026-04-06T10:11:57.589Z</time></trkpt><trkpt lat="45.7232453" lon="9.6445693"><ele>343.2857142857143</ele><time>2026-04-06T10:12:04.54Z</time></trkpt><trkpt lat="45.7231736" lon="9.6445765"><ele>344.14285714285717</ele><time>2026-04-06T10:12:11.539Z</time></trkpt><trkpt lat="45.7231096" lon="9.6445803"><ele>345.0</ele><time>2026-04-06T10:12:16.548Z</time></trkpt><trkpt lat="45.7230413" lon="9.6445583"><ele>345.0</ele><time>2026-04-06T10:12:22.462Z</time></trkpt><trkpt lat="45.7229883" lon="9.6445019"><ele>345.0</ele><time>2026-04-06T10:12:27.543Z</time></trkpt><trkpt lat="45.7229398" lon="9.6444388"><ele>345.0</ele><time>2026-04-06T10:12:33.499Z</time></trkpt><trkpt lat="45.722881" lon="9.6443733"><ele>345.0</ele><time>2026-04-06T10:12:40.554Z</time></trkpt><trkpt lat="45.7228375" lon="9.6442981"><ele>345.0</ele><time>2026-04-06T10:12:46.529Z</time></trkpt><trkpt lat="45.7227877" lon="9.6442385"><ele>345.0</ele><time>2026-04-06T10:12:51.569Z</time></trkpt><trkpt lat="45.7227195" lon="9.6441868"><ele>345.0</ele><time>2026-04-06T10:12:57.541Z</time></trkpt><trkpt lat="45.7226602" lon="9.6441294"><ele>344.2857142857143</ele><time>2026-04-06T10:13:03.531Z</time></trkpt><trkpt lat="45.7226102" lon="9.6440745"><ele>343.57142857142856</ele><time>2026-04-06T10:13:09.543Z</time></trkpt><trkpt lat="45.7225565" lon="9.6440135"><ele>342.8571428571429</ele><time>2026-04-06T10:13:16.543Z</time></trkpt><trkpt lat="45.7224821" lon="9.6439559"><ele>342.1428571428571</ele><time>2026-04-06T10:13:28.444Z</time></trkpt><trkpt lat="45.7224337" lon="9.6438822"><ele>341.4285714285714</ele><time>2026-04-06T10:13:33.538Z</time></trkpt><trkpt lat="45.7224025" lon="9.6438036"><ele>340.7142857142857</ele><time>2026-04-06T10:13:37.546Z</time></trkpt><trkpt lat="45.7223871" lon="9.6437132"><ele>340.0</ele><time>2026-04-06T10:13:43.542Z</time></trkpt><trkpt lat="45.7223555" lon="9.6436195"><ele>339.8571428571429</ele><time>2026-04-06T10:13:50.524Z</time></trkpt><trkpt lat="45.7223018" lon="9.6435672"><ele>339.71428571428567</ele><time>2026-04-06T10:13:56.058Z</time></trkpt><trkpt lat="45.7222516" lon="9.6435104"><ele>339.57142857142856</ele><time>2026-04-06T10:14:02.546Z</time></trkpt><trkpt lat="45.7221978" lon="9.6434364"><ele>339.42857142857144</ele><time>2026-04-06T10:14:09.546Z</time></trkpt><trkpt lat="45.7221538" lon="9.6433543"><ele>339.28571428571433</ele><time>2026-04-06T10:14:15.54Z</time></trkpt><trkpt lat="45.7221039" lon="9.6432911"><ele>339.1428571428571</ele><time>2026-04-06T10:14:23.589Z</time></trkpt><trkpt lat="45.7220522" lon="9.6432226"><ele>339.0</ele><time>2026-04-06T10:14:29.525Z</time></trkpt><trkpt lat="45.7219985" lon="9.6431517"><ele>339.0</ele><time>2026-04-06T10:14:34.543Z</time></trkpt><trkpt lat="45.7219478" lon="9.6430841"><ele>339.0</ele><time>2026-04-06T10:14:39.445Z</time></trkpt><trkpt lat="45.7218956" lon="9.6430136"><ele>339.0</ele><time>2026-04-06T10:14:46.557Z</time></trkpt><trkpt lat="45.721864" lon="9.6429283"><ele>339.0</ele><time>2026-04-06T10:14:56.54Z</time></trkpt><trkpt lat="45.7218442" lon="9.6428421"><ele>339.0</ele><time>2026-04-06T10:15:04.574Z</time></trkpt><trkpt lat="45.7218139" lon="9.6427476"><ele>339.0</ele><time>2026-04-06T10:15:12.553Z</time></trkpt><trkpt lat="45.721752" lon="9.642694"><ele>339.0</ele><time>2026-04-06T10:15:19.542Z</time></trkpt><trkpt lat="45.7216963" lon="9.6426448"><ele>339.7142857142857</ele><time>2026-04-06T10:15:25.577Z</time></trkpt><trkpt lat="45.721634" lon="9.6426291"><ele>340.42857142857144</ele><time>2026-04-06T10:15:31.551Z</time></trkpt><trkpt lat="45.7215619" lon="9.6426199"><ele>341.14285714285717</ele><time>2026-04-06T10:15:38.546Z</time></trkpt><trkpt lat="45.721489" lon="9.6426086"><ele>341.8571428571429</ele><time>2026-04-06T10:15:45.538Z</time></trkpt><trkpt lat="45.7214149" lon="9.6425925"><ele>342.57142857142856</ele><time>2026-04-06T10:15:53.545Z</time></trkpt><trkpt lat="45.7213518" lon="9.6425756"><ele>343.28571428571433</ele><time>2026-04-06T10:16:00.539Z</time></trkpt><trkpt lat="45.7212885" lon="9.6425662"><ele>344.0</ele><time>2026-04-06T10:16:06.536Z</time></trkpt><trkpt lat="45.7212237" lon="9.6425677"><ele>344.00000000000006</ele><time>2026-04-06T10:16:12.551Z</time></trkpt><trkpt lat="45.7211527" lon="9.6425702"><ele>344.0</ele><time>2026-04-06T10:16:20.563Z</time></trkpt><trkpt lat="45.7210836" lon="9.6425537"><ele>344.0</ele><time>2026-04-06T10:16:26.544Z</time></trkpt><trkpt lat="45.7210213" lon="9.6425354"><ele>344.0</ele><time>2026-04-06T10:16:31.535Z</time></trkpt><trkpt lat="45.7209586" lon="9.6425509"><ele>344.0</ele><time>2026-04-06T10:16:38.534Z</time></trkpt><trkpt lat="45.720928" lon="9.6426343"><ele>344.00000000000006</ele><time>2026-04-06T10:16:44.545Z</time></trkpt><trkpt lat="45.7209128" lon="9.6427229"><ele>344.0</ele><time>2026-04-06T10:16:50.542Z</time></trkpt><trkpt lat="45.7208522" lon="9.642825"><ele>345.00000000000006</ele><time>2026-04-06T10:18:57.528Z</time></trkpt><trkpt lat="45.7209105" lon="9.6428632"><ele>346.0</ele><time>2026-04-06T10:19:05.534Z</time></trkpt><trkpt lat="45.7208544" lon="9.6428097"><ele>347.0</ele><time>2026-04-06T10:20:13.528Z</time></trkpt><trkpt lat="45.720788" lon="9.642781"><ele>348.0</ele><time>2026-04-06T10:23:44.542Z</time></trkpt><trkpt lat="45.7207296" lon="9.6427455"><ele>349.0</ele><time>2026-04-06T10:23:51.546Z</time></trkpt><trkpt lat="45.7206723" lon="9.642703"><ele>350.00000000000006</ele><time>2026-04-06T10:24:00.539Z</time></trkpt><trkpt lat="45.7206329" lon="9.6426296"><ele>351.0</ele><time>2026-04-06T10:24:08.552Z</time></trkpt><trkpt lat="45.7205675" lon="9.6426183"><ele>352.28571428571433</ele><time>2026-04-06T10:24:16.593Z</time></trkpt><trkpt lat="45.7205039" lon="9.6426158"><ele>353.57142857142856</ele><time>2026-04-06T10:24:23.545Z</time></trkpt><trkpt lat="45.7204393" lon="9.6426136"><ele>354.8571428571429</ele><time>2026-04-06T10:24:30.554Z</time></trkpt><trkpt lat="45.7203763" lon="9.6426366"><ele>356.14285714285717</ele><time>2026-04-06T10:24:36.542Z</time></trkpt><trkpt lat="45.7203066" lon="9.6426393"><ele>357.42857142857144</ele><time>2026-04-06T10:24:43.538Z</time></trkpt><trkpt lat="45.7203374" lon="9.642552"><ele>358.7142857142857</ele><time>2026-04-06T10:25:19.53Z</time></trkpt><trkpt lat="45.7203307" lon="9.6426425"><ele>360.0</ele><time>2026-04-06T10:25:21.526Z</time></trkpt><trkpt lat="45.7202656" lon="9.6426743"><ele>361.57142857142856</ele><time>2026-04-06T10:26:40.53Z</time></trkpt><trkpt lat="45.7202028" lon="9.6426624"><ele>363.14285714285717</ele><time>2026-04-06T10:26:59.537Z</time></trkpt><trkpt lat="45.7201316" lon="9.6426635"><ele>364.7142857142857</ele><time>2026-04-06T10:27:05.534Z</time></trkpt><trkpt lat="45.7200591" lon="9.6426576"><ele>366.2857142857143</ele><time>2026-04-06T10:27:12.533Z</time></trkpt><trkpt lat="45.7199892" lon="9.642609"><ele>367.8571428571429</ele><time>2026-04-06T10:27:19.477Z</time></trkpt><trkpt lat="45.7199271" lon="9.6425691"><ele>369.42857142857144</ele><time>2026-04-06T10:27:24.533Z</time></trkpt><trkpt lat="45.7198534" lon="9.6425486"><ele>371.0</ele><time>2026-04-06T10:27:29.528Z</time></trkpt><trkpt lat="45.7197799" lon="9.6425422"><ele>371.0</ele><time>2026-04-06T10:27:34.536Z</time></trkpt><trkpt lat="45.7197077" lon="9.6425449"><ele>371.0</ele><time>2026-04-06T10:27:39.536Z</time></trkpt><trkpt lat="45.7196355" lon="9.6425633"><ele>371.0</ele><time>2026-04-06T10:27:44.438Z</time></trkpt><trkpt lat="45.7195773" lon="9.6426046"><ele>371.0</ele><time>2026-04-06T10:27:49.527Z</time></trkpt><trkpt lat="45.7195067" lon="9.6426398"><ele>371.0</ele><time>2026-04-06T10:27:55.526Z</time></trkpt><trkpt lat="45.7194341" lon="9.642665"><ele>371.0</ele><time>2026-04-06T10:28:01.541Z</time></trkpt><trkpt lat="45.7193642" lon="9.6426757"><ele>371.0</ele><time>2026-04-06T10:28:07.535Z</time></trkpt><trkpt lat="45.7193057" lon="9.6427106"><ele>372.2857142857143</ele><time>2026-04-06T10:28:12.517Z</time></trkpt><trkpt lat="45.7192381" lon="9.6427519"><ele>373.57142857142856</ele><time>2026-04-06T10:28:18.53Z</time></trkpt><trkpt lat="45.7191697" lon="9.6427764"><ele>374.8571428571429</ele><time>2026-04-06T10:28:35.524Z</time></trkpt><trkpt lat="45.719115" lon="9.6427293"><ele>376.1428571428571</ele><time>2026-04-06T10:28:42.531Z</time></trkpt><trkpt lat="45.7190503" lon="9.642685"><ele>377.42857142857144</ele><time>2026-04-06T10:28:50.525Z</time></trkpt><trkpt lat="45.7189794" lon="9.6426789"><ele>378.7142857142857</ele><time>2026-04-06T10:28:55.524Z</time></trkpt><trkpt lat="45.7189108" lon="9.6426545"><ele>380.0</ele><time>2026-04-06T10:29:02.528Z</time></trkpt><trkpt lat="45.718838" lon="9.6426554"><ele>380.0</ele><time>2026-04-06T10:29:10.536Z</time></trkpt><trkpt lat="45.7187884" lon="9.6425969"><ele>380.0</ele><time>2026-04-06T10:29:16.529Z</time></trkpt><trkpt lat="45.7188062" lon="9.6425082"><ele>380.0</ele><time>2026-04-06T10:29:24.525Z</time></trkpt><trkpt lat="45.7188228" lon="9.642408"><ele>380.0</ele><time>2026-04-06T10:29:41.531Z</time></trkpt><trkpt lat="45.7188015" lon="9.6423174"><ele>380.0</ele><time>2026-04-06T10:30:15.532Z</time></trkpt><trkpt lat="45.7187408" lon="9.6422279"><ele>380.0</ele><time>2026-04-06T10:30:24.527Z</time></trkpt><trkpt lat="45.7186807" lon="9.6421872"><ele>380.0</ele><time>2026-04-06T10:30:49.527Z</time></trkpt><trkpt lat="45.7186196" lon="9.6421482"><ele>379.42857142857144</ele><time>2026-04-06T10:30:56.529Z</time></trkpt><trkpt lat="45.7185612" lon="9.6421077"><ele>378.8571428571429</ele><time>2026-04-06T10:31:02.527Z</time></trkpt><trkpt lat="45.7184975" lon="9.6420841"><ele>378.2857142857143</ele><time>2026-04-06T10:31:09.536Z</time></trkpt><trkpt lat="45.718434" lon="9.6420506"><ele>377.7142857142857</ele><time>2026-04-06T10:31:17.521Z</time></trkpt><trkpt lat="45.7183692" lon="9.6420143"><ele>377.1428571428571</ele><time>2026-04-06T10:31:24.535Z</time></trkpt><trkpt lat="45.718306" lon="9.6419748"><ele>376.57142857142856</ele><time>2026-04-06T10:31:30.535Z</time></trkpt><trkpt lat="45.7182533" lon="9.6419226"><ele>376.0</ele><time>2026-04-06T10:31:37.534Z</time></trkpt><trkpt lat="45.7182209" lon="9.6418439"><ele>379.1428571428571</ele><time>2026-04-06T10:31:46.536Z</time></trkpt><trkpt lat="45.7181733" lon="9.641776"><ele>382.2857142857143</ele><time>2026-04-06T10:32:01.537Z</time></trkpt><trkpt lat="45.7181452" lon="9.6416824"><ele>385.42857142857144</ele><time>2026-04-06T10:32:09.529Z</time></trkpt><trkpt lat="45.7181003" lon="9.6416167"><ele>388.57142857142856</ele><time>2026-04-06T10:32:16.543Z</time></trkpt><trkpt lat="45.7180412" lon="9.6415676"><ele>391.7142857142857</ele><time>2026-04-06T10:32:23.527Z</time></trkpt><trkpt lat="45.7179887" lon="9.6415176"><ele>394.85714285714283</ele><time>2026-04-06T10:32:32.533Z</time></trkpt><trkpt lat="45.7179251" lon="9.6415262"><ele>398.0</ele><time>2026-04-06T10:32:43.531Z</time></trkpt><trkpt lat="45.7178621" lon="9.6414827"><ele>397.99999999999994</ele><time>2026-04-06T10:32:52.522Z</time></trkpt><trkpt lat="45.7178017" lon="9.6414441"><ele>398.0</ele><time>2026-04-06T10:33:01.535Z</time></trkpt><trkpt lat="45.7177496" lon="9.641377"><ele>398.0</ele><time>2026-04-06T10:33:10.532Z</time></trkpt><trkpt lat="45.7176962" lon="9.6413098"><ele>398.0</ele><time>2026-04-06T10:33:18.529Z</time></trkpt><trkpt lat="45.7176531" lon="9.6412356"><ele>398.0</ele><time>2026-04-06T10:33:24.538Z</time></trkpt><trkpt lat="45.7175924" lon="9.6411853"><ele>397.99999999999994</ele><time>2026-04-06T10:33:30.433Z</time></trkpt><trkpt lat="45.7175305" lon="9.6411527"><ele>398.0</ele><time>2026-04-06T10:33:36.528Z</time></trkpt><trkpt lat="45.7174649" lon="9.6411635"><ele>396.85714285714283</ele><time>2026-04-06T10:33:42.527Z</time></trkpt><trkpt lat="45.7174005" lon="9.6411536"><ele>395.7142857142857</ele><time>2026-04-06T10:33:47.545Z</time></trkpt><trkpt lat="45.7173363" lon="9.6411352"><ele>394.57142857142856</ele><time>2026-04-06T10:33:52.537Z</time></trkpt><trkpt lat="45.7172775" lon="9.6410834"><ele>393.42857142857144</ele><time>2026-04-06T10:33:58.525Z</time></trkpt><trkpt lat="45.7172303" lon="9.6410044"><ele>392.2857142857143</ele><time>2026-04-06T10:34:04.546Z</time></trkpt><trkpt lat="45.7171873" lon="9.6409195"><ele>391.1428571428571</ele><time>2026-04-06T10:34:11.544Z</time></trkpt><trkpt lat="45.7171405" lon="9.6408551"><ele>390.0</ele><time>2026-04-06T10:34:17.511Z</time></trkpt><trkpt lat="45.7170965" lon="9.6407728"><ele>392.42857142857144</ele><time>2026-04-06T10:34:24.561Z</time></trkpt><trkpt lat="45.7170481" lon="9.6406973"><ele>394.85714285714283</ele><time>2026-04-06T10:34:32.534Z</time></trkpt><trkpt lat="45.7169925" lon="9.6406392"><ele>397.28571428571433</ele><time>2026-04-06T10:34:38.535Z</time></trkpt><trkpt lat="45.7169242" lon="9.640625"><ele>399.7142857142857</ele><time>2026-04-06T10:34:44.539Z</time></trkpt><trkpt lat="45.7168557" lon="9.6406137"><ele>402.14285714285717</ele><time>2026-04-06T10:34:50.555Z</time></trkpt><trkpt lat="45.7167773" lon="9.6406205"><ele>404.5714285714286</ele><time>2026-04-06T10:34:56.538Z</time></trkpt><trkpt lat="45.7167129" lon="9.6406177"><ele>407.0</ele><time>2026-04-06T10:35:00.545Z</time></trkpt><trkpt lat="45.7166349" lon="9.6406359"><ele>407.00000000000006</ele><time>2026-04-06T10:35:06.535Z</time></trkpt><trkpt lat="45.7165639" lon="9.6406688"><ele>407.0</ele><time>2026-04-06T10:35:13.537Z</time></trkpt><trkpt lat="45.7164957" lon="9.6406999"><ele>407.0</ele><time>2026-04-06T10:35:20.539Z</time></trkpt><trkpt lat="45.716427" lon="9.6406888"><ele>407.0</ele><time>2026-04-06T10:35:26.54Z</time></trkpt><trkpt lat="45.716374" lon="9.6406385"><ele>407.0</ele><time>2026-04-06T10:35:33.541Z</time></trkpt><trkpt lat="45.7163337" lon="9.6405665"><ele>407.00000000000006</ele><time>2026-04-06T10:35:40.56Z</time></trkpt><trkpt lat="45.7163191" lon="9.6404743"><ele>407.0</ele><time>2026-04-06T10:35:51.453Z</time></trkpt><trkpt lat="45.7162987" lon="9.6403888"><ele>407.00000000000006</ele><time>2026-04-06T10:36:02.576Z</time></trkpt><trkpt lat="45.7162508" lon="9.6403264"><ele>407.0</ele><time>2026-04-06T10:36:13.55Z</time></trkpt><trkpt lat="45.716193" lon="9.6402715"><ele>407.0</ele><time>2026-04-06T10:36:27.552Z</time></trkpt><trkpt lat="45.7161272" lon="9.6402309"><ele>407.0</ele><time>2026-04-06T10:36:35.54Z</time></trkpt><trkpt lat="45.7160587" lon="9.6402294"><ele>407.0</ele><time>2026-04-06T10:36:45.541Z</time></trkpt><trkpt lat="45.7159918" lon="9.6402144"><ele>407.00000000000006</ele><time>2026-04-06T10:36:53.536Z</time></trkpt><trkpt lat="45.7159281" lon="9.6401936"><ele>407.0</ele><time>2026-04-06T10:37:00.542Z</time></trkpt><trkpt lat="45.7158719" lon="9.6402438"><ele>410.28571428571433</ele><time>2026-04-06T10:37:08.534Z</time></trkpt><trkpt lat="45.7158113" lon="9.640199"><ele>413.57142857142856</ele><time>2026-04-06T10:37:24.568Z</time></trkpt><trkpt lat="45.7157395" lon="9.6402039"><ele>416.8571428571429</ele><time>2026-04-06T10:37:31.562Z</time></trkpt><trkpt lat="45.7156639" lon="9.640208"><ele>420.14285714285717</ele><time>2026-04-06T10:37:38.536Z</time></trkpt><trkpt lat="45.7155981" lon="9.6402258"><ele>423.42857142857144</ele><time>2026-04-06T10:37:44.546Z</time></trkpt><trkpt lat="45.7155358" lon="9.6402615"><ele>426.7142857142857</ele><time>2026-04-06T10:37:50.535Z</time></trkpt><trkpt lat="45.7154675" lon="9.640282"><ele>430.0</ele><time>2026-04-06T10:37:56.528Z</time></trkpt><trkpt lat="45.7153989" lon="9.6402911"><ele>431.85714285714283</ele><time>2026-04-06T10:38:02.57Z</time></trkpt><trkpt lat="45.7153355" lon="9.6403145"><ele>433.7142857142857</ele><time>2026-04-06T10:38:08.559Z</time></trkpt><trkpt lat="45.7152681" lon="9.6403218"><ele>435.57142857142856</ele><time>2026-04-06T10:38:15.531Z</time></trkpt><trkpt lat="45.7152232" lon="9.6403907"><ele>437.42857142857144</ele><time>2026-04-06T10:38:22.537Z</time></trkpt><trkpt lat="45.7151497" lon="9.640348"><ele>439.28571428571433</ele><time>2026-04-06T10:42:35.521Z</time></trkpt><trkpt lat="45.7151011" lon="9.6404114"><ele>441.14285714285717</ele><time>2026-04-06T10:42:43.53Z</time></trkpt><trkpt lat="45.7151017" lon="9.6405152"><ele>443.0</ele><time>2026-04-06T10:42:49.536Z</time></trkpt><trkpt lat="45.7151358" lon="9.6406048"><ele>443.0</ele><time>2026-04-06T10:42:55.564Z</time></trkpt><trkpt lat="45.7151578" lon="9.6406913"><ele>443.0</ele><time>2026-04-06T10:43:01.565Z</time></trkpt><trkpt lat="45.7152132" lon="9.6407644"><ele>443.0</ele><time>2026-04-06T10:43:08.544Z</time></trkpt><trkpt lat="45.7152412" lon="9.640849"><ele>443.0</ele><time>2026-04-06T10:43:15.552Z</time></trkpt><trkpt lat="45.7152703" lon="9.6409423"><ele>443.0</ele><time>2026-04-06T10:43:21.57Z</time></trkpt><trkpt lat="45.7152939" lon="9.6410409"><ele>443.0</ele><time>2026-04-06T10:43:27.531Z</time></trkpt><trkpt lat="45.7153134" lon="9.6411307"><ele>443.0</ele><time>2026-04-06T10:43:33.542Z</time></trkpt><trkpt lat="45.7153384" lon="9.6412191"><ele>439.0</ele><time>2026-04-06T10:43:40.537Z</time></trkpt><trkpt lat="45.7153895" lon="9.6412983"><ele>435.0</ele><time>2026-04-06T10:43:47.534Z</time></trkpt><trkpt lat="45.7154165" lon="9.6413837"><ele>431.0</ele><time>2026-04-06T10:43:53.543Z</time></trkpt><trkpt lat="45.715439" lon="9.6414761"><ele>427.0</ele><time>2026-04-06T10:44:01.532Z</time></trkpt><trkpt lat="45.7154503" lon="9.6415818"><ele>423.0</ele><time>2026-04-06T10:44:08.53Z</time></trkpt><trkpt lat="45.7154611" lon="9.6416857"><ele>419.0</ele><time>2026-04-06T10:44:16.536Z</time></trkpt><trkpt lat="45.7154856" lon="9.6417803"><ele>415.0</ele><time>2026-04-06T10:44:24.54Z</time></trkpt><trkpt lat="45.7155098" lon="9.6418696"><ele>415.0</ele><time>2026-04-06T10:44:33.553Z</time></trkpt><trkpt lat="45.7154903" lon="9.6419574"><ele>415.0</ele><time>2026-04-06T10:44:41.539Z</time></trkpt><trkpt lat="45.7154554" lon="9.6420355"><ele>415.0</ele><time>2026-04-06T10:44:49.553Z</time></trkpt><trkpt lat="45.71541" lon="9.6421039"><ele>415.0</ele><time>2026-04-06T10:44:58.535Z</time></trkpt><trkpt lat="45.7153685" lon="9.6421725"><ele>415.0</ele><time>2026-04-06T10:45:05.536Z</time></trkpt><trkpt lat="45.7153042" lon="9.6421952"><ele>415.0</ele><time>2026-04-06T10:45:13.532Z</time></trkpt><trkpt lat="45.7152359" lon="9.6422182"><ele>415.0</ele><time>2026-04-06T10:45:21.527Z</time></trkpt><trkpt lat="45.7151718" lon="9.6422552"><ele>418.42857142857144</ele><time>2026-04-06T10:45:29.546Z</time></trkpt><trkpt lat="45.7151026" lon="9.6422925"><ele>421.8571428571429</ele><time>2026-04-06T10:48:31.535Z</time></trkpt><trkpt lat="45.7150479" lon="9.6423391"><ele>425.2857142857143</ele><time>2026-04-06T10:48:37.535Z</time></trkpt><trkpt lat="45.7149886" lon="9.6424009"><ele>428.7142857142857</ele><time>2026-04-06T10:48:44.534Z</time></trkpt><trkpt lat="45.714926" lon="9.6424273"><ele>432.1428571428571</ele><time>2026-04-06T10:48:50.538Z</time></trkpt><trkpt lat="45.7148655" lon="9.6424549"><ele>435.57142857142856</ele><time>2026-04-06T10:48:58.535Z</time></trkpt><trkpt lat="45.7148037" lon="9.6424827"><ele>439.0</ele><time>2026-04-06T10:49:07.533Z</time></trkpt><trkpt lat="45.7147447" lon="9.6425169"><ele>439.0</ele><time>2026-04-06T10:49:15.53Z</time></trkpt><trkpt lat="45.7146817" lon="9.6425213"><ele>439.0</ele><time>2026-04-06T10:49:22.535Z</time></trkpt><trkpt lat="45.7146131" lon="9.6425238"><ele>439.0</ele><time>2026-04-06T10:49:31.532Z</time></trkpt><trkpt lat="45.7145497" lon="9.642526"><ele>439.0</ele><time>2026-04-06T10:49:47.534Z</time></trkpt><trkpt lat="45.7144805" lon="9.6425364"><ele>439.0</ele><time>2026-04-06T10:49:55.533Z</time></trkpt><trkpt lat="45.7144089" lon="9.6425334"><ele>439.0</ele><time>2026-04-06T10:50:01.528Z</time></trkpt><trkpt lat="45.7143454" lon="9.6425419"><ele>439.0</ele><time>2026-04-06T10:50:06.558Z</time></trkpt><trkpt lat="45.7142772" lon="9.642536"><ele>441.42857142857144</ele><time>2026-04-06T10:50:13.536Z</time></trkpt><trkpt lat="45.7142137" lon="9.6425294"><ele>443.85714285714283</ele><time>2026-04-06T10:50:19.542Z</time></trkpt><trkpt lat="45.7141476" lon="9.6425146"><ele>446.2857142857143</ele><time>2026-04-06T10:50:26.535Z</time></trkpt><trkpt lat="45.7140825" lon="9.6425424"><ele>448.71428571428567</ele><time>2026-04-06T10:50:33.54Z</time></trkpt><trkpt lat="45.7140146" lon="9.6425628"><ele>451.1428571428571</ele><time>2026-04-06T10:50:40.541Z</time></trkpt><trkpt lat="45.7139523" lon="9.642616"><ele>453.57142857142856</ele><time>2026-04-06T10:50:47.524Z</time></trkpt><trkpt lat="45.7138959" lon="9.6426686"><ele>456.0</ele><time>2026-04-06T10:50:53.581Z</time></trkpt><trkpt lat="45.7138472" lon="9.6427272"><ele>456.0</ele><time>2026-04-06T10:50:58.536Z</time></trkpt><trkpt lat="45.7137809" lon="9.6427677"><ele>455.99999999999994</ele><time>2026-04-06T10:51:04.534Z</time></trkpt><trkpt lat="45.7137127" lon="9.6427966"><ele>456.0</ele><time>2026-04-06T10:51:10.536Z</time></trkpt><trkpt lat="45.7136428" lon="9.6428133"><ele>456.0</ele><time>2026-04-06T10:51:17.534Z</time></trkpt><trkpt lat="45.7135808" lon="9.6428302"><ele>455.99999999999994</ele><time>2026-04-06T10:51:25.592Z</time></trkpt><trkpt lat="45.7135185" lon="9.6428432"><ele>456.0</ele><time>2026-04-06T10:51:31.528Z</time></trkpt><trkpt lat="45.7134466" lon="9.6428644"><ele>456.0</ele><time>2026-04-06T10:51:40.448Z</time></trkpt><trkpt lat="45.7133804" lon="9.6428823"><ele>456.71428571428567</ele><time>2026-04-06T10:51:45.538Z</time></trkpt><trkpt lat="45.7133106" lon="9.6428961"><ele>457.4285714285714</ele><time>2026-04-06T10:51:52.528Z</time></trkpt><trkpt lat="45.7132601" lon="9.6429555"><ele>458.1428571428571</ele><time>2026-04-06T10:52:01.472Z</time></trkpt><trkpt lat="45.7131969" lon="9.6429851"><ele>458.8571428571429</ele><time>2026-04-06T10:52:15.533Z</time></trkpt><trkpt lat="45.7131587" lon="9.6429121"><ele>459.5714285714286</ele><time>2026-04-06T10:52:31.595Z</time></trkpt><trkpt lat="45.7131266" lon="9.6428179"><ele>460.28571428571433</ele><time>2026-04-06T10:52:38.538Z</time></trkpt><trkpt lat="45.7130983" lon="9.6427347"><ele>461.0</ele><time>2026-04-06T10:52:46.554Z</time></trkpt><trkpt lat="45.713052" lon="9.6426675"><ele>461.0</ele><time>2026-04-06T10:52:59.538Z</time></trkpt><trkpt lat="45.7129917" lon="9.6427031"><ele>461.00000000000006</ele><time>2026-04-06T10:53:09.538Z</time></trkpt><trkpt lat="45.7129571" lon="9.6427807"><ele>461.0</ele><time>2026-04-06T10:53:22.538Z</time></trkpt><trkpt lat="45.7129232" lon="9.6428609"><ele>461.0</ele><time>2026-04-06T10:53:32.527Z</time></trkpt><trkpt lat="45.7128594" lon="9.6428408"><ele>461.00000000000006</ele><time>2026-04-06T10:53:38.531Z</time></trkpt><trkpt lat="45.7128273" lon="9.6427597"><ele>461.0</ele><time>2026-04-06T10:53:46.533Z</time></trkpt><trkpt lat="45.7128121" lon="9.6426667"><ele>461.0</ele><time>2026-04-06T10:53:55.533Z</time></trkpt><trkpt lat="45.7128979" lon="9.6426471"><ele>461.0</ele><time>2026-04-06T10:55:58.535Z</time></trkpt><trkpt lat="45.7128304" lon="9.6426385"><ele>461.00000000000006</ele><time>2026-04-06T10:56:32.525Z</time></trkpt><trkpt lat="45.7127703" lon="9.6426659"><ele>461.0</ele><time>2026-04-06T10:56:37.561Z</time></trkpt><trkpt lat="45.712709" lon="9.6426921"><ele>461.0</ele><time>2026-04-06T10:56:43.476Z</time></trkpt><trkpt lat="45.7126529" lon="9.6427338"><ele>461.00000000000006</ele><time>2026-04-06T10:56:52.619Z</time></trkpt><trkpt lat="45.7125953" lon="9.6427778"><ele>461.0</ele><time>2026-04-06T10:57:14.43Z</time></trkpt><trkpt lat="45.7125339" lon="9.642824"><ele>461.0</ele><time>2026-04-06T10:57:20.532Z</time></trkpt><trkpt lat="45.7124838" lon="9.6428804"><ele>463.8</ele><time>2026-04-06T10:57:27.527Z</time></trkpt><trkpt lat="45.7124421" lon="9.6429565"><ele>466.6</ele><time>2026-04-06T10:57:34.529Z</time></trkpt><trkpt lat="45.7124175" lon="9.643045"><ele>469.4</ele><time>2026-04-06T10:57:41.455Z</time></trkpt><trkpt lat="45.7124879" lon="9.6430528"><ele>472.2</ele><time>2026-04-06T10:58:10.547Z</time></trkpt><trkpt lat="45.7125557" lon="9.6430753"><ele>475.0</ele><time>2026-04-06T10:58:16.49Z</time></trkpt><trkpt lat="45.7121938" lon="9.6431731"><ele>475.0</ele><time>2026-04-06T10:58:19.522Z</time></trkpt><trkpt lat="45.7121271" lon="9.6432087"><ele>475.00000000000006</ele><time>2026-04-06T10:58:22.532Z</time></trkpt><trkpt lat="45.7120699" lon="9.6432565"><ele>475.0</ele><time>2026-04-06T10:58:28.534Z</time></trkpt><trkpt lat="45.7120132" lon="9.6432054"><ele>475.0</ele><time>2026-04-06T10:59:32.536Z</time></trkpt><trkpt lat="45.7119614" lon="9.6432593"><ele>475.00000000000006</ele><time>2026-04-06T11:00:37.526Z</time></trkpt><trkpt lat="45.7119099" lon="9.6433254"><ele>475.0</ele><time>2026-04-06T11:00:41.534Z</time></trkpt><trkpt lat="45.7118419" lon="9.6433889"><ele>475.0</ele><time>2026-04-06T11:00:47.536Z</time></trkpt><trkpt lat="45.7117802" lon="9.6434228"><ele>476.7142857142857</ele><time>2026-04-06T11:00:54.529Z</time></trkpt><trkpt lat="45.7117229" lon="9.6434852"><ele>478.42857142857144</ele><time>2026-04-06T11:01:00.529Z</time></trkpt><trkpt lat="45.7116801" lon="9.6435632"><ele>480.14285714285717</ele><time>2026-04-06T11:01:05.533Z</time></trkpt><trkpt lat="45.7116309" lon="9.6436374"><ele>481.8571428571429</ele><time>2026-04-06T11:01:11.455Z</time></trkpt><trkpt lat="45.711565" lon="9.6436697"><ele>483.57142857142856</ele><time>2026-04-06T11:01:16.531Z</time></trkpt><trkpt lat="45.711501" lon="9.6437197"><ele>485.28571428571433</ele><time>2026-04-06T11:01:22.531Z</time></trkpt><trkpt lat="45.7114443" lon="9.6437886"><ele>487.0</ele><time>2026-04-06T11:01:28.532Z</time></trkpt><trkpt lat="45.7114006" lon="9.6438654"><ele>487.0</ele><time>2026-04-06T11:01:34.523Z</time></trkpt><trkpt lat="45.7113653" lon="9.6439478"><ele>487.0</ele><time>2026-04-06T11:01:40.525Z</time></trkpt><trkpt lat="45.7113308" lon="9.6440397"><ele>487.0</ele><time>2026-04-06T11:01:46.534Z</time></trkpt><trkpt lat="45.7112995" lon="9.6441325"><ele>487.0</ele><time>2026-04-06T11:01:52.538Z</time></trkpt><trkpt lat="45.7113051" lon="9.6442276"><ele>487.0</ele><time>2026-04-06T11:01:58.529Z</time></trkpt><trkpt lat="45.71137" lon="9.6442377"><ele>487.0</ele><time>2026-04-06T11:02:17.519Z</time></trkpt><trkpt lat="45.7114068" lon="9.6443143"><ele>487.0</ele><time>2026-04-06T11:02:25.523Z</time></trkpt><trkpt lat="45.7113991" lon="9.6444066"><ele>485.7142857142857</ele><time>2026-04-06T11:02:44.524Z</time></trkpt><trkpt lat="45.7113775" lon="9.6444938"><ele>484.42857142857144</ele><time>2026-04-06T11:02:50.518Z</time></trkpt><trkpt lat="45.7114036" lon="9.6445872"><ele>483.14285714285717</ele><time>2026-04-06T11:02:53.526Z</time></trkpt><trkpt lat="45.7114421" lon="9.6446947"><ele>481.8571428571429</ele><time>2026-04-06T11:02:58.446Z</time></trkpt><trkpt lat="45.7114301" lon="9.6447899"><ele>480.57142857142856</ele><time>2026-04-06T11:03:27.525Z</time></trkpt><trkpt lat="45.7114695" lon="9.6448658"><ele>479.28571428571433</ele><time>2026-04-06T11:03:35.518Z</time></trkpt><trkpt lat="45.7115129" lon="9.6449535"><ele>478.00000000000006</ele><time>2026-04-06T11:04:12.522Z</time></trkpt><trkpt lat="45.7115633" lon="9.6450295"><ele>478.00000000000006</ele><time>2026-04-06T11:04:36.528Z</time></trkpt><trkpt lat="45.7116053" lon="9.6451038"><ele>478.0</ele><time>2026-04-06T11:04:42.534Z</time></trkpt><trkpt lat="45.7116858" lon="9.6452159"><ele>478.0</ele><time>2026-04-06T11:05:39.527Z</time></trkpt><trkpt lat="45.7117322" lon="9.6452872"><ele>478.0</ele><time>2026-04-06T11:05:44.525Z</time></trkpt><trkpt lat="45.7117578" lon="9.645381"><ele>478.00000000000006</ele><time>2026-04-06T11:05:50.535Z</time></trkpt><trkpt lat="45.7117806" lon="9.6454713"><ele>478.0</ele><time>2026-04-06T11:05:57.523Z</time></trkpt><trkpt lat="45.7118236" lon="9.6455496"><ele>474.8571428571429</ele><time>2026-04-06T11:06:05.537Z</time></trkpt><trkpt lat="45.7118524" lon="9.6456394"><ele>471.7142857142857</ele><time>2026-04-06T11:06:11.53Z</time></trkpt><trkpt lat="45.7118809" lon="9.645731"><ele>468.57142857142856</ele><time>2026-04-06T11:06:17.532Z</time></trkpt><trkpt lat="45.7118574" lon="9.6458213"><ele>465.42857142857144</ele><time>2026-04-06T11:06:25.541Z</time></trkpt><trkpt lat="45.7118781" lon="9.6459123"><ele>462.2857142857142</ele><time>2026-04-06T11:06:33.53Z</time></trkpt><trkpt lat="45.7118982" lon="9.6460018"><ele>459.1428571428571</ele><time>2026-04-06T11:06:41.53Z</time></trkpt><trkpt lat="45.7119066" lon="9.6460942"><ele>456.0</ele><time>2026-04-06T11:06:48.534Z</time></trkpt><trkpt lat="45.7119401" lon="9.6461791"><ele>456.0</ele><time>2026-04-06T11:06:55.532Z</time></trkpt><trkpt lat="45.7119602" lon="9.6462654"><ele>455.99999999999994</ele><time>2026-04-06T11:07:03.532Z</time></trkpt><trkpt lat="45.7119079" lon="9.6463407"><ele>456.0</ele><time>2026-04-06T11:07:35.554Z</time></trkpt><trkpt lat="45.7119145" lon="9.6464335"><ele>456.0</ele><time>2026-04-06T11:07:40.526Z</time></trkpt><trkpt lat="45.7119513" lon="9.6465166"><ele>455.99999999999994</ele><time>2026-04-06T11:07:44.522Z</time></trkpt><trkpt lat="45.7119713" lon="9.6466189"><ele>456.0</ele><time>2026-04-06T11:07:50.524Z</time></trkpt><trkpt lat="45.7119941" lon="9.6467136"><ele>456.0</ele><time>2026-04-06T11:07:56.547Z</time></trkpt><trkpt lat="45.7120376" lon="9.6467971"><ele>456.0</ele><time>2026-04-06T11:08:01.547Z</time></trkpt><trkpt lat="45.7120275" lon="9.6468889"><ele>455.99999999999994</ele><time>2026-04-06T11:08:06.433Z</time></trkpt><trkpt lat="45.7120206" lon="9.6469947"><ele>456.0</ele><time>2026-04-06T11:08:15.533Z</time></trkpt><trkpt lat="45.712022" lon="9.6470881"><ele>456.0</ele><time>2026-04-06T11:08:19.513Z</time></trkpt><trkpt lat="45.7120121" lon="9.6471798"><ele>455.99999999999994</ele><time>2026-04-06T11:08:26.535Z</time></trkpt><trkpt lat="45.7119499" lon="9.6471403"><ele>456.0</ele><time>2026-04-06T11:08:46.534Z</time></trkpt><trkpt lat="45.7118931" lon="9.6470791"><ele>456.0</ele><time>2026-04-06T11:09:16.531Z</time></trkpt><trkpt lat="45.7118477" lon="9.647263"><ele>455.57142857142856</ele><time>2026-04-06T11:09:17.529Z</time></trkpt><trkpt lat="45.7118113" lon="9.6473442"><ele>455.1428571428571</ele><time>2026-04-06T11:09:19.536Z</time></trkpt><trkpt lat="45.7117453" lon="9.647398"><ele>454.71428571428567</ele><time>2026-04-06T11:09:24.495Z</time></trkpt><trkpt lat="45.7116884" lon="9.647442"><ele>454.2857142857142</ele><time>2026-04-06T11:09:29.588Z</time></trkpt><trkpt lat="45.7116143" lon="9.6474717"><ele>453.85714285714283</ele><time>2026-04-06T11:09:36.536Z</time></trkpt><trkpt lat="45.7115499" lon="9.6474736"><ele>453.42857142857133</ele><time>2026-04-06T11:09:41.469Z</time></trkpt><trkpt lat="45.7114868" lon="9.6474731"><ele>452.99999999999994</ele><time>2026-04-06T11:09:46.529Z</time></trkpt><trkpt lat="45.7114199" lon="9.6474664"><ele>452.99999999999994</ele><time>2026-04-06T11:09:52.471Z</time></trkpt><trkpt lat="45.7113481" lon="9.6474904"><ele>453.0</ele><time>2026-04-06T11:09:57.524Z</time></trkpt><trkpt lat="45.7112869" lon="9.6475256"><ele>452.99999999999994</ele><time>2026-04-06T11:10:03.535Z</time></trkpt><trkpt lat="45.7112176" lon="9.6475379"><ele>452.99999999999994</ele><time>2026-04-06T11:10:10.533Z</time></trkpt><trkpt lat="45.7111486" lon="9.6475444"><ele>453.0</ele><time>2026-04-06T11:10:17.525Z</time></trkpt><trkpt lat="45.711084" lon="9.6475716"><ele>452.99999999999994</ele><time>2026-04-06T11:10:23.6Z</time></trkpt><trkpt lat="45.7110205" lon="9.6476196"><ele>452.99999999999994</ele><time>2026-04-06T11:10:30.523Z</time></trkpt><trkpt lat="45.7109737" lon="9.6476857"><ele>453.1428571428571</ele><time>2026-04-06T11:10:37.535Z</time></trkpt><trkpt lat="45.7109159" lon="9.6477427"><ele>453.2857142857143</ele><time>2026-04-06T11:10:44.479Z</time></trkpt><trkpt lat="45.7108551" lon="9.6477793"><ele>453.42857142857144</ele><time>2026-04-06T11:10:50.489Z</time></trkpt><trkpt lat="45.7108069" lon="9.647842"><ele>453.57142857142856</ele><time>2026-04-06T11:10:56.521Z</time></trkpt><trkpt lat="45.7107437" lon="9.6478444"><ele>453.7142857142858</ele><time>2026-04-06T11:11:21.434Z</time></trkpt><trkpt lat="45.7106947" lon="9.6479194"><ele>453.8571428571429</ele><time>2026-04-06T11:12:44.544Z</time></trkpt><trkpt lat="45.7106562" lon="9.6480096"><ele>454.0</ele><time>2026-04-06T11:14:35.566Z</time></trkpt><trkpt lat="45.7106217" lon="9.6481016"><ele>454.0</ele><time>2026-04-06T11:14:42.535Z</time></trkpt><trkpt lat="45.7105729" lon="9.6481795"><ele>454.00000000000006</ele><time>2026-04-06T11:14:48.549Z</time></trkpt><trkpt lat="45.7105244" lon="9.6482466"><ele>454.0</ele><time>2026-04-06T11:14:54.562Z</time></trkpt><trkpt lat="45.7104792" lon="9.6483126"><ele>454.0</ele><time>2026-04-06T11:14:59.528Z</time></trkpt><trkpt lat="45.7104318" lon="9.6483754"><ele>454.00000000000006</ele><time>2026-04-06T11:15:04.529Z</time></trkpt><trkpt lat="45.7103892" lon="9.6484489"><ele>454.0</ele><time>2026-04-06T11:15:09.53Z</time></trkpt><trkpt lat="45.71034" lon="9.6485172"><ele>454.0</ele><time>2026-04-06T11:15:14.541Z</time></trkpt><trkpt lat="45.7102965" lon="9.648596"><ele>454.28571428571433</ele><time>2026-04-06T11:15:20.532Z</time></trkpt><trkpt lat="45.7102436" lon="9.6486488"><ele>454.5714285714286</ele><time>2026-04-06T11:15:25.489Z</time></trkpt><trkpt lat="45.7101807" lon="9.648684"><ele>454.8571428571429</ele><time>2026-04-06T11:15:31.538Z</time></trkpt><trkpt lat="45.7101119" lon="9.6487247"><ele>455.1428571428571</ele><time>2026-04-06T11:15:37.451Z</time></trkpt><trkpt lat="45.7100485" lon="9.6487678"><ele>455.4285714285714</ele><time>2026-04-06T11:15:43.532Z</time></trkpt><trkpt lat="45.7099837" lon="9.6488066"><ele>455.71428571428567</ele><time>2026-04-06T11:15:49.531Z</time></trkpt><trkpt lat="45.7099139" lon="9.6488545"><ele>456.0</ele><time>2026-04-06T11:15:55.537Z</time></trkpt><trkpt lat="45.7098505" lon="9.6489006"><ele>456.4285714285714</ele><time>2026-04-06T11:16:01.527Z</time></trkpt><trkpt lat="45.7097896" lon="9.6489475"><ele>456.8571428571428</ele><time>2026-04-06T11:16:07.537Z</time></trkpt><trkpt lat="45.7097241" lon="9.6489979"><ele>457.2857142857143</ele><time>2026-04-06T11:16:14.52Z</time></trkpt><trkpt lat="45.7096631" lon="9.6490484"><ele>457.71428571428567</ele><time>2026-04-06T11:16:19.533Z</time></trkpt><trkpt lat="45.7096063" lon="9.6491061"><ele>458.1428571428571</ele><time>2026-04-06T11:16:27.554Z</time></trkpt><trkpt lat="45.7095534" lon="9.6491612"><ele>458.57142857142856</ele><time>2026-04-06T11:16:33.527Z</time></trkpt><trkpt lat="45.7094984" lon="9.649226"><ele>459.0</ele><time>2026-04-06T11:16:39.556Z</time></trkpt><trkpt lat="45.7094477" lon="9.6492888"><ele>460.0</ele><time>2026-04-06T11:16:45.532Z</time></trkpt><trkpt lat="45.7093984" lon="9.6493523"><ele>461.0</ele><time>2026-04-06T11:16:52.474Z</time></trkpt><trkpt lat="45.7093452" lon="9.649414"><ele>462.0</ele><time>2026-04-06T11:16:59.539Z</time></trkpt><trkpt lat="45.7092917" lon="9.649481"><ele>463.0</ele><time>2026-04-06T11:17:05.531Z</time></trkpt><trkpt lat="45.7092365" lon="9.6495445"><ele>464.0</ele><time>2026-04-06T11:17:12.555Z</time></trkpt><trkpt lat="45.7091807" lon="9.6496078"><ele>465.0</ele><time>2026-04-06T11:17:18.54Z</time></trkpt><trkpt lat="45.7091305" lon="9.6496657"><ele>466.0</ele><time>2026-04-06T11:17:25.532Z</time></trkpt><trkpt lat="45.7090637" lon="9.6497117"><ele>466.0</ele><time>2026-04-06T11:17:31.527Z</time></trkpt><trkpt lat="45.7089982" lon="9.6497546"><ele>466.0</ele><time>2026-04-06T11:17:38.526Z</time></trkpt><trkpt lat="45.7089407" lon="9.6497951"><ele>466.0</ele><time>2026-04-06T11:17:43.53Z</time></trkpt><trkpt lat="45.7088788" lon="9.6498406"><ele>466.0</ele><time>2026-04-06T11:17:49.535Z</time></trkpt><trkpt lat="45.7088224" lon="9.649888"><ele>466.0</ele><time>2026-04-06T11:17:55.527Z</time></trkpt><trkpt lat="45.7087548" lon="9.6499316"><ele>466.0</ele><time>2026-04-06T11:18:01.437Z</time></trkpt><trkpt lat="45.7086925" lon="9.6499668"><ele>466.0</ele><time>2026-04-06T11:18:07.533Z</time></trkpt><trkpt lat="45.7086338" lon="9.6500085"><ele>464.42857142857144</ele><time>2026-04-06T11:18:13.523Z</time></trkpt><trkpt lat="45.7085712" lon="9.6500388"><ele>462.85714285714283</ele><time>2026-04-06T11:18:19.532Z</time></trkpt><trkpt lat="45.7085113" lon="9.6500689"><ele>461.2857142857143</ele><time>2026-04-06T11:18:25.579Z</time></trkpt><trkpt lat="45.7084681" lon="9.6501427"><ele>459.7142857142857</ele><time>2026-04-06T11:18:32.53Z</time></trkpt><trkpt lat="45.7085215" lon="9.650216"><ele>458.1428571428571</ele><time>2026-04-06T11:18:38.534Z</time></trkpt><trkpt lat="45.708457" lon="9.6502273"><ele>456.57142857142856</ele><time>2026-04-06T11:18:56.537Z</time></trkpt><trkpt lat="45.7083883" lon="9.65025"><ele>455.0</ele><time>2026-04-06T11:19:02.529Z</time></trkpt><trkpt lat="45.7083281" lon="9.6501997"><ele>455.0</ele><time>2026-04-06T11:19:39.531Z</time></trkpt><trkpt lat="45.7082691" lon="9.6501665"><ele>455.0</ele><time>2026-04-06T11:20:45.53Z</time></trkpt><trkpt lat="45.7082508" lon="9.6500802"><ele>455.0</ele><time>2026-04-06T11:20:51.53Z</time></trkpt><trkpt lat="45.7082136" lon="9.6499967"><ele>455.0</ele><time>2026-04-06T11:20:59.529Z</time></trkpt><trkpt lat="45.7081606" lon="9.6499374"><ele>455.0</ele><time>2026-04-06T11:21:06.532Z</time></trkpt><trkpt lat="45.708098" lon="9.6498947"><ele>455.0</ele><time>2026-04-06T11:21:13.535Z</time></trkpt><trkpt lat="45.7080342" lon="9.6498536"><ele>455.0</ele><time>2026-04-06T11:21:20.532Z</time></trkpt><trkpt lat="45.707988" lon="9.6497766"><ele>455.0</ele><time>2026-04-06T11:21:25.533Z</time></trkpt><trkpt lat="45.707949" lon="9.649704"><ele>455.0</ele><time>2026-04-06T11:21:31.533Z</time></trkpt><trkpt lat="45.7079136" lon="9.6496294"><ele>455.0</ele><time>2026-04-06T11:21:37.535Z</time></trkpt><trkpt lat="45.7078796" lon="9.6495522"><ele>455.0</ele><time>2026-04-06T11:21:43.537Z</time></trkpt><trkpt lat="45.7078411" lon="9.6494644"><ele>455.0</ele><time>2026-04-06T11:21:50.521Z</time></trkpt><trkpt lat="45.7077986" lon="9.6493955"><ele>455.0</ele><time>2026-04-06T11:21:56.528Z</time></trkpt><trkpt lat="45.7077441" lon="9.649341"><ele>455.0</ele><time>2026-04-06T11:22:02.52Z</time></trkpt><trkpt lat="45.7076914" lon="9.6492885"><ele>453.7142857142857</ele><time>2026-04-06T11:22:08.529Z</time></trkpt><trkpt lat="45.707638" lon="9.6492273"><ele>452.42857142857144</ele><time>2026-04-06T11:22:14.527Z</time></trkpt><trkpt lat="45.7075951" lon="9.6491512"><ele>451.1428571428571</ele><time>2026-04-06T11:22:21.53Z</time></trkpt><trkpt lat="45.7075531" lon="9.6490808"><ele>449.8571428571429</ele><time>2026-04-06T11:22:27.537Z</time></trkpt><trkpt lat="45.707509" lon="9.6490029"><ele>448.57142857142856</ele><time>2026-04-06T11:22:34.521Z</time></trkpt><trkpt lat="45.7074667" lon="9.6489357"><ele>447.2857142857143</ele><time>2026-04-06T11:22:40.531Z</time></trkpt><trkpt lat="45.7074254" lon="9.6488503"><ele>446.0</ele><time>2026-04-06T11:22:47.528Z</time></trkpt><trkpt lat="45.7073863" lon="9.6487725"><ele>446.0</ele><time>2026-04-06T11:22:53.536Z</time></trkpt><trkpt lat="45.7073311" lon="9.6487228"><ele>446.0</ele><time>2026-04-06T11:22:59.53Z</time></trkpt><trkpt lat="45.7072835" lon="9.6486544"><ele>446.0</ele><time>2026-04-06T11:23:05.531Z</time></trkpt><trkpt lat="45.707241" lon="9.6485691"><ele>446.0</ele><time>2026-04-06T11:23:12.522Z</time></trkpt><trkpt lat="45.7071984" lon="9.6484954"><ele>446.0</ele><time>2026-04-06T11:23:19.543Z</time></trkpt><trkpt lat="45.7071479" lon="9.6484244"><ele>446.0</ele><time>2026-04-06T11:23:26.533Z</time></trkpt><trkpt lat="45.7071019" lon="9.6483446"><ele>446.0</ele><time>2026-04-06T11:23:33.534Z</time></trkpt><trkpt lat="45.7070511" lon="9.6482747"><ele>444.2857142857143</ele><time>2026-04-06T11:23:40.533Z</time></trkpt><trkpt lat="45.7069953" lon="9.648222"><ele>442.57142857142856</ele><time>2026-04-06T11:23:47.532Z</time></trkpt><trkpt lat="45.7069287" lon="9.6481913"><ele>440.8571428571429</ele><time>2026-04-06T11:23:55.529Z</time></trkpt><trkpt lat="45.7068684" lon="9.6481391"><ele>439.1428571428571</ele><time>2026-04-06T11:24:03.536Z</time></trkpt><trkpt lat="45.7068047" lon="9.6481248"><ele>437.42857142857144</ele><time>2026-04-06T11:24:12.544Z</time></trkpt><trkpt lat="45.7067379" lon="9.6480997"><ele>435.7142857142857</ele><time>2026-04-06T11:24:20.586Z</time></trkpt><trkpt lat="45.7066745" lon="9.6481071"><ele>434.0</ele><time>2026-04-06T11:24:28.529Z</time></trkpt><trkpt lat="45.7066071" lon="9.6480763"><ele>433.42857142857144</ele><time>2026-04-06T11:24:36.525Z</time></trkpt><trkpt lat="45.7065421" lon="9.6480339"><ele>432.8571428571429</ele><time>2026-04-06T11:24:45.536Z</time></trkpt><trkpt lat="45.7064865" lon="9.6479786"><ele>432.2857142857143</ele><time>2026-04-06T11:24:53.533Z</time></trkpt><trkpt lat="45.7064237" lon="9.6480263"><ele>431.7142857142857</ele><time>2026-04-06T11:25:51.516Z</time></trkpt><trkpt lat="45.7063885" lon="9.6479432"><ele>431.14285714285717</ele><time>2026-04-06T11:26:09.523Z</time></trkpt><trkpt lat="45.7063335" lon="9.6478814"><ele>430.57142857142856</ele><time>2026-04-06T11:26:47.52Z</time></trkpt><trkpt lat="45.7062897" lon="9.6478138"><ele>430.0</ele><time>2026-04-06T11:26:53.565Z</time></trkpt><trkpt lat="45.7062262" lon="9.6477588"><ele>427.85714285714283</ele><time>2026-04-06T11:26:59.519Z</time></trkpt><trkpt lat="45.7061966" lon="9.647677"><ele>425.7142857142857</ele><time>2026-04-06T11:27:07.522Z</time></trkpt><trkpt lat="45.7061491" lon="9.6476061"><ele>423.57142857142856</ele><time>2026-04-06T11:27:15.521Z</time></trkpt><trkpt lat="45.7060839" lon="9.647584"><ele>421.42857142857144</ele><time>2026-04-06T11:27:21.53Z</time></trkpt><trkpt lat="45.7060246" lon="9.6475392"><ele>419.28571428571433</ele><time>2026-04-06T11:27:29.529Z</time></trkpt><trkpt lat="45.7059585" lon="9.64749"><ele>417.14285714285717</ele><time>2026-04-06T11:27:36.522Z</time></trkpt><trkpt lat="45.7058999" lon="9.6474493"><ele>415.0</ele><time>2026-04-06T11:27:42.527Z</time></trkpt><trkpt lat="45.7058374" lon="9.6474299"><ele>414.8571428571429</ele><time>2026-04-06T11:27:48.523Z</time></trkpt><trkpt lat="45.7057663" lon="9.6474219"><ele>414.7142857142857</ele><time>2026-04-06T11:27:54.534Z</time></trkpt><trkpt lat="45.7056952" lon="9.6474074"><ele>414.57142857142856</ele><time>2026-04-06T11:28:00.525Z</time></trkpt><trkpt lat="45.705627" lon="9.6473732"><ele>414.42857142857144</ele><time>2026-04-06T11:28:08.524Z</time></trkpt><trkpt lat="45.7055544" lon="9.647342"><ele>414.2857142857143</ele><time>2026-04-06T11:28:22.523Z</time></trkpt><trkpt lat="45.7054907" lon="9.6473244"><ele>414.14285714285717</ele><time>2026-04-06T11:28:27.548Z</time></trkpt><trkpt lat="45.7054375" lon="9.6472633"><ele>414.0</ele><time>2026-04-06T11:29:02.518Z</time></trkpt><trkpt lat="45.7053866" lon="9.64721"><ele>414.00000000000006</ele><time>2026-04-06T11:29:06.523Z</time></trkpt><trkpt lat="45.7053612" lon="9.6471173"><ele>414.0</ele><time>2026-04-06T11:29:16.531Z</time></trkpt><trkpt lat="45.705332" lon="9.6470272"><ele>414.0</ele><time>2026-04-06T11:29:22.529Z</time></trkpt><trkpt lat="45.705275" lon="9.6470723"><ele>414.0</ele><time>2026-04-06T11:30:28.519Z</time></trkpt><trkpt lat="45.7052057" lon="9.647057"><ele>414.0</ele><time>2026-04-06T11:30:49.514Z</time></trkpt><trkpt lat="45.7051473" lon="9.6470036"><ele>414.00000000000006</ele><time>2026-04-06T11:30:58.521Z</time></trkpt><trkpt lat="45.7050839" lon="9.6469694"><ele>414.0</ele><time>2026-04-06T11:31:09.517Z</time></trkpt><trkpt lat="45.705015" lon="9.6469477"><ele>411.7142857142857</ele><time>2026-04-06T11:31:17.521Z</time></trkpt><trkpt lat="45.7049561" lon="9.6469016"><ele>409.42857142857144</ele><time>2026-04-06T11:31:21.381Z</time></trkpt><trkpt lat="45.7048935" lon="9.6468675"><ele>407.1428571428571</ele><time>2026-04-06T11:31:29.517Z</time></trkpt><trkpt lat="45.7048298" lon="9.6468418"><ele>404.8571428571429</ele><time>2026-04-06T11:31:37.482Z</time></trkpt><trkpt lat="45.7047709" lon="9.6469023"><ele>402.57142857142856</ele><time>2026-04-06T11:31:46.518Z</time></trkpt><trkpt lat="45.7047448" lon="9.6469981"><ele>400.2857142857143</ele><time>2026-04-06T11:32:28.519Z</time></trkpt><trkpt lat="45.7047335" lon="9.6470955"><ele>398.0</ele><time>2026-04-06T11:32:35.53Z</time></trkpt><trkpt lat="45.7048035" lon="9.6471165"><ele>397.99999999999994</ele><time>2026-04-06T11:32:42.528Z</time></trkpt><trkpt lat="45.7048726" lon="9.647111"><ele>398.0</ele><time>2026-04-06T11:32:49.513Z</time></trkpt><trkpt lat="45.7048995" lon="9.6469682"><ele>398.0</ele><time>2026-04-06T11:32:55.526Z</time></trkpt><trkpt lat="45.7048829" lon="9.6468572"><ele>398.0</ele><time>2026-04-06T11:32:57.522Z</time></trkpt><trkpt lat="45.7048818" lon="9.6467657"><ele>397.99999999999994</ele><time>2026-04-06T11:33:01.52Z</time></trkpt><trkpt lat="45.7049039" lon="9.6466634"><ele>398.0</ele><time>2026-04-06T11:33:06.523Z</time></trkpt><trkpt lat="45.7049142" lon="9.6465581"><ele>396.4285714285714</ele><time>2026-04-06T11:33:10.527Z</time></trkpt><trkpt lat="45.7048826" lon="9.6464483"><ele>394.85714285714283</ele><time>2026-04-06T11:33:14.528Z</time></trkpt><trkpt lat="45.7048645" lon="9.6463555"><ele>393.2857142857143</ele><time>2026-04-06T11:33:20.521Z</time></trkpt><trkpt lat="45.7048404" lon="9.6462722"><ele>391.71428571428567</ele><time>2026-04-06T11:33:25.543Z</time></trkpt><trkpt lat="45.7047946" lon="9.6461933"><ele>390.14285714285717</ele><time>2026-04-06T11:33:31.541Z</time></trkpt><trkpt lat="45.7047533" lon="9.6461027"><ele>388.57142857142856</ele><time>2026-04-06T11:33:36.447Z</time></trkpt><trkpt lat="45.7047174" lon="9.6460225"><ele>387.0</ele><time>2026-04-06T11:33:40.519Z</time></trkpt><trkpt lat="45.7047037" lon="9.6459199"><ele>385.7142857142857</ele><time>2026-04-06T11:33:45.537Z</time></trkpt><trkpt lat="45.7047155" lon="9.645808"><ele>384.42857142857144</ele><time>2026-04-06T11:33:49.43Z</time></trkpt><trkpt lat="45.7047355" lon="9.6457174"><ele>383.1428571428571</ele><time>2026-04-06T11:33:53.519Z</time></trkpt><trkpt lat="45.7047583" lon="9.6456308"><ele>381.8571428571429</ele><time>2026-04-06T11:33:58.523Z</time></trkpt><trkpt lat="45.7048007" lon="9.645542"><ele>380.57142857142856</ele><time>2026-04-06T11:34:05.527Z</time></trkpt><trkpt lat="45.7048512" lon="9.6454851"><ele>379.2857142857143</ele><time>2026-04-06T11:34:10.526Z</time></trkpt><trkpt lat="45.7048953" lon="9.6454157"><ele>378.0</ele><time>2026-04-06T11:34:16.519Z</time></trkpt><trkpt lat="45.7049138" lon="9.645323"><ele>378.0</ele><time>2026-04-06T11:34:23.529Z</time></trkpt><trkpt lat="45.704927" lon="9.645221"><ele>378.0</ele><time>2026-04-06T11:34:32.525Z</time></trkpt><trkpt lat="45.7049469" lon="9.6451317"><ele>378.0</ele><time>2026-04-06T11:34:36.533Z</time></trkpt><trkpt lat="45.704975" lon="9.6450406"><ele>378.0</ele><time>2026-04-06T11:34:42.53Z</time></trkpt><trkpt lat="45.7050248" lon="9.6450994"><ele>378.0</ele><time>2026-04-06T11:34:51.518Z</time></trkpt><trkpt lat="45.7050207" lon="9.6451938"><ele>378.0</ele><time>2026-04-06T11:34:56.533Z</time></trkpt><trkpt lat="45.7050053" lon="9.6452818"><ele>378.0</ele><time>2026-04-06T11:35:01.53Z</time></trkpt><trkpt lat="45.7049979" lon="9.645379"><ele>378.0</ele><time>2026-04-06T11:35:07.534Z</time></trkpt><trkpt lat="45.7050097" lon="9.6454863"><ele>378.0</ele><time>2026-04-06T11:35:13.506Z</time></trkpt><trkpt lat="45.7050766" lon="9.6455448"><ele>378.0</ele><time>2026-04-06T11:35:19.524Z</time></trkpt><trkpt lat="45.7051523" lon="9.6455493"><ele>378.0</ele><time>2026-04-06T11:35:25.518Z</time></trkpt><trkpt lat="45.7052185" lon="9.645562"><ele>378.0</ele><time>2026-04-06T11:35:31.522Z</time></trkpt><trkpt lat="45.7052848" lon="9.6455655"><ele>378.0</ele><time>2026-04-06T11:35:37.524Z</time></trkpt><trkpt lat="45.7053498" lon="9.645573"><ele>378.0</ele><time>2026-04-06T11:35:43.528Z</time></trkpt><trkpt lat="45.7054159" lon="9.6455911"><ele>375.2857142857143</ele><time>2026-04-06T11:35:49.526Z</time></trkpt><trkpt lat="45.7054777" lon="9.6456122"><ele>372.57142857142856</ele><time>2026-04-06T11:35:54.532Z</time></trkpt><trkpt lat="45.7055368" lon="9.6456443"><ele>369.8571428571429</ele><time>2026-04-06T11:36:00.465Z</time></trkpt><trkpt lat="45.7056048" lon="9.6456577"><ele>367.1428571428571</ele><time>2026-04-06T11:36:13.524Z</time></trkpt><trkpt lat="45.7056599" lon="9.6457154"><ele>364.42857142857144</ele><time>2026-04-06T11:36:22.549Z</time></trkpt><trkpt lat="45.7057224" lon="9.6457587"><ele>361.7142857142857</ele><time>2026-04-06T11:36:31.521Z</time></trkpt><trkpt lat="45.7057855" lon="9.6458212"><ele>359.0</ele><time>2026-04-06T11:36:38.552Z</time></trkpt><trkpt lat="45.7058416" lon="9.6458752"><ele>359.0</ele><time>2026-04-06T11:36:45.52Z</time></trkpt><trkpt lat="45.7058964" lon="9.645823"><ele>359.0</ele><time>2026-04-06T11:36:56.528Z</time></trkpt><trkpt lat="45.7059725" lon="9.645798"><ele>359.0</ele><time>2026-04-06T11:37:05.578Z</time></trkpt><trkpt lat="45.706042" lon="9.6458091"><ele>359.0</ele><time>2026-04-06T11:37:10.508Z</time></trkpt><trkpt lat="45.7061146" lon="9.6458418"><ele>359.0</ele><time>2026-04-06T11:37:16.527Z</time></trkpt><trkpt lat="45.7061748" lon="9.6459104"><ele>359.0</ele><time>2026-04-06T11:37:21.527Z</time></trkpt><trkpt lat="45.7062425" lon="9.6458994"><ele>359.0</ele><time>2026-04-06T11:37:29.519Z</time></trkpt><trkpt lat="45.7063075" lon="9.6458927"><ele>357.2857142857143</ele><time>2026-04-06T11:37:35.452Z</time></trkpt><trkpt lat="45.706371" lon="9.6458746"><ele>355.57142857142856</ele><time>2026-04-06T11:37:40.52Z</time></trkpt><trkpt lat="45.7064417" lon="9.6458709"><ele>353.8571428571429</ele><time>2026-04-06T11:37:47.519Z</time></trkpt><trkpt lat="45.7065066" lon="9.6458716"><ele>352.1428571428571</ele><time>2026-04-06T11:37:55.521Z</time></trkpt><trkpt lat="45.7065815" lon="9.645875"><ele>350.4285714285714</ele><time>2026-04-06T11:38:03.531Z</time></trkpt><trkpt lat="45.7066481" lon="9.6458916"><ele>348.7142857142857</ele><time>2026-04-06T11:38:10.527Z</time></trkpt><trkpt lat="45.7067126" lon="9.645905"><ele>347.0</ele><time>2026-04-06T11:38:16.486Z</time></trkpt><trkpt lat="45.7067774" lon="9.6459068"><ele>347.0</ele><time>2026-04-06T11:38:21.524Z</time></trkpt><trkpt lat="45.7068426" lon="9.6458848"><ele>347.0</ele><time>2026-04-06T11:38:26.526Z</time></trkpt><trkpt lat="45.7069024" lon="9.6458503"><ele>347.0</ele><time>2026-04-06T11:38:31.484Z</time></trkpt><trkpt lat="45.7069609" lon="9.645787"><ele>347.0</ele><time>2026-04-06T11:38:37.524Z</time></trkpt><trkpt lat="45.7070141" lon="9.645737"><ele>347.0</ele><time>2026-04-06T11:38:43.527Z</time></trkpt><trkpt lat="45.7070712" lon="9.645689"><ele>347.0</ele><time>2026-04-06T11:38:49.524Z</time></trkpt><trkpt lat="45.7071281" lon="9.6456273"><ele>347.0</ele><time>2026-04-06T11:38:55.535Z</time></trkpt><trkpt lat="45.7071814" lon="9.6455787"><ele>346.42857142857144</ele><time>2026-04-06T11:39:01.533Z</time></trkpt><trkpt lat="45.7072514" lon="9.645569"><ele>345.85714285714283</ele><time>2026-04-06T11:39:08.508Z</time></trkpt><trkpt lat="45.7073218" lon="9.6455654"><ele>345.2857142857143</ele><time>2026-04-06T11:39:15.487Z</time></trkpt><trkpt lat="45.7073909" lon="9.6455497"><ele>344.7142857142857</ele><time>2026-04-06T11:39:22.523Z</time></trkpt><trkpt lat="45.7074635" lon="9.6455341"><ele>344.1428571428571</ele><time>2026-04-06T11:39:29.512Z</time></trkpt><trkpt lat="45.7075342" lon="9.6455363"><ele>343.57142857142856</ele><time>2026-04-06T11:39:36.547Z</time></trkpt><trkpt lat="45.7076063" lon="9.6455371"><ele>343.0</ele><time>2026-04-06T11:39:43.531Z</time></trkpt><trkpt lat="45.7076749" lon="9.6455314"><ele>340.57142857142856</ele><time>2026-04-06T11:39:50.504Z</time></trkpt><trkpt lat="45.7077468" lon="9.6455317"><ele>338.1428571428571</ele><time>2026-04-06T11:39:57.449Z</time></trkpt><trkpt lat="45.7078112" lon="9.6455487"><ele>335.7142857142857</ele><time>2026-04-06T11:40:03.502Z</time></trkpt><trkpt lat="45.7078727" lon="9.6455881"><ele>333.2857142857143</ele><time>2026-04-06T11:40:09.524Z</time></trkpt><trkpt lat="45.7079332" lon="9.6456289"><ele>330.85714285714283</ele><time>2026-04-06T11:40:15.524Z</time></trkpt><trkpt lat="45.7079937" lon="9.6456618"><ele>328.42857142857144</ele><time>2026-04-06T11:40:21.513Z</time></trkpt><trkpt lat="45.7080602" lon="9.6456935"><ele>326.0</ele><time>2026-04-06T11:40:27.523Z</time></trkpt><trkpt lat="45.7081263" lon="9.6457274"><ele>326.0</ele><time>2026-04-06T11:40:34.524Z</time></trkpt><trkpt lat="45.7081817" lon="9.6457856"><ele>326.0</ele><time>2026-04-06T11:40:39.527Z</time></trkpt><trkpt lat="45.7082534" lon="9.6458067"><ele>326.0</ele><time>2026-04-06T11:40:47.53Z</time></trkpt><trkpt lat="45.7083181" lon="9.6458356"><ele>326.0</ele><time>2026-04-06T11:40:53.527Z</time></trkpt><trkpt lat="45.7083868" lon="9.6458525"><ele>326.0</ele><time>2026-04-06T11:40:59.533Z</time></trkpt><trkpt lat="45.7084508" lon="9.6458798"><ele>326.0</ele><time>2026-04-06T11:41:05.532Z</time></trkpt><trkpt lat="45.7085129" lon="9.6459122"><ele>326.0</ele><time>2026-04-06T11:41:11.524Z</time></trkpt><trkpt lat="45.7085717" lon="9.6459688"><ele>327.2857142857143</ele><time>2026-04-06T11:41:17.523Z</time></trkpt><trkpt lat="45.7086416" lon="9.64592"><ele>328.57142857142856</ele><time>2026-04-06T11:41:24.49Z</time></trkpt><trkpt lat="45.7086681" lon="9.645821"><ele>329.85714285714283</ele><time>2026-04-06T11:41:30.515Z</time></trkpt><trkpt lat="45.7086469" lon="9.6457295"><ele>331.1428571428571</ele><time>2026-04-06T11:41:37.49Z</time></trkpt><trkpt lat="45.7086435" lon="9.6456309"><ele>332.42857142857144</ele><time>2026-04-06T11:41:42.468Z</time></trkpt><trkpt lat="45.7086243" lon="9.6455428"><ele>333.71428571428567</ele><time>2026-04-06T11:41:47.535Z</time></trkpt><trkpt lat="45.7086245" lon="9.6454464"><ele>335.0</ele><time>2026-04-06T11:41:53.49Z</time></trkpt><trkpt lat="45.7086282" lon="9.6453512"><ele>335.85714285714283</ele><time>2026-04-06T11:41:59.522Z</time></trkpt><trkpt lat="45.7086182" lon="9.6452532"><ele>336.7142857142857</ele><time>2026-04-06T11:42:06.53Z</time></trkpt><trkpt lat="45.7086869" lon="9.6452608"><ele>337.57142857142856</ele><time>2026-04-06T11:42:16.527Z</time></trkpt><trkpt lat="45.7087109" lon="9.6451764"><ele>338.42857142857144</ele><time>2026-04-06T11:42:22.526Z</time></trkpt><trkpt lat="45.7087164" lon="9.6450849"><ele>339.2857142857143</ele><time>2026-04-06T11:42:27.522Z</time></trkpt><trkpt lat="45.7086975" lon="9.6449754"><ele>340.1428571428571</ele><time>2026-04-06T11:42:33.523Z</time></trkpt><trkpt lat="45.7086574" lon="9.6448988"><ele>341.0</ele><time>2026-04-06T11:42:37.53Z</time></trkpt><trkpt lat="45.7086234" lon="9.6448194"><ele>341.0</ele><time>2026-04-06T11:42:42.508Z</time></trkpt><trkpt lat="45.7085991" lon="9.6447329"><ele>341.0</ele><time>2026-04-06T11:42:48.556Z</time></trkpt><trkpt lat="45.7085807" lon="9.6446395"><ele>341.0</ele><time>2026-04-06T11:42:54.54Z</time></trkpt><trkpt lat="45.7085643" lon="9.6445479"><ele>341.0</ele><time>2026-04-06T11:43:00.557Z</time></trkpt><trkpt lat="45.7085499" lon="9.6444505"><ele>341.0</ele><time>2026-04-06T11:43:06.53Z</time></trkpt><trkpt lat="45.7085147" lon="9.6443583"><ele>341.0</ele><time>2026-04-06T11:43:11.529Z</time></trkpt><trkpt lat="45.708472" lon="9.6442833"><ele>341.0</ele><time>2026-04-06T11:43:16.491Z</time></trkpt><trkpt lat="45.7084206" lon="9.6442031"><ele>336.2857142857143</ele><time>2026-04-06T11:43:21.44Z</time></trkpt><trkpt lat="45.7083731" lon="9.6441256"><ele>331.57142857142856</ele><time>2026-04-06T11:43:26.523Z</time></trkpt><trkpt lat="45.7083332" lon="9.6440497"><ele>326.8571428571429</ele><time>2026-04-06T11:43:31.528Z</time></trkpt><trkpt lat="45.7082897" lon="9.6439732"><ele>322.1428571428571</ele><time>2026-04-06T11:43:36.528Z</time></trkpt><trkpt lat="45.7082388" lon="9.6438849"><ele>317.42857142857144</ele><time>2026-04-06T11:43:42.529Z</time></trkpt><trkpt lat="45.7082023" lon="9.6438049"><ele>312.7142857142857</ele><time>2026-04-06T11:43:47.49Z</time></trkpt><trkpt lat="45.7081618" lon="9.643728"><ele>308.0</ele><time>2026-04-06T11:43:52.522Z</time></trkpt><trkpt lat="45.7081081" lon="9.643663"><ele>309.7142857142857</ele><time>2026-04-06T11:43:58.539Z</time></trkpt><trkpt lat="45.7080722" lon="9.643586"><ele>311.42857142857144</ele><time>2026-04-06T11:44:04.522Z</time></trkpt><trkpt lat="45.7080304" lon="9.6435116"><ele>313.1428571428571</ele><time>2026-04-06T11:44:09.537Z</time></trkpt><trkpt lat="45.7079829" lon="9.6434474"><ele>314.8571428571429</ele><time>2026-04-06T11:44:14.529Z</time></trkpt><trkpt lat="45.7079411" lon="9.6433669"><ele>316.57142857142856</ele><time>2026-04-06T11:44:20.52Z</time></trkpt><trkpt lat="45.7079102" lon="9.6432786"><ele>318.2857142857143</ele><time>2026-04-06T11:44:26.53Z</time></trkpt><trkpt lat="45.7078698" lon="9.6432083"><ele>320.0</ele><time>2026-04-06T11:44:31.53Z</time></trkpt><trkpt lat="45.7078315" lon="9.6431166"><ele>320.0</ele><time>2026-04-06T11:44:37.529Z</time></trkpt><trkpt lat="45.7078278" lon="9.6430241"><ele>320.0</ele><time>2026-04-06T11:44:43.522Z</time></trkpt><trkpt lat="45.7078211" lon="9.6429329"><ele>320.0</ele><time>2026-04-06T11:45:12.535Z</time></trkpt><trkpt lat="45.7077969" lon="9.6428328"><ele>320.0</ele><time>2026-04-06T11:45:21.518Z</time></trkpt><trkpt lat="45.7078126" lon="9.6427352"><ele>320.0</ele><time>2026-04-06T11:45:28.444Z</time></trkpt><trkpt lat="45.7078365" lon="9.642644"><ele>320.0</ele><time>2026-04-06T11:45:35.532Z</time></trkpt><trkpt lat="45.7078516" lon="9.6425435"><ele>320.0</ele><time>2026-04-06T11:45:41.524Z</time></trkpt><trkpt lat="45.7078454" lon="9.642437"><ele>320.2857142857143</ele><time>2026-04-06T11:45:47.525Z</time></trkpt><trkpt lat="45.7078401" lon="9.6423384"><ele>320.57142857142856</ele><time>2026-04-06T11:45:53.538Z</time></trkpt><trkpt lat="45.7078319" lon="9.642249"><ele>320.8571428571429</ele><time>2026-04-06T11:45:59.532Z</time></trkpt><trkpt lat="45.7078441" lon="9.6421556"><ele>321.1428571428571</ele><time>2026-04-06T11:46:05.524Z</time></trkpt><trkpt lat="45.7078558" lon="9.6420547"><ele>321.42857142857144</ele><time>2026-04-06T11:46:12.486Z</time></trkpt><trkpt lat="45.707885" lon="9.641973"><ele>321.7142857142857</ele><time>2026-04-06T11:46:17.442Z</time></trkpt><trkpt lat="45.7079005" lon="9.6418808"><ele>322.0</ele><time>2026-04-06T11:46:23.523Z</time></trkpt><trkpt lat="45.7079193" lon="9.6417815"><ele>321.0</ele><time>2026-04-06T11:46:29.512Z</time></trkpt><trkpt lat="45.7079272" lon="9.6416816"><ele>320.0</ele><time>2026-04-06T11:46:35.532Z</time></trkpt><trkpt lat="45.7079351" lon="9.6415905"><ele>319.0</ele><time>2026-04-06T11:46:41.52Z</time></trkpt><trkpt lat="45.7078769" lon="9.6415401"><ele>318.0</ele><time>2026-04-06T11:46:54.514Z</time></trkpt><trkpt lat="45.7078678" lon="9.6414408"><ele>317.0</ele><time>2026-04-06T11:47:00.413Z</time></trkpt><trkpt lat="45.7079028" lon="9.6413617"><ele>316.0</ele><time>2026-04-06T11:47:04.532Z</time></trkpt><trkpt lat="45.7079425" lon="9.6412747"><ele>315.0</ele><time>2026-04-06T11:47:09.525Z</time></trkpt><trkpt lat="45.7079802" lon="9.6411911"><ele>312.85714285714283</ele><time>2026-04-06T11:47:14.528Z</time></trkpt><trkpt lat="45.708018" lon="9.6411177"><ele>310.7142857142857</ele><time>2026-04-06T11:47:19.528Z</time></trkpt><trkpt lat="45.7080567" lon="9.6410333"><ele>308.57142857142856</ele><time>2026-04-06T11:47:25.506Z</time></trkpt><trkpt lat="45.7080934" lon="9.6409579"><ele>306.42857142857144</ele><time>2026-04-06T11:47:31.522Z</time></trkpt><trkpt lat="45.7081089" lon="9.6408643"><ele>304.2857142857143</ele><time>2026-04-06T11:47:37.526Z</time></trkpt><trkpt lat="45.7081141" lon="9.6407639"><ele>302.1428571428571</ele><time>2026-04-06T11:47:43.53Z</time></trkpt><trkpt lat="45.7081389" lon="9.6406617"><ele>300.0</ele><time>2026-04-06T11:47:49.538Z</time></trkpt><trkpt lat="45.7081762" lon="9.640576"><ele>299.99999999999994</ele><time>2026-04-06T11:47:55.526Z</time></trkpt><trkpt lat="45.7082276" lon="9.6405027"><ele>300.0</ele><time>2026-04-06T11:48:01.505Z</time></trkpt><trkpt lat="45.7082876" lon="9.6404486"><ele>300.0</ele><time>2026-04-06T11:48:08.524Z</time></trkpt><trkpt lat="45.708304" lon="9.6403561"><ele>300.0</ele><time>2026-04-06T11:48:14.545Z</time></trkpt><trkpt lat="45.7083587" lon="9.6403041"><ele>300.0</ele><time>2026-04-06T11:48:20.524Z</time></trkpt><trkpt lat="45.7084074" lon="9.6402407"><ele>299.99999999999994</ele><time>2026-04-06T11:48:25.45Z</time></trkpt><trkpt lat="45.7084505" lon="9.6401603"><ele>300.0</ele><time>2026-04-06T11:48:31.516Z</time></trkpt><trkpt lat="45.708454" lon="9.6400602"><ele>297.57142857142856</ele><time>2026-04-06T11:48:37.528Z</time></trkpt><trkpt lat="45.7084306" lon="9.6399719"><ele>295.1428571428571</ele><time>2026-04-06T11:48:52.464Z</time></trkpt><trkpt lat="45.7083708" lon="9.6399136"><ele>292.7142857142857</ele><time>2026-04-06T11:48:57.525Z</time></trkpt><trkpt lat="45.7083019" lon="9.6398818"><ele>290.2857142857143</ele><time>2026-04-06T11:49:09.469Z</time></trkpt><trkpt lat="45.708233" lon="9.6398707"><ele>287.8571428571429</ele><time>2026-04-06T11:49:14.53Z</time></trkpt><trkpt lat="45.708208" lon="9.6397699"><ele>285.42857142857144</ele><time>2026-04-06T11:49:19.545Z</time></trkpt><trkpt lat="45.7082638" lon="9.639695"><ele>283.0</ele><time>2026-04-06T11:49:24.447Z</time></trkpt><trkpt lat="45.7083344" lon="9.6397383"><ele>283.0</ele><time>2026-04-06T11:49:31.513Z</time></trkpt><trkpt lat="45.708394" lon="9.6397737"><ele>283.0</ele><time>2026-04-06T11:49:36.512Z</time></trkpt><trkpt lat="45.7084519" lon="9.6398225"><ele>283.0</ele><time>2026-04-06T11:49:42.531Z</time></trkpt><trkpt lat="45.7085175" lon="9.6398674"><ele>283.0</ele><time>2026-04-06T11:49:48.535Z</time></trkpt><trkpt lat="45.7085828" lon="9.6399013"><ele>283.0</ele><time>2026-04-06T11:49:54.539Z</time></trkpt><trkpt lat="45.708525" lon="9.6399497"><ele>283.0</ele><time>2026-04-06T11:50:07.523Z</time></trkpt><trkpt lat="45.7084662" lon="9.6399094"><ele>283.0</ele><time>2026-04-06T11:50:12.526Z</time></trkpt><trkpt lat="45.7084076" lon="9.6398726"><ele>283.0</ele><time>2026-04-06T11:50:17.538Z</time></trkpt><trkpt lat="45.7083468" lon="9.6398429"><ele>283.0</ele><time>2026-04-06T11:50:23.569Z</time></trkpt><trkpt lat="45.7082826" lon="9.6398243"><ele>283.0</ele><time>2026-04-06T11:50:29.523Z</time></trkpt><trkpt lat="45.7082471" lon="9.6397482"><ele>283.0</ele><time>2026-04-06T11:50:37.52Z</time></trkpt><trkpt lat="45.7082502" lon="9.6396541"><ele>283.0</ele><time>2026-04-06T11:50:43.519Z</time></trkpt><trkpt lat="45.7082526" lon="9.6395606"><ele>283.0</ele><time>2026-04-06T11:50:56.53Z</time></trkpt><trkpt lat="45.7082751" lon="9.6394556"><ele>283.0</ele><time>2026-04-06T11:51:01.529Z</time></trkpt><trkpt lat="45.7082852" lon="9.6393591"><ele>282.8333333333333</ele><time>2026-04-06T11:51:07.532Z</time></trkpt><trkpt lat="45.7082985" lon="9.6392628"><ele>282.66666666666663</ele><time>2026-04-06T11:51:14.522Z</time></trkpt><trkpt lat="45.7083162" lon="9.6391756"><ele>282.5</ele><time>2026-04-06T11:51:20.527Z</time></trkpt><trkpt lat="45.7083301" lon="9.6390851"><ele>282.3333333333333</ele><time>2026-04-06T11:51:29.531Z</time></trkpt><trkpt lat="45.7082786" lon="9.639017"><ele>282.1666666666667</ele><time>2026-04-06T11:51:36.516Z</time></trkpt><trkpt lat="45.7082163" lon="9.6388199"><ele>282.0</ele><time>2026-04-06T11:52:22.52Z</time></trkpt><trkpt lat="45.7081896" lon="9.6387239"><ele>283.8571428571429</ele><time>2026-04-06T11:52:26.565Z</time></trkpt><trkpt lat="45.7081627" lon="9.638623"><ele>285.7142857142857</ele><time>2026-04-06T11:52:33.539Z</time></trkpt><trkpt lat="45.7081366" lon="9.6385197"><ele>287.57142857142856</ele><time>2026-04-06T11:53:31.514Z</time></trkpt><trkpt lat="45.7081103" lon="9.6384235"><ele>289.42857142857144</ele><time>2026-04-06T11:53:36.522Z</time></trkpt><trkpt lat="45.7080814" lon="9.6383371"><ele>291.2857142857143</ele><time>2026-04-06T11:53:41.527Z</time></trkpt><trkpt lat="45.7080596" lon="9.6382523"><ele>293.14285714285717</ele><time>2026-04-06T11:53:46.52Z</time></trkpt><trkpt lat="45.7080395" lon="9.6381474"><ele>295.0</ele><time>2026-04-06T11:53:54.512Z</time></trkpt><trkpt lat="45.7080167" lon="9.6380573"><ele>295.00000000000006</ele><time>2026-04-06T11:54:01.511Z</time></trkpt><trkpt lat="45.7079861" lon="9.6379728"><ele>295.0</ele><time>2026-04-06T11:54:08.509Z</time></trkpt><trkpt lat="45.7079503" lon="9.6378944"><ele>295.0</ele><time>2026-04-06T11:54:50.508Z</time></trkpt><trkpt lat="45.707915" lon="9.6378043"><ele>295.0</ele><time>2026-04-06T11:54:57.513Z</time></trkpt><trkpt lat="45.7078811" lon="9.6377247"><ele>295.0</ele><time>2026-04-06T11:55:03.509Z</time></trkpt><trkpt lat="45.7078545" lon="9.637634"><ele>295.00000000000006</ele><time>2026-04-06T11:55:10.523Z</time></trkpt><trkpt lat="45.7078308" lon="9.637538"><ele>295.0</ele><time>2026-04-06T11:55:17.522Z</time></trkpt><trkpt lat="45.7078038" lon="9.6374529"><ele>293.42857142857144</ele><time>2026-04-06T11:55:23.524Z</time></trkpt><trkpt lat="45.707779" lon="9.637354"><ele>291.8571428571429</ele><time>2026-04-06T11:55:29.524Z</time></trkpt><trkpt lat="45.7077651" lon="9.6372627"><ele>290.2857142857143</ele><time>2026-04-06T11:55:34.524Z</time></trkpt><trkpt lat="45.7077433" lon="9.6371706"><ele>288.7142857142857</ele><time>2026-04-06T11:55:39.513Z</time></trkpt><trkpt lat="45.7077229" lon="9.6370767"><ele>287.1428571428571</ele><time>2026-04-06T11:55:45.509Z</time></trkpt><trkpt lat="45.7077004" lon="9.6369748"><ele>285.57142857142856</ele><time>2026-04-06T11:55:51.524Z</time></trkpt><trkpt lat="45.7076735" lon="9.6368748"><ele>284.0</ele><time>2026-04-06T11:55:57.509Z</time></trkpt><trkpt lat="45.70765" lon="9.6367876"><ele>284.0</ele><time>2026-04-06T11:56:02.52Z</time></trkpt><trkpt lat="45.7076558" lon="9.6366801"><ele>284.0</ele><time>2026-04-06T11:56:09.528Z</time></trkpt><trkpt lat="45.7076574" lon="9.6365809"><ele>284.0</ele><time>2026-04-06T11:56:14.543Z</time></trkpt><trkpt lat="45.7076227" lon="9.6364866"><ele>284.0</ele><time>2026-04-06T11:56:19.523Z</time></trkpt><trkpt lat="45.7075861" lon="9.636406"><ele>284.0</ele><time>2026-04-06T11:56:23.526Z</time></trkpt><trkpt lat="45.7075383" lon="9.6363368"><ele>284.0</ele><time>2026-04-06T11:56:27.52Z</time></trkpt><trkpt lat="45.7074897" lon="9.6362567"><ele>284.0</ele><time>2026-04-06T11:56:32.527Z</time></trkpt><trkpt lat="45.7074888" lon="9.6361569"><ele>284.1428571428571</ele><time>2026-04-06T11:56:37.476Z</time></trkpt><trkpt lat="45.7075096" lon="9.6360556"><ele>284.2857142857143</ele><time>2026-04-06T11:56:42.398Z</time></trkpt><trkpt lat="45.7075488" lon="9.6359607"><ele>284.42857142857144</ele><time>2026-04-06T11:56:47.53Z</time></trkpt><trkpt lat="45.7075803" lon="9.6358685"><ele>284.57142857142856</ele><time>2026-04-06T11:56:52.532Z</time></trkpt><trkpt lat="45.7076202" lon="9.6357907"><ele>284.7142857142857</ele><time>2026-04-06T11:56:57.476Z</time></trkpt><trkpt lat="45.7076547" lon="9.6356996"><ele>284.85714285714283</ele><time>2026-04-06T11:57:02.54Z</time></trkpt><trkpt lat="45.7076828" lon="9.635618"><ele>285.0</ele><time>2026-04-06T11:57:07.53Z</time></trkpt><trkpt lat="45.7077073" lon="9.6355131"><ele>288.2857142857143</ele><time>2026-04-06T11:57:12.522Z</time></trkpt><trkpt lat="45.7077442" lon="9.6354301"><ele>291.57142857142856</ele><time>2026-04-06T11:57:17.521Z</time></trkpt><trkpt lat="45.7077757" lon="9.6353477"><ele>294.8571428571429</ele><time>2026-04-06T11:57:22.524Z</time></trkpt><trkpt lat="45.7078076" lon="9.6352545"><ele>298.1428571428571</ele><time>2026-04-06T11:57:28.523Z</time></trkpt><trkpt lat="45.7078223" lon="9.6351611"><ele>301.42857142857144</ele><time>2026-04-06T11:57:33.515Z</time></trkpt><trkpt lat="45.7078354" lon="9.6350534"><ele>304.7142857142857</ele><time>2026-04-06T11:57:38.442Z</time></trkpt><trkpt lat="45.7078514" lon="9.6349577"><ele>308.0</ele><time>2026-04-06T11:57:43.517Z</time></trkpt><trkpt lat="45.7078687" lon="9.6348706"><ele>308.0</ele><time>2026-04-06T11:57:48.533Z</time></trkpt><trkpt lat="45.707871" lon="9.6347667"><ele>308.0</ele><time>2026-04-06T11:57:58.52Z</time></trkpt><trkpt lat="45.707879" lon="9.6346613"><ele>308.0</ele><time>2026-04-06T11:58:03.483Z</time></trkpt><trkpt lat="45.7078961" lon="9.6345574"><ele>308.0</ele><time>2026-04-06T11:58:09.517Z</time></trkpt><trkpt lat="45.7079275" lon="9.6344663"><ele>308.0</ele><time>2026-04-06T11:58:16.533Z</time></trkpt><trkpt lat="45.7079087" lon="9.6343706"><ele>308.0</ele><time>2026-04-06T11:58:22.558Z</time></trkpt><trkpt lat="45.7078618" lon="9.6343036"><ele>308.0</ele><time>2026-04-06T11:58:27.527Z</time></trkpt><trkpt lat="45.7077919" lon="9.634267"><ele>305.0</ele><time>2026-04-06T11:58:33.488Z</time></trkpt><trkpt lat="45.7077293" lon="9.6342415"><ele>302.0</ele><time>2026-04-06T11:58:38.52Z</time></trkpt><trkpt lat="45.7076681" lon="9.6341851"><ele>299.0</ele><time>2026-04-06T11:58:44.52Z</time></trkpt><trkpt lat="45.7076184" lon="9.6341121"><ele>296.0</ele><time>2026-04-06T11:58:50.529Z</time></trkpt><trkpt lat="45.7075903" lon="9.6340156"><ele>293.0</ele><time>2026-04-06T11:58:56.531Z</time></trkpt><trkpt lat="45.7075844" lon="9.633916"><ele>290.0</ele><time>2026-04-06T11:59:03.444Z</time></trkpt><trkpt lat="45.7075397" lon="9.6338379"><ele>287.0</ele><time>2026-04-06T11:59:10.516Z</time></trkpt><trkpt lat="45.707515" lon="9.6337046"><ele>288.42857142857144</ele><time>2026-04-06T12:00:13.522Z</time></trkpt><trkpt lat="45.7074759" lon="9.6336283"><ele>289.8571428571429</ele><time>2026-04-06T12:00:18.523Z</time></trkpt><trkpt lat="45.7074225" lon="9.6335572"><ele>291.2857142857143</ele><time>2026-04-06T12:00:27.525Z</time></trkpt><trkpt lat="45.707403" lon="9.6334638"><ele>292.7142857142857</ele><time>2026-04-06T12:00:33.528Z</time></trkpt><trkpt lat="45.7073903" lon="9.6333611"><ele>294.14285714285717</ele><time>2026-04-06T12:00:39.528Z</time></trkpt><trkpt lat="45.707359" lon="9.6332699"><ele>295.57142857142856</ele><time>2026-04-06T12:00:45.499Z</time></trkpt><trkpt lat="45.7073181" lon="9.6331805"><ele>297.0</ele><time>2026-04-06T12:00:50.524Z</time></trkpt><trkpt lat="45.7073066" lon="9.6330858"><ele>297.0</ele><time>2026-04-06T12:00:55.494Z</time></trkpt><trkpt lat="45.707292" lon="9.6329867"><ele>297.0</ele><time>2026-04-06T12:01:00.522Z</time></trkpt><trkpt lat="45.7072691" lon="9.6328902"><ele>297.0</ele><time>2026-04-06T12:01:05.536Z</time></trkpt><trkpt lat="45.7072335" lon="9.6328064"><ele>297.0</ele><time>2026-04-06T12:01:10.522Z</time></trkpt><trkpt lat="45.7071948" lon="9.632728"><ele>297.0</ele><time>2026-04-06T12:01:15.54Z</time></trkpt><trkpt lat="45.7071427" lon="9.632668"><ele>297.0</ele><time>2026-04-06T12:01:22.521Z</time></trkpt><trkpt lat="45.7070908" lon="9.632612"><ele>297.0</ele><time>2026-04-06T12:01:27.534Z</time></trkpt><trkpt lat="45.7070228" lon="9.6325709"><ele>296.0</ele><time>2026-04-06T12:01:34.534Z</time></trkpt><trkpt lat="45.7069601" lon="9.6325324"><ele>295.0</ele><time>2026-04-06T12:01:40.524Z</time></trkpt><trkpt lat="45.7069013" lon="9.6324972"><ele>294.0</ele><time>2026-04-06T12:01:45.527Z</time></trkpt><trkpt lat="45.7068489" lon="9.6324298"><ele>293.0</ele><time>2026-04-06T12:01:52.509Z</time></trkpt><trkpt lat="45.7067997" lon="9.6323535"><ele>292.0</ele><time>2026-04-06T12:02:01.516Z</time></trkpt><trkpt lat="45.7067648" lon="9.6322708"><ele>291.0</ele><time>2026-04-06T12:02:10.526Z</time></trkpt><trkpt lat="45.7067529" lon="9.6321636"><ele>290.0</ele><time>2026-04-06T12:02:19.533Z</time></trkpt><trkpt lat="45.7067463" lon="9.6320585"><ele>291.42857142857144</ele><time>2026-04-06T12:02:26.525Z</time></trkpt><trkpt lat="45.7067548" lon="9.6319636"><ele>292.8571428571429</ele><time>2026-04-06T12:02:32.586Z</time></trkpt><trkpt lat="45.7067549" lon="9.6318645"><ele>294.2857142857143</ele><time>2026-04-06T12:02:39.485Z</time></trkpt><trkpt lat="45.7067352" lon="9.6317628"><ele>295.7142857142857</ele><time>2026-04-06T12:02:47.528Z</time></trkpt><trkpt lat="45.706704" lon="9.631671"><ele>297.1428571428571</ele><time>2026-04-06T12:02:53.524Z</time></trkpt><trkpt lat="45.7066662" lon="9.6315921"><ele>298.57142857142856</ele><time>2026-04-06T12:02:58.516Z</time></trkpt><trkpt lat="45.7066253" lon="9.6315139"><ele>300.0</ele><time>2026-04-06T12:03:02.521Z</time></trkpt><trkpt lat="45.7065842" lon="9.6314285"><ele>300.0</ele><time>2026-04-06T12:03:09.423Z</time></trkpt><trkpt lat="45.7065504" lon="9.6313512"><ele>300.0</ele><time>2026-04-06T12:03:15.521Z</time></trkpt><trkpt lat="45.7065303" lon="9.6312652"><ele>300.0</ele><time>2026-04-06T12:03:20.525Z</time></trkpt><trkpt lat="45.706547" lon="9.6311742"><ele>300.0</ele><time>2026-04-06T12:03:27.515Z</time></trkpt><trkpt lat="45.7065929" lon="9.6311119"><ele>300.0</ele><time>2026-04-06T12:03:33.475Z</time></trkpt><trkpt lat="45.7066317" lon="9.6310404"><ele>300.0</ele><time>2026-04-06T12:03:42.523Z</time></trkpt><trkpt lat="45.7066491" lon="9.630953"><ele>300.0</ele><time>2026-04-06T12:03:51.518Z</time></trkpt><trkpt lat="45.7066765" lon="9.6308672"><ele>300.0</ele><time>2026-04-06T12:04:00.598Z</time></trkpt><trkpt lat="45.7066982" lon="9.6307716"><ele>299.57142857142856</ele><time>2026-04-06T12:04:11.511Z</time></trkpt><trkpt lat="45.7067407" lon="9.6306922"><ele>299.1428571428571</ele><time>2026-04-06T12:04:19.523Z</time></trkpt><trkpt lat="45.7067554" lon="9.6305935"><ele>298.7142857142857</ele><time>2026-04-06T12:04:26.533Z</time></trkpt><trkpt lat="45.7067825" lon="9.6305103"><ele>298.2857142857143</ele><time>2026-04-06T12:04:31.532Z</time></trkpt><trkpt lat="45.7068027" lon="9.630424"><ele>297.8571428571429</ele><time>2026-04-06T12:04:37.546Z</time></trkpt><trkpt lat="45.7067852" lon="9.6303329"><ele>297.42857142857144</ele><time>2026-04-06T12:04:46.525Z</time></trkpt><trkpt lat="45.7068017" lon="9.6302256"><ele>297.0</ele><time>2026-04-06T12:04:54.557Z</time></trkpt><trkpt lat="45.7068483" lon="9.6301626"><ele>297.0</ele><time>2026-04-06T12:05:01.532Z</time></trkpt><trkpt lat="45.7068822" lon="9.6300841"><ele>297.0</ele><time>2026-04-06T12:05:06.525Z</time></trkpt><trkpt lat="45.7069226" lon="9.6300051"><ele>297.0</ele><time>2026-04-06T12:05:12.521Z</time></trkpt><trkpt lat="45.7069561" lon="9.6299215"><ele>297.0</ele><time>2026-04-06T12:05:19.516Z</time></trkpt><trkpt lat="45.7069647" lon="9.629827"><ele>297.0</ele><time>2026-04-06T12:05:26.525Z</time></trkpt><trkpt lat="45.7069962" lon="9.6297421"><ele>297.0</ele><time>2026-04-06T12:05:33.527Z</time></trkpt><trkpt lat="45.7070195" lon="9.6296542"><ele>297.0</ele><time>2026-04-06T12:05:43.515Z</time></trkpt><trkpt lat="45.7070554" lon="9.6295649"><ele>299.2857142857143</ele><time>2026-04-06T12:05:49.531Z</time></trkpt><trkpt lat="45.7070626" lon="9.6294673"><ele>301.5714285714286</ele><time>2026-04-06T12:05:55.527Z</time></trkpt><trkpt lat="45.7070921" lon="9.6293833"><ele>303.8571428571429</ele><time>2026-04-06T12:06:04.539Z</time></trkpt><trkpt lat="45.7071267" lon="9.6293053"><ele>306.14285714285717</ele><time>2026-04-06T12:06:10.524Z</time></trkpt><trkpt lat="45.7071447" lon="9.6292058"><ele>308.42857142857144</ele><time>2026-04-06T12:06:15.522Z</time></trkpt><trkpt lat="45.7071867" lon="9.6291303"><ele>310.7142857142857</ele><time>2026-04-06T12:06:21.524Z</time></trkpt><trkpt lat="45.7072361" lon="9.629056"><ele>313.0</ele><time>2026-04-06T12:06:27.53Z</time></trkpt><trkpt lat="45.707249" lon="9.6289668"><ele>313.0</ele><time>2026-04-06T12:06:33.528Z</time></trkpt><trkpt lat="45.7072423" lon="9.6288762"><ele>313.0</ele><time>2026-04-06T12:06:39.539Z</time></trkpt><trkpt lat="45.7072327" lon="9.628778"><ele>313.0</ele><time>2026-04-06T12:06:46.515Z</time></trkpt><trkpt lat="45.707208" lon="9.6286803"><ele>313.0</ele><time>2026-04-06T12:06:54.512Z</time></trkpt><trkpt lat="45.7072355" lon="9.6285859"><ele>313.0</ele><time>2026-04-06T12:07:00.516Z</time></trkpt><trkpt lat="45.7072198" lon="9.6284952"><ele>313.0</ele><time>2026-04-06T12:07:09.513Z</time></trkpt><trkpt lat="45.7072386" lon="9.6283967"><ele>313.0</ele><time>2026-04-06T12:07:23.51Z</time></trkpt><trkpt lat="45.7072197" lon="9.6283092"><ele>312.85714285714283</ele><time>2026-04-06T12:07:35.509Z</time></trkpt><trkpt lat="45.7072331" lon="9.6282084"><ele>312.7142857142857</ele><time>2026-04-06T12:07:41.509Z</time></trkpt><trkpt lat="45.7072483" lon="9.6281197"><ele>312.57142857142856</ele><time>2026-04-06T12:07:47.505Z</time></trkpt><trkpt lat="45.7072579" lon="9.6280215"><ele>312.42857142857144</ele><time>2026-04-06T12:07:56.437Z</time></trkpt><trkpt lat="45.7072678" lon="9.6279285"><ele>312.2857142857143</ele><time>2026-04-06T12:08:02.512Z</time></trkpt><trkpt lat="45.7072759" lon="9.6278303"><ele>312.14285714285717</ele><time>2026-04-06T12:08:10.516Z</time></trkpt><trkpt lat="45.707312" lon="9.6277439"><ele>312.0</ele><time>2026-04-06T12:08:17.515Z</time></trkpt><trkpt lat="45.7073523" lon="9.6276594"><ele>312.42857142857144</ele><time>2026-04-06T12:08:22.519Z</time></trkpt><trkpt lat="45.7073747" lon="9.6275735"><ele>312.85714285714283</ele><time>2026-04-06T12:08:27.519Z</time></trkpt><trkpt lat="45.7074048" lon="9.6274891"><ele>313.2857142857143</ele><time>2026-04-06T12:08:33.516Z</time></trkpt><trkpt lat="45.7074705" lon="9.6274905"><ele>313.7142857142857</ele><time>2026-04-06T12:08:43.515Z</time></trkpt><trkpt lat="45.7075241" lon="9.627427"><ele>314.1428571428571</ele><time>2026-04-06T12:08:50.517Z</time></trkpt><trkpt lat="45.707559" lon="9.627332"><ele>314.57142857142856</ele><time>2026-04-06T12:08:55.432Z</time></trkpt><trkpt lat="45.7075679" lon="9.627235"><ele>315.0</ele><time>2026-04-06T12:09:00.521Z</time></trkpt><trkpt lat="45.7075926" lon="9.6271458"><ele>315.0</ele><time>2026-04-06T12:09:07.517Z</time></trkpt><trkpt lat="45.7076118" lon="9.627057"><ele>315.0</ele><time>2026-04-06T12:09:15.515Z</time></trkpt><trkpt lat="45.7075633" lon="9.6269793"><ele>315.0</ele><time>2026-04-06T12:09:23.474Z</time></trkpt><trkpt lat="45.7075538" lon="9.6268843"><ele>315.0</ele><time>2026-04-06T12:09:32.523Z</time></trkpt><trkpt lat="45.7075236" lon="9.6267912"><ele>315.0</ele><time>2026-04-06T12:09:41.516Z</time></trkpt><trkpt lat="45.7075463" lon="9.6267038"><ele>315.0</ele><time>2026-04-06T12:09:46.516Z</time></trkpt><trkpt lat="45.7075547" lon="9.6266028"><ele>315.0</ele><time>2026-04-06T12:09:54.516Z</time></trkpt><trkpt lat="45.7075242" lon="9.6265196"><ele>315.42857142857144</ele><time>2026-04-06T12:10:02.546Z</time></trkpt><trkpt lat="45.7074782" lon="9.6264503"><ele>315.8571428571429</ele><time>2026-04-06T12:10:09.515Z</time></trkpt><trkpt lat="45.7074467" lon="9.6263603"><ele>316.2857142857143</ele><time>2026-04-06T12:10:18.522Z</time></trkpt><trkpt lat="45.7075096" lon="9.6263273"><ele>316.7142857142857</ele><time>2026-04-06T12:10:32.519Z</time></trkpt><trkpt lat="45.7075611" lon="9.6262478"><ele>317.14285714285717</ele><time>2026-04-06T12:10:49.55Z</time></trkpt><trkpt lat="45.7075916" lon="9.6261584"><ele>317.57142857142856</ele><time>2026-04-06T12:10:56.516Z</time></trkpt><trkpt lat="45.707655" lon="9.6261565"><ele>318.0</ele><time>2026-04-06T12:11:13.541Z</time></trkpt><trkpt lat="45.7077225" lon="9.6261209"><ele>317.57142857142856</ele><time>2026-04-06T12:11:24.515Z</time></trkpt><trkpt lat="45.707786" lon="9.6261446"><ele>317.14285714285717</ele><time>2026-04-06T12:11:29.54Z</time></trkpt><trkpt lat="45.7078564" lon="9.6261558"><ele>316.7142857142857</ele><time>2026-04-06T12:11:36.538Z</time></trkpt><trkpt lat="45.7078996" lon="9.6262361"><ele>316.2857142857143</ele><time>2026-04-06T12:11:49.519Z</time></trkpt><trkpt lat="45.7079653" lon="9.626205"><ele>315.8571428571429</ele><time>2026-04-06T12:11:55.519Z</time></trkpt><trkpt lat="45.7080309" lon="9.6261849"><ele>315.42857142857144</ele><time>2026-04-06T12:12:02.52Z</time></trkpt><trkpt lat="45.7080936" lon="9.6261468"><ele>315.0</ele><time>2026-04-06T12:12:09.523Z</time></trkpt><trkpt lat="45.7081575" lon="9.6261136"><ele>315.0</ele><time>2026-04-06T12:12:16.574Z</time></trkpt><trkpt lat="45.7082254" lon="9.6260992"><ele>315.0</ele><time>2026-04-06T12:12:22.475Z</time></trkpt><trkpt lat="45.7082922" lon="9.6260784"><ele>315.0</ele><time>2026-04-06T12:12:28.522Z</time></trkpt><trkpt lat="45.7083555" lon="9.6260663"><ele>315.0</ele><time>2026-04-06T12:12:34.524Z</time></trkpt><trkpt lat="45.7084231" lon="9.6260385"><ele>315.0</ele><time>2026-04-06T12:12:40.521Z</time></trkpt><trkpt lat="45.7084932" lon="9.6260245"><ele>315.0</ele><time>2026-04-06T12:12:46.533Z</time></trkpt><trkpt lat="45.7085408" lon="9.6259527"><ele>315.0</ele><time>2026-04-06T12:12:52.519Z</time></trkpt><trkpt lat="45.7086115" lon="9.6259485"><ele>314.85714285714283</ele><time>2026-04-06T12:12:58.517Z</time></trkpt><trkpt lat="45.7086851" lon="9.6259506"><ele>314.7142857142857</ele><time>2026-04-06T12:13:04.528Z</time></trkpt><trkpt lat="45.7087493" lon="9.6259313"><ele>314.57142857142856</ele><time>2026-04-06T12:13:10.513Z</time></trkpt><trkpt lat="45.7088178" lon="9.6259168"><ele>314.42857142857144</ele><time>2026-04-06T12:13:17.531Z</time></trkpt><trkpt lat="45.7088857" lon="9.6259318"><ele>314.2857142857143</ele><time>2026-04-06T12:13:24.526Z</time></trkpt><trkpt lat="45.7089563" lon="9.6259206"><ele>314.1428571428571</ele><time>2026-04-06T12:13:32.518Z</time></trkpt><trkpt lat="45.7090235" lon="9.6259079"><ele>314.0</ele><time>2026-04-06T12:13:38.52Z</time></trkpt><trkpt lat="45.7090923" lon="9.6258929"><ele>313.99999999999994</ele><time>2026-04-06T12:13:44.538Z</time></trkpt><trkpt lat="45.7091555" lon="9.625896"><ele>314.0</ele><time>2026-04-06T12:13:50.517Z</time></trkpt><trkpt lat="45.7092232" lon="9.6258793"><ele>314.0</ele><time>2026-04-06T12:13:56.52Z</time></trkpt><trkpt lat="45.7092887" lon="9.6258641"><ele>314.0</ele><time>2026-04-06T12:14:03.517Z</time></trkpt><trkpt lat="45.7093582" lon="9.6258468"><ele>314.0</ele><time>2026-04-06T12:14:11.516Z</time></trkpt><trkpt lat="45.7094324" lon="9.6258319"><ele>313.99999999999994</ele><time>2026-04-06T12:14:18.517Z</time></trkpt><trkpt lat="45.7095" lon="9.6258208"><ele>314.0</ele><time>2026-04-06T12:14:23.539Z</time></trkpt><trkpt lat="45.7095731" lon="9.6258219"><ele>313.85714285714283</ele><time>2026-04-06T12:14:29.556Z</time></trkpt><trkpt lat="45.7096414" lon="9.6258414"><ele>313.7142857142857</ele><time>2026-04-06T12:14:37.538Z</time></trkpt><trkpt lat="45.7096976" lon="9.6258986"><ele>313.57142857142856</ele><time>2026-04-06T12:14:45.547Z</time></trkpt><trkpt lat="45.7097292" lon="9.6259861"><ele>313.42857142857144</ele><time>2026-04-06T12:14:54.52Z</time></trkpt><trkpt lat="45.7097592" lon="9.6260675"><ele>313.2857142857143</ele><time>2026-04-06T12:15:00.517Z</time></trkpt><trkpt lat="45.7097757" lon="9.6261624"><ele>313.1428571428571</ele><time>2026-04-06T12:15:07.518Z</time></trkpt><trkpt lat="45.7097794" lon="9.6262524"><ele>313.0</ele><time>2026-04-06T12:15:13.522Z</time></trkpt><trkpt lat="45.709778" lon="9.626346"><ele>313.0</ele><time>2026-04-06T12:15:19.523Z</time></trkpt><trkpt lat="45.7097925" lon="9.6264413"><ele>313.0</ele><time>2026-04-06T12:15:26.535Z</time></trkpt><trkpt lat="45.7097951" lon="9.6265367"><ele>313.0</ele><time>2026-04-06T12:15:33.533Z</time></trkpt><trkpt lat="45.7098112" lon="9.6266449"><ele>313.0</ele><time>2026-04-06T12:15:39.518Z</time></trkpt><trkpt lat="45.7098011" lon="9.6267346"><ele>313.0</ele><time>2026-04-06T12:15:46.506Z</time></trkpt><trkpt lat="45.7098248" lon="9.6268274"><ele>313.0</ele><time>2026-04-06T12:15:52.541Z</time></trkpt><trkpt lat="45.7098413" lon="9.6269175"><ele>313.0</ele><time>2026-04-06T12:15:59.52Z</time></trkpt><trkpt lat="45.7098449" lon="9.6270216"><ele>313.7142857142857</ele><time>2026-04-06T12:16:07.512Z</time></trkpt><trkpt lat="45.7098394" lon="9.6271215"><ele>314.42857142857144</ele><time>2026-04-06T12:16:14.517Z</time></trkpt><trkpt lat="45.7098499" lon="9.6272148"><ele>315.1428571428571</ele><time>2026-04-06T12:16:21.515Z</time></trkpt><trkpt lat="45.7098498" lon="9.6273206"><ele>315.8571428571429</ele><time>2026-04-06T12:16:28.471Z</time></trkpt><trkpt lat="45.7098413" lon="9.6274115"><ele>316.5714285714286</ele><time>2026-04-06T12:16:34.511Z</time></trkpt><trkpt lat="45.7098365" lon="9.627511"><ele>317.2857142857143</ele><time>2026-04-06T12:16:40.46Z</time></trkpt><trkpt lat="45.709848" lon="9.627613"><ele>318.0</ele><time>2026-04-06T12:16:47.511Z</time></trkpt><trkpt lat="45.7098252" lon="9.6276983"><ele>318.0</ele><time>2026-04-06T12:16:54.212Z</time></trkpt><trkpt lat="45.7098617" lon="9.6277726"><ele>318.0</ele><time>2026-04-06T12:17:01.515Z</time></trkpt><trkpt lat="45.7098803" lon="9.6278675"><ele>318.0</ele><time>2026-04-06T12:17:07.513Z</time></trkpt><trkpt lat="45.7098976" lon="9.6279631"><ele>318.0</ele><time>2026-04-06T12:17:14.454Z</time></trkpt><trkpt lat="45.7098839" lon="9.6280551"><ele>318.0</ele><time>2026-04-06T12:17:20.517Z</time></trkpt><trkpt lat="45.7098939" lon="9.6281482"><ele>318.0</ele><time>2026-04-06T12:17:28.521Z</time></trkpt><trkpt lat="45.7099538" lon="9.6282153"><ele>318.0</ele><time>2026-04-06T12:17:35.437Z</time></trkpt><trkpt lat="45.710001" lon="9.6282771"><ele>318.7142857142857</ele><time>2026-04-06T12:17:45.511Z</time></trkpt><trkpt lat="45.7100249" lon="9.6283707"><ele>319.42857142857144</ele><time>2026-04-06T12:17:57.523Z</time></trkpt><trkpt lat="45.7100531" lon="9.6284601"><ele>320.14285714285717</ele><time>2026-04-06T12:18:08.512Z</time></trkpt><trkpt lat="45.7100695" lon="9.6285532"><ele>320.8571428571429</ele><time>2026-04-06T12:18:22.452Z</time></trkpt><trkpt lat="45.7101076" lon="9.6286284"><ele>321.57142857142856</ele><time>2026-04-06T12:18:29.514Z</time></trkpt><trkpt lat="45.710145" lon="9.6287059"><ele>322.28571428571433</ele><time>2026-04-06T12:18:36.513Z</time></trkpt><trkpt lat="45.7101709" lon="9.6287922"><ele>323.0</ele><time>2026-04-06T12:18:42.513Z</time></trkpt><trkpt lat="45.7102007" lon="9.6288823"><ele>323.00000000000006</ele><time>2026-04-06T12:18:49.418Z</time></trkpt><trkpt lat="45.7102084" lon="9.6287814"><ele>323.0</ele><time>2026-04-06T12:19:03.513Z</time></trkpt><trkpt lat="45.7102195" lon="9.6286834"><ele>323.0</ele><time>2026-04-06T12:19:09.515Z</time></trkpt><trkpt lat="45.7102206" lon="9.6285924"><ele>323.0</ele><time>2026-04-06T12:19:16.516Z</time></trkpt><trkpt lat="45.7102063" lon="9.6284961"><ele>323.0</ele><time>2026-04-06T12:19:25.513Z</time></trkpt><trkpt lat="45.7102215" lon="9.6283995"><ele>323.00000000000006</ele><time>2026-04-06T12:19:32.477Z</time></trkpt><trkpt lat="45.7101999" lon="9.6283145"><ele>323.0</ele><time>2026-04-06T12:19:39.521Z</time></trkpt><trkpt lat="45.7101944" lon="9.6282229"><ele>323.00000000000006</ele><time>2026-04-06T12:20:05.518Z</time></trkpt><trkpt lat="45.7102248" lon="9.628125"><ele>323.0</ele><time>2026-04-06T12:20:25.512Z</time></trkpt><trkpt lat="45.7102126" lon="9.6280309"><ele>323.0</ele><time>2026-04-06T12:20:30.51Z</time></trkpt><trkpt lat="45.7101874" lon="9.6279443"><ele>323.0</ele><time>2026-04-06T12:20:37.502Z</time></trkpt><trkpt lat="45.7102078" lon="9.627852"><ele>323.0</ele><time>2026-04-06T12:20:46.518Z</time></trkpt><trkpt lat="45.7102001" lon="9.6277554"><ele>323.00000000000006</ele><time>2026-04-06T12:20:53.508Z</time></trkpt><trkpt lat="45.7101956" lon="9.6276582"><ele>323.0</ele><time>2026-04-06T12:21:00.515Z</time></trkpt><trkpt lat="45.7101996" lon="9.6275661"><ele>322.28571428571433</ele><time>2026-04-06T12:21:06.509Z</time></trkpt><trkpt lat="45.7102031" lon="9.6274697"><ele>321.57142857142856</ele><time>2026-04-06T12:21:12.519Z</time></trkpt><trkpt lat="45.7102075" lon="9.6273797"><ele>320.8571428571429</ele><time>2026-04-06T12:21:18.51Z</time></trkpt><trkpt lat="45.7102071" lon="9.6272893"><ele>320.14285714285717</ele><time>2026-04-06T12:21:24.513Z</time></trkpt><trkpt lat="45.7102169" lon="9.6271976"><ele>319.42857142857144</ele><time>2026-04-06T12:21:30.509Z</time></trkpt><trkpt lat="45.7102097" lon="9.6271032"><ele>318.7142857142857</ele><time>2026-04-06T12:21:36.514Z</time></trkpt><trkpt lat="45.7102208" lon="9.6270097"><ele>318.0</ele><time>2026-04-06T12:21:42.521Z</time></trkpt><trkpt lat="45.7102288" lon="9.6269131"><ele>317.2857142857143</ele><time>2026-04-06T12:21:48.509Z</time></trkpt><trkpt lat="45.7102306" lon="9.6268211"><ele>316.5714285714286</ele><time>2026-04-06T12:21:54.515Z</time></trkpt><trkpt lat="45.7102455" lon="9.6267308"><ele>315.8571428571429</ele><time>2026-04-06T12:22:00.522Z</time></trkpt><trkpt lat="45.7102599" lon="9.6266201"><ele>315.1428571428571</ele><time>2026-04-06T12:22:18.511Z</time></trkpt><trkpt lat="45.7102639" lon="9.6265163"><ele>314.42857142857144</ele><time>2026-04-06T12:22:24.512Z</time></trkpt><trkpt lat="45.7102819" lon="9.6264229"><ele>313.7142857142857</ele><time>2026-04-06T12:22:31.513Z</time></trkpt><trkpt lat="45.7103432" lon="9.6264789"><ele>313.0</ele><time>2026-04-06T12:22:38.524Z</time></trkpt><trkpt lat="45.7104082" lon="9.6265182"><ele>308.57142857142856</ele><time>2026-04-06T12:22:45.512Z</time></trkpt><trkpt lat="45.7104796" lon="9.6265064"><ele>304.14285714285717</ele><time>2026-04-06T12:22:51.513Z</time></trkpt><trkpt lat="45.7105477" lon="9.6264563"><ele>299.7142857142857</ele><time>2026-04-06T12:22:58.519Z</time></trkpt><trkpt lat="45.7106057" lon="9.6264069"><ele>295.2857142857143</ele><time>2026-04-06T12:23:07.517Z</time></trkpt><trkpt lat="45.7106629" lon="9.6263584"><ele>290.85714285714283</ele><time>2026-04-06T12:23:14.511Z</time></trkpt><trkpt lat="45.7107233" lon="9.6263073"><ele>286.42857142857144</ele><time>2026-04-06T12:23:19.523Z</time></trkpt><trkpt lat="45.7107943" lon="9.626266"><ele>282.0</ele><time>2026-04-06T12:23:25.514Z</time></trkpt><trkpt lat="45.7108567" lon="9.6262263"><ele>282.0</ele><time>2026-04-06T12:23:31.516Z</time></trkpt><trkpt lat="45.7109193" lon="9.626182"><ele>282.0</ele><time>2026-04-06T12:23:38.523Z</time></trkpt><trkpt lat="45.7109758" lon="9.6261262"><ele>282.0</ele><time>2026-04-06T12:23:44.518Z</time></trkpt><trkpt lat="45.7110289" lon="9.6260678"><ele>282.0</ele><time>2026-04-06T12:23:50.517Z</time></trkpt><trkpt lat="45.7110774" lon="9.6259999"><ele>282.0</ele><time>2026-04-06T12:23:56.524Z</time></trkpt><trkpt lat="45.7111381" lon="9.6259715"><ele>282.0</ele><time>2026-04-06T12:24:01.52Z</time></trkpt><trkpt lat="45.7112015" lon="9.6259577"><ele>282.0</ele><time>2026-04-06T12:24:06.515Z</time></trkpt><trkpt lat="45.7112593" lon="9.625897"><ele>280.57142857142856</ele><time>2026-04-06T12:24:13.48Z</time></trkpt><trkpt lat="45.7113012" lon="9.6258175"><ele>279.1428571428571</ele><time>2026-04-06T12:24:18.542Z</time></trkpt><trkpt lat="45.7113516" lon="9.6257457"><ele>277.71428571428567</ele><time>2026-04-06T12:24:28.499Z</time></trkpt><trkpt lat="45.7113971" lon="9.6256697"><ele>276.2857142857143</ele><time>2026-04-06T12:24:34.509Z</time></trkpt><trkpt lat="45.7114403" lon="9.6255957"><ele>274.85714285714283</ele><time>2026-04-06T12:24:41.524Z</time></trkpt><trkpt lat="45.7115118" lon="9.6255887"><ele>273.4285714285714</ele><time>2026-04-06T12:24:48.522Z</time></trkpt><trkpt lat="45.7115788" lon="9.6256236"><ele>272.0</ele><time>2026-04-06T12:24:54.512Z</time></trkpt><trkpt lat="45.7116377" lon="9.6255811"><ele>271.99999999999994</ele><time>2026-04-06T12:24:59.519Z</time></trkpt><trkpt lat="45.7116869" lon="9.6255223"><ele>272.0</ele><time>2026-04-06T12:25:04.517Z</time></trkpt><trkpt lat="45.7117292" lon="9.6254271"><ele>272.0</ele><time>2026-04-06T12:25:09.451Z</time></trkpt><trkpt lat="45.7117654" lon="9.6253516"><ele>272.0</ele><time>2026-04-06T12:25:14.527Z</time></trkpt><trkpt lat="45.7118167" lon="9.6252966"><ele>272.0</ele><time>2026-04-06T12:25:20.517Z</time></trkpt><trkpt lat="45.7118839" lon="9.6252628"><ele>271.99999999999994</ele><time>2026-04-06T12:25:26.515Z</time></trkpt><trkpt lat="45.7119438" lon="9.6252317"><ele>272.0</ele><time>2026-04-06T12:25:31.46Z</time></trkpt><trkpt lat="45.7120095" lon="9.6251976"><ele>271.57142857142856</ele><time>2026-04-06T12:25:37.524Z</time></trkpt><trkpt lat="45.71207" lon="9.62516"><ele>271.1428571428571</ele><time>2026-04-06T12:25:43.533Z</time></trkpt><trkpt lat="45.7121355" lon="9.6251253"><ele>270.7142857142857</ele><time>2026-04-06T12:25:49.517Z</time></trkpt><trkpt lat="45.7122054" lon="9.6250841"><ele>270.2857142857143</ele><time>2026-04-06T12:25:55.514Z</time></trkpt><trkpt lat="45.7122647" lon="9.6250228"><ele>269.8571428571429</ele><time>2026-04-06T12:26:03.519Z</time></trkpt><trkpt lat="45.7123213" lon="9.6249604"><ele>269.42857142857144</ele><time>2026-04-06T12:26:10.521Z</time></trkpt><trkpt lat="45.7123772" lon="9.6249135"><ele>269.0</ele><time>2026-04-06T12:26:15.481Z</time></trkpt><trkpt lat="45.7124391" lon="9.6248831"><ele>269.0</ele><time>2026-04-06T12:26:20.423Z</time></trkpt><trkpt lat="45.7125037" lon="9.6248174"><ele>269.0</ele><time>2026-04-06T12:26:26.511Z</time></trkpt><trkpt lat="45.7125657" lon="9.6247686"><ele>269.0</ele><time>2026-04-06T12:26:33.526Z</time></trkpt><trkpt lat="45.7126145" lon="9.6247055"><ele>269.0</ele><time>2026-04-06T12:26:39.521Z</time></trkpt><trkpt lat="45.7126667" lon="9.6246413"><ele>269.0</ele><time>2026-04-06T12:26:45.515Z</time></trkpt><trkpt lat="45.7127184" lon="9.6245864"><ele>269.0</ele><time>2026-04-06T12:26:51.529Z</time></trkpt><trkpt lat="45.7127761" lon="9.6245449"><ele>269.0</ele><time>2026-04-06T12:26:57.538Z</time></trkpt><trkpt lat="45.7128347" lon="9.6244857"><ele>268.8571428571429</ele><time>2026-04-06T12:27:05.521Z</time></trkpt><trkpt lat="45.7128908" lon="9.6244304"><ele>268.7142857142857</ele><time>2026-04-06T12:27:11.537Z</time></trkpt><trkpt lat="45.7129438" lon="9.6243799"><ele>268.57142857142856</ele><time>2026-04-06T12:27:17.518Z</time></trkpt><trkpt lat="45.7130044" lon="9.6243334"><ele>268.42857142857144</ele><time>2026-04-06T12:27:23.533Z</time></trkpt><trkpt lat="45.7130618" lon="9.6242899"><ele>268.2857142857143</ele><time>2026-04-06T12:27:29.462Z</time></trkpt><trkpt lat="45.7131213" lon="9.6242248"><ele>268.14285714285717</ele><time>2026-04-06T12:27:37.524Z</time></trkpt><trkpt lat="45.7131849" lon="9.624167"><ele>268.0</ele><time>2026-04-06T12:27:44.517Z</time></trkpt><trkpt lat="45.7132388" lon="9.6241088"><ele>268.0</ele><time>2026-04-06T12:27:50.538Z</time></trkpt><trkpt lat="45.7132942" lon="9.6240619"><ele>268.0</ele><time>2026-04-06T12:27:56.521Z</time></trkpt><trkpt lat="45.7133644" lon="9.6240097"><ele>268.0</ele><time>2026-04-06T12:28:03.532Z</time></trkpt><trkpt lat="45.7134237" lon="9.6239584"><ele>268.0</ele><time>2026-04-06T12:28:09.529Z</time></trkpt><trkpt lat="45.7134804" lon="9.623905"><ele>268.0</ele><time>2026-04-06T12:28:14.545Z</time></trkpt><trkpt lat="45.7135329" lon="9.6238495"><ele>268.0</ele><time>2026-04-06T12:28:21.519Z</time></trkpt><trkpt lat="45.7135831" lon="9.6237878"><ele>268.0</ele><time>2026-04-06T12:28:35.545Z</time></trkpt><trkpt lat="45.7136428" lon="9.6237564"><ele>268.2857142857143</ele><time>2026-04-06T12:28:41.532Z</time></trkpt><trkpt lat="45.7137008" lon="9.6237212"><ele>268.57142857142856</ele><time>2026-04-06T12:28:47.541Z</time></trkpt><trkpt lat="45.7137603" lon="9.6236846"><ele>268.85714285714283</ele><time>2026-04-06T12:28:53.44Z</time></trkpt><trkpt lat="45.713826" lon="9.6236339"><ele>269.1428571428571</ele><time>2026-04-06T12:29:00.524Z</time></trkpt><trkpt lat="45.7138826" lon="9.6235881"><ele>269.4285714285714</ele><time>2026-04-06T12:29:06.422Z</time></trkpt><trkpt lat="45.7139371" lon="9.623542"><ele>269.7142857142857</ele><time>2026-04-06T12:29:11.527Z</time></trkpt><trkpt lat="45.7140008" lon="9.6234939"><ele>270.0</ele><time>2026-04-06T12:29:17.57Z</time></trkpt><trkpt lat="45.7140664" lon="9.6234668"><ele>270.0</ele><time>2026-04-06T12:29:23.511Z</time></trkpt><trkpt lat="45.7141267" lon="9.6234405"><ele>270.0</ele><time>2026-04-06T12:29:30.516Z</time></trkpt><trkpt lat="45.7141858" lon="9.6234001"><ele>270.0</ele><time>2026-04-06T12:29:38.518Z</time></trkpt><trkpt lat="45.7142496" lon="9.6233617"><ele>270.0</ele><time>2026-04-06T12:29:52.517Z</time></trkpt><trkpt lat="45.714237" lon="9.6232637"><ele>270.0</ele><time>2026-04-06T12:30:09.517Z</time></trkpt><trkpt lat="45.7142163" lon="9.6231734"><ele>270.0</ele><time>2026-04-06T12:30:16.517Z</time></trkpt><trkpt lat="45.7142457" lon="9.6230818"><ele>270.0</ele><time>2026-04-06T12:30:20.517Z</time></trkpt><trkpt lat="45.7142891" lon="9.6230017"><ele>270.0</ele><time>2026-04-06T12:30:24.519Z</time></trkpt><trkpt lat="45.714358" lon="9.6229483"><ele>270.0</ele><time>2026-04-06T12:30:29.517Z</time></trkpt><trkpt lat="45.7144317" lon="9.6229451"><ele>270.0</ele><time>2026-04-06T12:30:33.546Z</time></trkpt><trkpt lat="45.7144961" lon="9.622951"><ele>270.0</ele><time>2026-04-06T12:30:37.53Z</time></trkpt><trkpt lat="45.7145654" lon="9.6229807"><ele>270.0</ele><time>2026-04-06T12:30:41.521Z</time></trkpt><trkpt lat="45.714629" lon="9.6229826"><ele>270.0</ele><time>2026-04-06T12:30:45.517Z</time></trkpt><trkpt lat="45.7146913" lon="9.6229369"><ele>270.0</ele><time>2026-04-06T12:30:50.517Z</time></trkpt><trkpt lat="45.7147576" lon="9.6228956"><ele>269.57142857142856</ele><time>2026-04-06T12:30:56.534Z</time></trkpt><trkpt lat="45.7148169" lon="9.6228522"><ele>269.1428571428571</ele><time>2026-04-06T12:31:02.514Z</time></trkpt><trkpt lat="45.7148684" lon="9.6227917"><ele>268.7142857142857</ele><time>2026-04-06T12:31:08.508Z</time></trkpt><trkpt lat="45.714921" lon="9.6227318"><ele>268.2857142857143</ele><time>2026-04-06T12:31:13.511Z</time></trkpt><trkpt lat="45.7149816" lon="9.6226783"><ele>267.8571428571429</ele><time>2026-04-06T12:31:19.517Z</time></trkpt><trkpt lat="45.7150362" lon="9.6226283"><ele>267.42857142857144</ele><time>2026-04-06T12:31:24.513Z</time></trkpt><trkpt lat="45.7150992" lon="9.6225676"><ele>267.0</ele><time>2026-04-06T12:31:31.506Z</time></trkpt><trkpt lat="45.7151628" lon="9.6225278"><ele>267.00000000000006</ele><time>2026-04-06T12:31:38.518Z</time></trkpt><trkpt lat="45.7152233" lon="9.6224803"><ele>267.0</ele><time>2026-04-06T12:31:44.521Z</time></trkpt><trkpt lat="45.7152803" lon="9.6224378"><ele>267.0</ele><time>2026-04-06T12:31:49.513Z</time></trkpt><trkpt lat="45.7153309" lon="9.6223758"><ele>267.0</ele><time>2026-04-06T12:31:55.504Z</time></trkpt><trkpt lat="45.7153866" lon="9.6223124"><ele>267.0</ele><time>2026-04-06T12:32:31.516Z</time></trkpt><trkpt lat="45.7154352" lon="9.6222529"><ele>267.00000000000006</ele><time>2026-04-06T12:32:36.52Z</time></trkpt><trkpt lat="45.7154839" lon="9.6221947"><ele>267.0</ele><time>2026-04-06T12:32:45.51Z</time></trkpt><trkpt lat="45.715545" lon="9.6221599"><ele>267.00000000000006</ele><time>2026-04-06T12:32:53.518Z</time></trkpt><trkpt lat="45.7156144" lon="9.6221276"><ele>267.0</ele><time>2026-04-06T12:33:00.514Z</time></trkpt><trkpt lat="45.7156836" lon="9.6220845"><ele>267.0</ele><time>2026-04-06T12:33:07.521Z</time></trkpt><trkpt lat="45.7157508" lon="9.6220438"><ele>267.0</ele><time>2026-04-06T12:33:14.518Z</time></trkpt><trkpt lat="45.7158079" lon="9.6219992"><ele>267.0</ele><time>2026-04-06T12:33:21.508Z</time></trkpt><trkpt lat="45.7158706" lon="9.6219513"><ele>267.00000000000006</ele><time>2026-04-06T12:33:27.506Z</time></trkpt><trkpt lat="45.7159368" lon="9.6219143"><ele>267.0</ele><time>2026-04-06T12:33:34.517Z</time></trkpt><trkpt lat="45.7159951" lon="9.6218706"><ele>266.8571428571429</ele><time>2026-04-06T12:33:40.509Z</time></trkpt><trkpt lat="45.7160473" lon="9.621819"><ele>266.7142857142857</ele><time>2026-04-06T12:33:46.506Z</time></trkpt><trkpt lat="45.7161064" lon="9.6217835"><ele>266.57142857142856</ele><time>2026-04-06T12:33:52.51Z</time></trkpt><trkpt lat="45.7161647" lon="9.6217433"><ele>266.42857142857144</ele><time>2026-04-06T12:33:58.516Z</time></trkpt><trkpt lat="45.7162268" lon="9.6216963"><ele>266.2857142857143</ele><time>2026-04-06T12:34:04.516Z</time></trkpt><trkpt lat="45.7162674" lon="9.6216213"><ele>266.14285714285717</ele><time>2026-04-06T12:34:09.512Z</time></trkpt><trkpt lat="45.7163135" lon="9.6215539"><ele>266.0</ele><time>2026-04-06T12:34:14.506Z</time></trkpt><trkpt lat="45.7163699" lon="9.6215124"><ele>266.57142857142856</ele><time>2026-04-06T12:34:20.504Z</time></trkpt><trkpt lat="45.716436" lon="9.6214785"><ele>267.1428571428571</ele><time>2026-04-06T12:34:26.521Z</time></trkpt><trkpt lat="45.7164952" lon="9.6214293"><ele>267.7142857142857</ele><time>2026-04-06T12:34:32.509Z</time></trkpt><trkpt lat="45.7165618" lon="9.6213846"><ele>268.2857142857143</ele><time>2026-04-06T12:34:39.508Z</time></trkpt><trkpt lat="45.7166116" lon="9.6213071"><ele>268.85714285714283</ele><time>2026-04-06T12:34:45.42Z</time></trkpt><trkpt lat="45.7166746" lon="9.6212752"><ele>269.42857142857144</ele><time>2026-04-06T12:34:49.517Z</time></trkpt><trkpt lat="45.7167422" lon="9.621249"><ele>270.0</ele><time>2026-04-06T12:34:54.522Z</time></trkpt><trkpt lat="45.7168027" lon="9.6211872"><ele>270.0</ele><time>2026-04-06T12:35:00.495Z</time></trkpt><trkpt lat="45.7168737" lon="9.6211526"><ele>270.0</ele><time>2026-04-06T12:35:06.522Z</time></trkpt><trkpt lat="45.7169335" lon="9.6211216"><ele>270.0</ele><time>2026-04-06T12:35:12.438Z</time></trkpt><trkpt lat="45.7169961" lon="9.6210777"><ele>270.0</ele><time>2026-04-06T12:35:18.515Z</time></trkpt><trkpt lat="45.717056" lon="9.6210218"><ele>270.0</ele><time>2026-04-06T12:35:24.522Z</time></trkpt><trkpt lat="45.7171091" lon="9.6209685"><ele>270.0</ele><time>2026-04-06T12:35:29.517Z</time></trkpt><trkpt lat="45.7171759" lon="9.6209373"><ele>270.0</ele><time>2026-04-06T12:35:35.511Z</time></trkpt><trkpt lat="45.7172403" lon="9.620894"><ele>269.85714285714283</ele><time>2026-04-06T12:35:41.516Z</time></trkpt><trkpt lat="45.7173001" lon="9.6208476"><ele>269.71428571428567</ele><time>2026-04-06T12:35:47.526Z</time></trkpt><trkpt lat="45.7173568" lon="9.6207804"><ele>269.57142857142856</ele><time>2026-04-06T12:35:53.437Z</time></trkpt><trkpt lat="45.7174116" lon="9.6207335"><ele>269.42857142857144</ele><time>2026-04-06T12:35:58.514Z</time></trkpt><trkpt lat="45.7174752" lon="9.6206955"><ele>269.28571428571433</ele><time>2026-04-06T12:36:04.51Z</time></trkpt><trkpt lat="45.7175432" lon="9.6206524"><ele>269.14285714285717</ele><time>2026-04-06T12:36:10.534Z</time></trkpt><trkpt lat="45.7175933" lon="9.6205971"><ele>269.0</ele><time>2026-04-06T12:36:15.523Z</time></trkpt><trkpt lat="45.7176485" lon="9.6205234"><ele>269.0</ele><time>2026-04-06T12:36:21.455Z</time></trkpt><trkpt lat="45.7176997" lon="9.6204661"><ele>269.0</ele><time>2026-04-06T12:36:27.514Z</time></trkpt><trkpt lat="45.7177546" lon="9.6204157"><ele>269.0</ele><time>2026-04-06T12:36:33.509Z</time></trkpt><trkpt lat="45.7178172" lon="9.620364"><ele>269.0</ele><time>2026-04-06T12:36:39.514Z</time></trkpt><trkpt lat="45.7178759" lon="9.6203145"><ele>269.0</ele><time>2026-04-06T12:36:45.534Z</time></trkpt><trkpt lat="45.7179379" lon="9.620266"><ele>269.0</ele><time>2026-04-06T12:36:51.456Z</time></trkpt><trkpt lat="45.7179978" lon="9.6202264"><ele>269.0</ele><time>2026-04-06T12:36:57.514Z</time></trkpt><trkpt lat="45.7180617" lon="9.620179"><ele>269.2857142857143</ele><time>2026-04-06T12:37:03.519Z</time></trkpt><trkpt lat="45.7181213" lon="9.6201196"><ele>269.5714285714286</ele><time>2026-04-06T12:37:10.514Z</time></trkpt><trkpt lat="45.7181778" lon="9.6200662"><ele>269.8571428571429</ele><time>2026-04-06T12:37:16.525Z</time></trkpt><trkpt lat="45.7182175" lon="9.6199906"><ele>270.14285714285717</ele><time>2026-04-06T12:37:23.513Z</time></trkpt><trkpt lat="45.7182646" lon="9.6199146"><ele>270.42857142857144</ele><time>2026-04-06T12:37:40.458Z</time></trkpt><trkpt lat="45.7183334" lon="9.6199074"><ele>270.7142857142857</ele><time>2026-04-06T12:37:45.509Z</time></trkpt><trkpt lat="45.7183971" lon="9.6198976"><ele>271.0</ele><time>2026-04-06T12:37:51.336Z</time></trkpt><trkpt lat="45.7184593" lon="9.61985"><ele>271.0</ele><time>2026-04-06T12:37:57.507Z</time></trkpt><trkpt lat="45.7185154" lon="9.6198004"><ele>271.0</ele><time>2026-04-06T12:38:03.515Z</time></trkpt><trkpt lat="45.718572" lon="9.6197524"><ele>271.0</ele><time>2026-04-06T12:38:09.525Z</time></trkpt><trkpt lat="45.7186296" lon="9.6197004"><ele>271.0</ele><time>2026-04-06T12:38:16.514Z</time></trkpt><trkpt lat="45.7186926" lon="9.6196536"><ele>271.0</ele><time>2026-04-06T12:38:22.525Z</time></trkpt><trkpt lat="45.7187479" lon="9.6196079"><ele>271.0</ele><time>2026-04-06T12:39:26.514Z</time></trkpt><trkpt lat="45.7188061" lon="9.6195656"><ele>271.0</ele><time>2026-04-06T12:39:32.502Z</time></trkpt><trkpt lat="45.7188638" lon="9.6195182"><ele>271.42857142857144</ele><time>2026-04-06T12:39:39.51Z</time></trkpt><trkpt lat="45.7189187" lon="9.6194494"><ele>271.8571428571429</ele><time>2026-04-06T12:39:46.524Z</time></trkpt><trkpt lat="45.7189751" lon="9.6193988"><ele>272.28571428571433</ele><time>2026-04-06T12:39:52.512Z</time></trkpt><trkpt lat="45.7190407" lon="9.6193518"><ele>272.7142857142857</ele><time>2026-04-06T12:39:59.51Z</time></trkpt><trkpt lat="45.71911" lon="9.619316"><ele>273.14285714285717</ele><time>2026-04-06T12:40:05.517Z</time></trkpt><trkpt lat="45.7191671" lon="9.6192574"><ele>273.5714285714286</ele><time>2026-04-06T12:40:11.518Z</time></trkpt><trkpt lat="45.719224" lon="9.619195"><ele>274.0</ele><time>2026-04-06T12:40:17.511Z</time></trkpt><trkpt lat="45.7192844" lon="9.6191462"><ele>274.00000000000006</ele><time>2026-04-06T12:40:23.511Z</time></trkpt><trkpt lat="45.7193441" lon="9.6190872"><ele>274.0</ele><time>2026-04-06T12:40:29.51Z</time></trkpt><trkpt lat="45.7193992" lon="9.6190304"><ele>274.0</ele><time>2026-04-06T12:40:35.519Z</time></trkpt><trkpt lat="45.719463" lon="9.6190489"><ele>274.0</ele><time>2026-04-06T12:40:40.535Z</time></trkpt><trkpt lat="45.7195367" lon="9.619066"><ele>274.0</ele><time>2026-04-06T12:40:46.526Z</time></trkpt><trkpt lat="45.7195965" lon="9.6190277"><ele>274.00000000000006</ele><time>2026-04-06T12:40:51.428Z</time></trkpt><trkpt lat="45.7196495" lon="9.6189756"><ele>274.0</ele><time>2026-04-06T12:40:57.517Z</time></trkpt><trkpt lat="45.719711" lon="9.6189359"><ele>273.5714285714286</ele><time>2026-04-06T12:41:03.516Z</time></trkpt><trkpt lat="45.7197686" lon="9.6188787"><ele>273.14285714285717</ele><time>2026-04-06T12:41:10.511Z</time></trkpt><trkpt lat="45.7198132" lon="9.6187994"><ele>272.7142857142857</ele><time>2026-04-06T12:41:16.51Z</time></trkpt><trkpt lat="45.71987" lon="9.6187476"><ele>272.28571428571433</ele><time>2026-04-06T12:41:22.513Z</time></trkpt><trkpt lat="45.7199324" lon="9.6187115"><ele>271.8571428571429</ele><time>2026-04-06T12:41:28.508Z</time></trkpt><trkpt lat="45.7199936" lon="9.6186683"><ele>271.42857142857144</ele><time>2026-04-06T12:41:33.514Z</time></trkpt><trkpt lat="45.7200537" lon="9.6186189"><ele>271.0</ele><time>2026-04-06T12:41:39.509Z</time></trkpt><trkpt lat="45.7201168" lon="9.6185827"><ele>271.0</ele><time>2026-04-06T12:41:45.536Z</time></trkpt><trkpt lat="45.7201775" lon="9.6185275"><ele>271.0</ele><time>2026-04-06T12:41:51.524Z</time></trkpt><trkpt lat="45.7201155" lon="9.6185625"><ele>271.0</ele><time>2026-04-06T12:42:01.522Z</time></trkpt><trkpt lat="45.7203142" lon="9.6184181"><ele>271.0</ele><time>2026-04-06T12:42:21.514Z</time></trkpt><trkpt lat="45.72036" lon="9.6183538"><ele>271.0</ele><time>2026-04-06T12:42:42.517Z</time></trkpt><trkpt lat="45.720424" lon="9.6183015"><ele>271.0</ele><time>2026-04-06T12:42:48.513Z</time></trkpt><trkpt lat="45.720487" lon="9.6182538"><ele>271.0</ele><time>2026-04-06T12:42:54.513Z</time></trkpt><trkpt lat="45.7205492" lon="9.618207"><ele>271.0</ele><time>2026-04-06T12:43:00.516Z</time></trkpt><trkpt lat="45.7206151" lon="9.6182173"><ele>271.0</ele><time>2026-04-06T12:43:06.525Z</time></trkpt><trkpt lat="45.7206725" lon="9.6181609"><ele>271.0</ele><time>2026-04-06T12:43:13.535Z</time></trkpt><trkpt lat="45.7207229" lon="9.6181026"><ele>271.0</ele><time>2026-04-06T12:43:18.514Z</time></trkpt><trkpt lat="45.7207687" lon="9.6180336"><ele>271.0</ele><time>2026-04-06T12:43:23.521Z</time></trkpt><trkpt lat="45.7208325" lon="9.6179814"><ele>271.0</ele><time>2026-04-06T12:43:30.511Z</time></trkpt><trkpt lat="45.7208956" lon="9.6179318"><ele>271.0</ele><time>2026-04-06T12:43:37.517Z</time></trkpt><trkpt lat="45.7209521" lon="9.6178811"><ele>271.0</ele><time>2026-04-06T12:43:43.515Z</time></trkpt><trkpt lat="45.7210165" lon="9.6178302"><ele>271.0</ele><time>2026-04-06T12:43:50.511Z</time></trkpt><trkpt lat="45.7210712" lon="9.6177699"><ele>271.0</ele><time>2026-04-06T12:43:56.51Z</time></trkpt><trkpt lat="45.7211308" lon="9.6177216"><ele>271.0</ele><time>2026-04-06T12:44:02.515Z</time></trkpt><trkpt lat="45.7211882" lon="9.6176799"><ele>271.0</ele><time>2026-04-06T12:44:08.518Z</time></trkpt><trkpt lat="45.7212462" lon="9.6176275"><ele>271.42857142857144</ele><time>2026-04-06T12:44:14.518Z</time></trkpt><trkpt lat="45.7212972" lon="9.6175593"><ele>271.8571428571429</ele><time>2026-04-06T12:44:21.512Z</time></trkpt><trkpt lat="45.7213629" lon="9.6175141"><ele>272.28571428571433</ele><time>2026-04-06T12:44:27.513Z</time></trkpt><trkpt lat="45.7214269" lon="9.6174712"><ele>272.7142857142857</ele><time>2026-04-06T12:44:33.517Z</time></trkpt><trkpt lat="45.7214871" lon="9.6174213"><ele>273.14285714285717</ele><time>2026-04-06T12:44:39.514Z</time></trkpt><trkpt lat="45.7215399" lon="9.6173653"><ele>273.5714285714286</ele><time>2026-04-06T12:44:45.507Z</time></trkpt><trkpt lat="45.7215992" lon="9.6173091"><ele>274.0</ele><time>2026-04-06T12:44:52.521Z</time></trkpt><trkpt lat="45.7216662" lon="9.6172932"><ele>274.00000000000006</ele><time>2026-04-06T12:44:58.518Z</time></trkpt><trkpt lat="45.7217306" lon="9.6172815"><ele>274.0</ele><time>2026-04-06T12:45:04.517Z</time></trkpt><trkpt lat="45.7217329" lon="9.6171795"><ele>274.0</ele><time>2026-04-06T12:45:09.524Z</time></trkpt><trkpt lat="45.7217898" lon="9.6171313"><ele>274.0</ele><time>2026-04-06T12:45:15.534Z</time></trkpt><trkpt lat="45.7218566" lon="9.617129"><ele>274.0</ele><time>2026-04-06T12:45:27.511Z</time></trkpt><trkpt lat="45.721927" lon="9.6170921"><ele>274.00000000000006</ele><time>2026-04-06T12:45:33.509Z</time></trkpt><trkpt lat="45.7219886" lon="9.6170526"><ele>274.0</ele><time>2026-04-06T12:45:38.514Z</time></trkpt><trkpt lat="45.7220461" lon="9.6170012"><ele>273.8571428571429</ele><time>2026-04-06T12:45:44.548Z</time></trkpt><trkpt lat="45.7221117" lon="9.6169478"><ele>273.7142857142857</ele><time>2026-04-06T12:45:50.518Z</time></trkpt><trkpt lat="45.722166" lon="9.6169001"><ele>273.57142857142856</ele><time>2026-04-06T12:45:55.513Z</time></trkpt><trkpt lat="45.722216" lon="9.6168406"><ele>273.42857142857144</ele><time>2026-04-06T12:46:05.511Z</time></trkpt><trkpt lat="45.7222987" lon="9.6167976"><ele>273.2857142857143</ele><time>2026-04-06T12:46:14.503Z</time></trkpt><trkpt lat="45.7223654" lon="9.6167672"><ele>273.14285714285717</ele><time>2026-04-06T12:46:20.504Z</time></trkpt><trkpt lat="45.7224239" lon="9.616731"><ele>273.0</ele><time>2026-04-06T12:46:26.507Z</time></trkpt><trkpt lat="45.7224754" lon="9.6166547"><ele>273.0</ele><time>2026-04-06T12:46:32.51Z</time></trkpt><trkpt lat="45.7225346" lon="9.6165961"><ele>273.0</ele><time>2026-04-06T12:46:38.517Z</time></trkpt><trkpt lat="45.7225937" lon="9.6165355"><ele>273.0</ele><time>2026-04-06T12:46:44.502Z</time></trkpt><trkpt lat="45.7226488" lon="9.6164906"><ele>273.0</ele><time>2026-04-06T12:46:50.512Z</time></trkpt><trkpt lat="45.7227068" lon="9.6164489"><ele>273.0</ele><time>2026-04-06T12:46:56.507Z</time></trkpt><trkpt lat="45.72276" lon="9.6163994"><ele>273.0</ele><time>2026-04-06T12:47:02.505Z</time></trkpt><trkpt lat="45.7228184" lon="9.6163496"><ele>273.0</ele><time>2026-04-06T12:47:08.503Z</time></trkpt><trkpt lat="45.7228758" lon="9.6163032"><ele>273.14285714285717</ele><time>2026-04-06T12:47:14.506Z</time></trkpt><trkpt lat="45.7229269" lon="9.6162473"><ele>273.2857142857143</ele><time>2026-04-06T12:47:20.506Z</time></trkpt><trkpt lat="45.7229835" lon="9.6161952"><ele>273.42857142857144</ele><time>2026-04-06T12:47:26.422Z</time></trkpt><trkpt lat="45.7230244" lon="9.6161219"><ele>273.57142857142856</ele><time>2026-04-06T12:47:31.506Z</time></trkpt><trkpt lat="45.7230849" lon="9.6160674"><ele>273.7142857142857</ele><time>2026-04-06T12:47:37.51Z</time></trkpt><trkpt lat="45.7231488" lon="9.6160362"><ele>273.8571428571429</ele><time>2026-04-06T12:47:42.506Z</time></trkpt><trkpt lat="45.7232194" lon="9.6160006"><ele>274.0</ele><time>2026-04-06T12:47:49.518Z</time></trkpt><trkpt lat="45.7232843" lon="9.6159694"><ele>273.7142857142857</ele><time>2026-04-06T12:47:55.524Z</time></trkpt><trkpt lat="45.7233381" lon="9.6159183"><ele>273.42857142857144</ele><time>2026-04-06T12:48:01.516Z</time></trkpt><trkpt lat="45.7233928" lon="9.6158615"><ele>273.1428571428571</ele><time>2026-04-06T12:48:07.52Z</time></trkpt><trkpt lat="45.7234513" lon="9.6158153"><ele>272.8571428571429</ele><time>2026-04-06T12:48:13.46Z</time></trkpt><trkpt lat="45.7235067" lon="9.6157641"><ele>272.57142857142856</ele><time>2026-04-06T12:48:19.512Z</time></trkpt><trkpt lat="45.7235653" lon="9.6157186"><ele>272.2857142857143</ele><time>2026-04-06T12:48:25.511Z</time></trkpt><trkpt lat="45.7236225" lon="9.6156568"><ele>272.0</ele><time>2026-04-06T12:48:32.512Z</time></trkpt><trkpt lat="45.7236817" lon="9.6156045"><ele>271.99999999999994</ele><time>2026-04-06T12:48:38.527Z</time></trkpt><trkpt lat="45.7237392" lon="9.6155626"><ele>272.0</ele><time>2026-04-06T12:48:44.508Z</time></trkpt><trkpt lat="45.7238036" lon="9.6155178"><ele>272.0</ele><time>2026-04-06T12:48:50.515Z</time></trkpt><trkpt lat="45.7238613" lon="9.6154741"><ele>272.0</ele><time>2026-04-06T12:48:56.526Z</time></trkpt><trkpt lat="45.7239192" lon="9.6154166"><ele>272.0</ele><time>2026-04-06T12:49:03.558Z</time></trkpt><trkpt lat="45.7239727" lon="9.6153643"><ele>271.99999999999994</ele><time>2026-04-06T12:49:10.511Z</time></trkpt><trkpt lat="45.7240374" lon="9.6153225"><ele>272.0</ele><time>2026-04-06T12:49:17.519Z</time></trkpt><trkpt lat="45.7241011" lon="9.615282"><ele>271.85714285714283</ele><time>2026-04-06T12:49:23.512Z</time></trkpt><trkpt lat="45.7241586" lon="9.6152309"><ele>271.7142857142857</ele><time>2026-04-06T12:49:29.517Z</time></trkpt><trkpt lat="45.7242195" lon="9.615187"><ele>271.57142857142856</ele><time>2026-04-06T12:49:35.509Z</time></trkpt><trkpt lat="45.7242776" lon="9.6151372"><ele>271.42857142857144</ele><time>2026-04-06T12:49:41.516Z</time></trkpt><trkpt lat="45.7243379" lon="9.6150892"><ele>271.2857142857143</ele><time>2026-04-06T12:49:47.527Z</time></trkpt><trkpt lat="45.7243983" lon="9.6150381"><ele>271.1428571428571</ele><time>2026-04-06T12:49:53.508Z</time></trkpt><trkpt lat="45.7244592" lon="9.6149884"><ele>271.0</ele><time>2026-04-06T12:49:59.519Z</time></trkpt><trkpt lat="45.7245216" lon="9.6149447"><ele>271.57142857142856</ele><time>2026-04-06T12:50:05.511Z</time></trkpt><trkpt lat="45.7245801" lon="9.6148893"><ele>272.14285714285717</ele><time>2026-04-06T12:50:11.501Z</time></trkpt><trkpt lat="45.7246367" lon="9.6148362"><ele>272.7142857142857</ele><time>2026-04-06T12:50:17.452Z</time></trkpt><trkpt lat="45.7247005" lon="9.6147926"><ele>273.2857142857143</ele><time>2026-04-06T12:50:23.517Z</time></trkpt><trkpt lat="45.7247624" lon="9.6147447"><ele>273.85714285714283</ele><time>2026-04-06T12:50:29.527Z</time></trkpt><trkpt lat="45.7248182" lon="9.6146816"><ele>274.42857142857144</ele><time>2026-04-06T12:50:35.511Z</time></trkpt><trkpt lat="45.7248756" lon="9.6146347"><ele>275.0</ele><time>2026-04-06T12:50:41.526Z</time></trkpt><trkpt lat="45.7249361" lon="9.6145796"><ele>275.0</ele><time>2026-04-06T12:50:47.508Z</time></trkpt><trkpt lat="45.7249937" lon="9.6145349"><ele>275.0</ele><time>2026-04-06T12:50:53.513Z</time></trkpt><trkpt lat="45.7250493" lon="9.6144752"><ele>275.0</ele><time>2026-04-06T12:50:59.509Z</time></trkpt><trkpt lat="45.7251149" lon="9.6144297"><ele>275.0</ele><time>2026-04-06T12:51:05.512Z</time></trkpt><trkpt lat="45.7251827" lon="9.6143862"><ele>275.0</ele><time>2026-04-06T12:51:11.512Z</time></trkpt><trkpt lat="45.7252422" lon="9.6143389"><ele>275.0</ele><time>2026-04-06T12:51:17.507Z</time></trkpt><trkpt lat="45.7253036" lon="9.6142884"><ele>275.0</ele><time>2026-04-06T12:51:23.541Z</time></trkpt><trkpt lat="45.7253672" lon="9.6142369"><ele>275.0</ele><time>2026-04-06T12:51:29.515Z</time></trkpt><trkpt lat="45.7254365" lon="9.6141806"><ele>275.0</ele><time>2026-04-06T12:51:36.514Z</time></trkpt><trkpt lat="45.7254784" lon="9.6141127"><ele>275.0</ele><time>2026-04-06T12:51:41.52Z</time></trkpt><trkpt lat="45.7255416" lon="9.6140819"><ele>275.0</ele><time>2026-04-06T12:51:53.515Z</time></trkpt><trkpt lat="45.7256091" lon="9.6140576"><ele>275.0</ele><time>2026-04-06T12:51:59.511Z</time></trkpt><trkpt lat="45.7256684" lon="9.6140119"><ele>275.0</ele><time>2026-04-06T12:52:05.511Z</time></trkpt><trkpt lat="45.7257218" lon="9.6139441"><ele>275.0</ele><time>2026-04-06T12:52:11.509Z</time></trkpt><trkpt lat="45.7257613" lon="9.6138723"><ele>275.0</ele><time>2026-04-06T12:52:19.511Z</time></trkpt><trkpt lat="45.7258228" lon="9.6138217"><ele>275.0</ele><time>2026-04-06T12:52:26.499Z</time></trkpt><trkpt lat="45.7258911" lon="9.6137976"><ele>275.0</ele><time>2026-04-06T12:52:31.528Z</time></trkpt><trkpt lat="45.7259521" lon="9.613738"><ele>275.0</ele><time>2026-04-06T12:52:36.513Z</time></trkpt><trkpt lat="45.7260078" lon="9.6136941"><ele>275.0</ele><time>2026-04-06T12:52:41.511Z</time></trkpt><trkpt lat="45.7260707" lon="9.6136402"><ele>275.0</ele><time>2026-04-06T12:52:47.521Z</time></trkpt><trkpt lat="45.7261264" lon="9.6135891"><ele>275.0</ele><time>2026-04-06T12:52:52.485Z</time></trkpt><trkpt lat="45.7261753" lon="9.6135023"><ele>276.2857142857143</ele><time>2026-04-06T12:52:58.515Z</time></trkpt><trkpt lat="45.7262196" lon="9.6134329"><ele>277.57142857142856</ele><time>2026-04-06T12:53:03.52Z</time></trkpt><trkpt lat="45.7262772" lon="9.6133923"><ele>278.85714285714283</ele><time>2026-04-06T12:53:08.514Z</time></trkpt><trkpt lat="45.7263279" lon="9.6133269"><ele>280.1428571428571</ele><time>2026-04-06T12:53:14.51Z</time></trkpt><trkpt lat="45.7263347" lon="9.6132337"><ele>281.4285714285714</ele><time>2026-04-06T12:53:19.53Z</time></trkpt><trkpt lat="45.7262913" lon="9.6131539"><ele>282.7142857142857</ele><time>2026-04-06T12:53:24.512Z</time></trkpt><trkpt lat="45.7262802" lon="9.613061"><ele>284.0</ele><time>2026-04-06T12:53:29.421Z</time></trkpt><trkpt lat="45.7263008" lon="9.6129629"><ele>284.0</ele><time>2026-04-06T12:53:34.517Z</time></trkpt><trkpt lat="45.7262778" lon="9.6128747"><ele>284.0</ele><time>2026-04-06T12:53:39.503Z</time></trkpt><trkpt lat="45.7262766" lon="9.6127634"><ele>284.0</ele><time>2026-04-06T12:53:44.537Z</time></trkpt><trkpt lat="45.7262946" lon="9.6126712"><ele>284.0</ele><time>2026-04-06T12:53:50.512Z</time></trkpt><trkpt lat="45.7263164" lon="9.6125782"><ele>284.0</ele><time>2026-04-06T12:53:55.503Z</time></trkpt><trkpt lat="45.7263199" lon="9.6124743"><ele>284.0</ele><time>2026-04-06T12:54:01.523Z</time></trkpt><trkpt lat="45.726262" lon="9.612421"><ele>284.0</ele><time>2026-04-06T12:54:09.525Z</time></trkpt><trkpt lat="45.72619" lon="9.6124116"><ele>280.0</ele><time>2026-04-06T12:54:15.515Z</time></trkpt><trkpt lat="45.7261394" lon="9.6123411"><ele>280.0</ele><time>2026-04-06T12:54:20.45Z</time></trkpt><trkpt lat="45.726138" lon="9.612245"><ele>280.0</ele><time>2026-04-06T12:54:26.517Z</time></trkpt><trkpt lat="45.7261508" lon="9.6121436"><ele>280.0</ele><time>2026-04-06T12:54:33.507Z</time></trkpt><trkpt lat="45.7261719" lon="9.6120469"><ele>280.0</ele><time>2026-04-06T12:54:39.507Z</time></trkpt><trkpt lat="45.7261706" lon="9.6119459"><ele>279.0</ele><time>2026-04-06T12:54:45.513Z</time></trkpt></trkseg></trk></gpx>